<?xml version="1.0" encoding="UTF-8" standalone="no" ?><gpx xmlns="http://www.topografix.com/GPX/1/1" xmlns:gpxx="http://www.garmin.com/xmlschemas/GpxExtensions/v3" xmlns:wptx1="http://www.garmin.com/xmlschemas/WaypointExtension/v1" xmlns:gpxtpx="http://www.garmin.com/xmlschemas/TrackPointExtension/v1" creator="Astro 320" version="1.1" xmlns:xsi="http://www.w3.org/2001/XMLSchema-instance" xsi:schemaLocation="http://www.topografix.com/GPX/1/1 http://www.topografix.com/GPX/1/1/gpx.xsd http://www.garmin.com/xmlschemas/GpxExtensions/v3 http://www8.garmin.com/xmlschemas/GpxExtensionsv3.xsd http://www.garmin.com/xmlschemas/WaypointExtension/v1 http://www8.garmin.com/xmlschemas/WaypointExtensionv1.xsd http://www.garmin.com/xmlschemas/TrackPointExtension/v1 http://www.garmin.com/xmlschemas/TrackPointExtensionv1.xsd"><metadata><link href="http://www.garmin.com"><text>Garmin International</text></link><time>2026-04-22T12:30:35Z</time></metadata><trk><name>2026-04-22 15:30:33</name><extensions><gpxx:TrackExtension><gpxx:DisplayColor>Blue</gpxx:DisplayColor></gpxx:TrackExtension></extensions><trkseg><trkpt lat="59.0922508948" lon="29.9868352711"><ele>77.04</ele><time>2026-04-22T07:08:27Z</time></trkpt><trkpt lat="59.0922601987" lon="29.9868567288"><ele>77.04</ele><time>2026-04-22T07:08:44Z</time></trkpt><trkpt lat="59.0922604501" lon="29.9869226106"><ele>77.04</ele><time>2026-04-22T07:08:48Z</time></trkpt><trkpt lat="59.0923220571" lon="29.9871345051"><ele>77.04</ele><time>2026-04-22T07:08:59Z</time></trkpt><trkpt lat="59.0923412517" lon="29.9873106088"><ele>77.04</ele><time>2026-04-22T07:09:06Z</time></trkpt><trkpt lat="59.0923472028" lon="29.9873705395"><ele>77.04</ele><time>2026-04-22T07:09:09Z</time></trkpt><trkpt lat="59.0923653077" lon="29.9874585494"><ele>77.52</ele><time>2026-04-22T07:09:15Z</time></trkpt><trkpt lat="59.0924454387" lon="29.9877494853"><ele>77.52</ele><time>2026-04-22T07:09:26Z</time></trkpt><trkpt lat="59.0924789663" lon="29.9878899660"><ele>77.52</ele><time>2026-04-22T07:09:32Z</time></trkpt><trkpt lat="59.0925383102" lon="29.9882034492"><ele>77.52</ele><time>2026-04-22T07:09:47Z</time></trkpt><trkpt lat="59.0925356280" lon="29.9883078039"><ele>77.52</ele><time>2026-04-22T07:09:52Z</time></trkpt><trkpt lat="59.0925815608" lon="29.9884853326"><ele>77.52</ele><time>2026-04-22T07:09:59Z</time></trkpt><trkpt lat="59.0926002525" lon="29.9885244761"><ele>77.52</ele><time>2026-04-22T07:10:01Z</time></trkpt><trkpt lat="59.0926233865" lon="29.9886505399"><ele>77.52</ele><time>2026-04-22T07:10:15Z</time></trkpt><trkpt lat="59.0926426649" lon="29.9887035135"><ele>77.52</ele><time>2026-04-22T07:10:31Z</time></trkpt><trkpt lat="59.0926880110" lon="29.9887882546"><ele>77.52</ele><time>2026-04-22T07:10:36Z</time></trkpt><trkpt lat="59.0927299205" lon="29.9889250472"><ele>77.52</ele><time>2026-04-22T07:10:42Z</time></trkpt><trkpt lat="59.0927730035" lon="29.9890558049"><ele>77.52</ele><time>2026-04-22T07:10:48Z</time></trkpt><trkpt lat="59.0927779488" lon="29.9891134724"><ele>77.52</ele><time>2026-04-22T07:10:50Z</time></trkpt><trkpt lat="59.0927556530" lon="29.9892320763"><ele>77.52</ele><time>2026-04-22T07:10:57Z</time></trkpt><trkpt lat="59.0927705728" lon="29.9893456511"><ele>77.52</ele><time>2026-04-22T07:11:10Z</time></trkpt><trkpt lat="59.0928019211" lon="29.9895181507"><ele>77.04</ele><time>2026-04-22T07:11:26Z</time></trkpt><trkpt lat="59.0927997418" lon="29.9896530993"><ele>77.04</ele><time>2026-04-22T07:11:38Z</time></trkpt><trkpt lat="59.0928225406" lon="29.9898570310"><ele>77.04</ele><time>2026-04-22T07:11:50Z</time></trkpt><trkpt lat="59.0928766038" lon="29.9901544210"><ele>77.04</ele><time>2026-04-22T07:12:01Z</time></trkpt><trkpt lat="59.0928847343" lon="29.9901849311"><ele>77.04</ele><time>2026-04-22T07:12:02Z</time></trkpt><trkpt lat="59.0929052699" lon="29.9903139286"><ele>77.04</ele><time>2026-04-22T07:12:06Z</time></trkpt><trkpt lat="59.0929172561" lon="29.9903710093"><ele>77.04</ele><time>2026-04-22T07:12:08Z</time></trkpt><trkpt lat="59.0929349419" lon="29.9904919602"><ele>77.04</ele><time>2026-04-22T07:12:13Z</time></trkpt><trkpt lat="59.0929958783" lon="29.9907748494"><ele>77.04</ele><time>2026-04-22T07:12:27Z</time></trkpt><trkpt lat="59.0930110496" lon="29.9909617659"><ele>77.04</ele><time>2026-04-22T07:12:35Z</time></trkpt><trkpt lat="59.0930689685" lon="29.9911857303"><ele>77.04</ele><time>2026-04-22T07:12:47Z</time></trkpt><trkpt lat="59.0931428131" lon="29.9914540350"><ele>77.04</ele><time>2026-04-22T07:12:58Z</time></trkpt><trkpt lat="59.0931607503" lon="29.9914671108"><ele>77.04</ele><time>2026-04-22T07:13:00Z</time></trkpt><trkpt lat="59.0931982175" lon="29.9915341660"><ele>77.04</ele><time>2026-04-22T07:13:04Z</time></trkpt><trkpt lat="59.0932192560" lon="29.9915703759"><ele>76.56</ele><time>2026-04-22T07:13:07Z</time></trkpt><trkpt lat="59.0932583157" lon="29.9919048976"><ele>76.56</ele><time>2026-04-22T07:13:20Z</time></trkpt><trkpt lat="59.0932679549" lon="29.9921047222"><ele>76.56</ele><time>2026-04-22T07:13:32Z</time></trkpt><trkpt lat="59.0933242813" lon="29.9923680816"><ele>76.56</ele><time>2026-04-22T07:13:42Z</time></trkpt><trkpt lat="59.0933520254" lon="29.9925078917"><ele>76.56</ele><time>2026-04-22T07:13:47Z</time></trkpt><trkpt lat="59.0933476668" lon="29.9926661421"><ele>76.08</ele><time>2026-04-22T07:14:00Z</time></trkpt><trkpt lat="59.0933438111" lon="29.9926681537"><ele>76.56</ele><time>2026-04-22T07:14:12Z</time></trkpt><trkpt lat="59.0933039971" lon="29.9924574327"><ele>76.56</ele><time>2026-04-22T07:14:21Z</time></trkpt><trkpt lat="59.0932948608" lon="29.9923478812"><ele>76.56</ele><time>2026-04-22T07:14:25Z</time></trkpt><trkpt lat="59.0932765882" lon="29.9921745434"><ele>76.56</ele><time>2026-04-22T07:14:32Z</time></trkpt><trkpt lat="59.0932182502" lon="29.9920407683"><ele>76.56</ele><time>2026-04-22T07:14:44Z</time></trkpt><trkpt lat="59.0932783484" lon="29.9921409320"><ele>76.56</ele><time>2026-04-22T07:14:54Z</time></trkpt><trkpt lat="59.0933126304" lon="29.9922100827"><ele>76.56</ele><time>2026-04-22T07:14:58Z</time></trkpt><trkpt lat="59.0933720581" lon="29.9924841709"><ele>76.08</ele><time>2026-04-22T07:15:09Z</time></trkpt><trkpt lat="59.0933831222" lon="29.9925295170"><ele>76.08</ele><time>2026-04-22T07:15:11Z</time></trkpt><trkpt lat="59.0933951084" lon="29.9925586861"><ele>76.08</ele><time>2026-04-22T07:15:13Z</time></trkpt><trkpt lat="59.0934355091" lon="29.9928394798"><ele>76.08</ele><time>2026-04-22T07:15:24Z</time></trkpt><trkpt lat="59.0934440587" lon="29.9930204451"><ele>76.08</ele><time>2026-04-22T07:15:30Z</time></trkpt><trkpt lat="59.0934707969" lon="29.9931465928"><ele>76.08</ele><time>2026-04-22T07:15:40Z</time></trkpt><trkpt lat="59.0934759099" lon="29.9931618478"><ele>76.08</ele><time>2026-04-22T07:15:41Z</time></trkpt><trkpt lat="59.0935129579" lon="29.9932719860"><ele>76.08</ele><time>2026-04-22T07:15:46Z</time></trkpt><trkpt lat="59.0936250240" lon="29.9936689530"><ele>75.60</ele><time>2026-04-22T07:16:00Z</time></trkpt><trkpt lat="59.0936298855" lon="29.9937160593"><ele>75.60</ele><time>2026-04-22T07:16:02Z</time></trkpt><trkpt lat="59.0936686937" lon="29.9939856213"><ele>75.60</ele><time>2026-04-22T07:16:13Z</time></trkpt><trkpt lat="59.0936714597" lon="29.9940366670"><ele>75.60</ele><time>2026-04-22T07:16:15Z</time></trkpt><trkpt lat="59.0936593059" lon="29.9942051433"><ele>75.60</ele><time>2026-04-22T07:16:23Z</time></trkpt><trkpt lat="59.0936676040" lon="29.9945338815"><ele>75.60</ele><time>2026-04-22T07:16:36Z</time></trkpt><trkpt lat="59.0937435441" lon="29.9947674014"><ele>75.60</ele><time>2026-04-22T07:16:50Z</time></trkpt><trkpt lat="59.0937591344" lon="29.9948611949"><ele>75.60</ele><time>2026-04-22T07:16:58Z</time></trkpt><trkpt lat="59.0937932488" lon="29.9950293358"><ele>75.60</ele><time>2026-04-22T07:17:12Z</time></trkpt><trkpt lat="59.0938291233" lon="29.9951831438"><ele>75.60</ele><time>2026-04-22T07:17:24Z</time></trkpt><trkpt lat="59.0938888863" lon="29.9955815356"><ele>75.60</ele><time>2026-04-22T07:17:39Z</time></trkpt><trkpt lat="59.0938959271" lon="29.9956151471"><ele>75.60</ele><time>2026-04-22T07:17:40Z</time></trkpt><trkpt lat="59.0939649940" lon="29.9959059991"><ele>75.60</ele><time>2026-04-22T07:17:54Z</time></trkpt><trkpt lat="59.0940196440" lon="29.9961906485"><ele>75.60</ele><time>2026-04-22T07:18:04Z</time></trkpt><trkpt lat="59.0940819215" lon="29.9964826740"><ele>75.60</ele><time>2026-04-22T07:18:17Z</time></trkpt><trkpt lat="59.0941340569" lon="29.9967787229"><ele>75.12</ele><time>2026-04-22T07:18:30Z</time></trkpt><trkpt lat="59.0941595379" lon="29.9972443376"><ele>75.12</ele><time>2026-04-22T07:18:46Z</time></trkpt><trkpt lat="59.0942296106" lon="29.9975386262"><ele>75.12</ele><time>2026-04-22T07:19:02Z</time></trkpt><trkpt lat="59.0943017788" lon="29.9977638479"><ele>75.12</ele><time>2026-04-22T07:19:16Z</time></trkpt><trkpt lat="59.0943648946" lon="29.9980339129"><ele>75.12</ele><time>2026-04-22T07:19:28Z</time></trkpt><trkpt lat="59.0943731926" lon="29.9982783291"><ele>75.12</ele><time>2026-04-22T07:19:36Z</time></trkpt><trkpt lat="59.0943821613" lon="29.9984767288"><ele>75.12</ele><time>2026-04-22T07:19:41Z</time></trkpt><trkpt lat="59.0943959914" lon="29.9985402636"><ele>75.12</ele><time>2026-04-22T07:19:43Z</time></trkpt><trkpt lat="59.0944335423" lon="29.9987615459"><ele>74.16</ele><time>2026-04-22T07:19:50Z</time></trkpt><trkpt lat="59.0944871865" lon="29.9991544895"><ele>73.68</ele><time>2026-04-22T07:20:04Z</time></trkpt><trkpt lat="59.0945031121" lon="29.9992678966"><ele>73.68</ele><time>2026-04-22T07:20:09Z</time></trkpt><trkpt lat="59.0945046209" lon="29.9993852433"><ele>73.68</ele><time>2026-04-22T07:20:14Z</time></trkpt><trkpt lat="59.0945230611" lon="29.9994518794"><ele>73.68</ele><time>2026-04-22T07:20:17Z</time></trkpt><trkpt lat="59.0945323650" lon="29.9996463396"><ele>73.68</ele><time>2026-04-22T07:20:25Z</time></trkpt><trkpt lat="59.0945808124" lon="29.9999719765"><ele>73.68</ele><time>2026-04-22T07:20:39Z</time></trkpt><trkpt lat="59.0946331993" lon="30.0001927558"><ele>73.20</ele><time>2026-04-22T07:20:52Z</time></trkpt><trkpt lat="59.0946925431" lon="30.0003468152"><ele>73.20</ele><time>2026-04-22T07:21:09Z</time></trkpt><trkpt lat="59.0947169345" lon="30.0004094280"><ele>72.72</ele><time>2026-04-22T07:21:19Z</time></trkpt><trkpt lat="59.0947248135" lon="30.0004199892"><ele>72.72</ele><time>2026-04-22T07:21:49Z</time></trkpt><trkpt lat="59.0947259869" lon="30.0004192349"><ele>72.72</ele><time>2026-04-22T07:22:13Z</time></trkpt><trkpt lat="59.0947238076" lon="30.0004406087"><ele>72.72</ele><time>2026-04-22T07:22:31Z</time></trkpt><trkpt lat="59.0947891027" lon="30.0006214064"><ele>72.24</ele><time>2026-04-22T07:22:43Z</time></trkpt><trkpt lat="59.0948397294" lon="30.0009390805"><ele>72.24</ele><time>2026-04-22T07:22:55Z</time></trkpt><trkpt lat="59.0948518831" lon="30.0009980053"><ele>72.24</ele><time>2026-04-22T07:22:57Z</time></trkpt><trkpt lat="59.0949162561" lon="30.0012119114"><ele>72.24</ele><time>2026-04-22T07:23:08Z</time></trkpt><trkpt lat="59.0949728340" lon="30.0015295018"><ele>72.24</ele><time>2026-04-22T07:23:20Z</time></trkpt><trkpt lat="59.0949901007" lon="30.0016252231"><ele>72.24</ele><time>2026-04-22T07:23:24Z</time></trkpt><trkpt lat="59.0950136539" lon="30.0017675478"><ele>72.24</ele><time>2026-04-22T07:23:29Z</time></trkpt><trkpt lat="59.0950376261" lon="30.0021759141"><ele>71.76</ele><time>2026-04-22T07:23:41Z</time></trkpt><trkpt lat="59.0950636938" lon="30.0024051592"><ele>71.76</ele><time>2026-04-22T07:23:51Z</time></trkpt><trkpt lat="59.0951543022" lon="30.0026805885"><ele>71.76</ele><time>2026-04-22T07:24:02Z</time></trkpt><trkpt lat="59.0952418931" lon="30.0029695127"><ele>71.76</ele><time>2026-04-22T07:24:16Z</time></trkpt><trkpt lat="59.0952495206" lon="30.0029964186"><ele>71.76</ele><time>2026-04-22T07:24:17Z</time></trkpt><trkpt lat="59.0953263827" lon="30.0033579301"><ele>71.76</ele><time>2026-04-22T07:24:31Z</time></trkpt><trkpt lat="59.0953468345" lon="30.0036235526"><ele>71.76</ele><time>2026-04-22T07:24:44Z</time></trkpt><trkpt lat="59.0953482594" lon="30.0038955454"><ele>71.76</ele><time>2026-04-22T07:24:56Z</time></trkpt><trkpt lat="59.0954199247" lon="30.0041822903"><ele>71.76</ele><time>2026-04-22T07:25:07Z</time></trkpt><trkpt lat="59.0954728983" lon="30.0044714659"><ele>71.27</ele><time>2026-04-22T07:25:19Z</time></trkpt><trkpt lat="59.0955035761" lon="30.0047541037"><ele>71.27</ele><time>2026-04-22T07:25:32Z</time></trkpt><trkpt lat="59.0955918375" lon="30.0051804073"><ele>71.27</ele><time>2026-04-22T07:25:49Z</time></trkpt><trkpt lat="59.0956278797" lon="30.0054378156"><ele>71.27</ele><time>2026-04-22T07:26:02Z</time></trkpt><trkpt lat="59.0956373513" lon="30.0055229757"><ele>71.27</ele><time>2026-04-22T07:26:07Z</time></trkpt><trkpt lat="59.0956329089" lon="30.0055961497"><ele>71.27</ele><time>2026-04-22T07:26:20Z</time></trkpt><trkpt lat="59.0956476610" lon="30.0056487042"><ele>71.27</ele><time>2026-04-22T07:26:32Z</time></trkpt><trkpt lat="59.0956497565" lon="30.0057833176"><ele>71.27</ele><time>2026-04-22T07:26:39Z</time></trkpt><trkpt lat="59.0956654307" lon="30.0059851538"><ele>71.27</ele><time>2026-04-22T07:26:53Z</time></trkpt><trkpt lat="59.0956958570" lon="30.0060771033"><ele>71.27</ele><time>2026-04-22T07:26:59Z</time></trkpt><trkpt lat="59.0957666002" lon="30.0064117089"><ele>70.79</ele><time>2026-04-22T07:27:14Z</time></trkpt><trkpt lat="59.0958363377" lon="30.0067338254"><ele>70.79</ele><time>2026-04-22T07:27:27Z</time></trkpt><trkpt lat="59.0958444681" lon="30.0068059936"><ele>70.79</ele><time>2026-04-22T07:27:30Z</time></trkpt><trkpt lat="59.0959185641" lon="30.0070737954"><ele>71.76</ele><time>2026-04-22T07:27:44Z</time></trkpt><trkpt lat="59.0959581267" lon="30.0072664116"><ele>71.27</ele><time>2026-04-22T07:27:55Z</time></trkpt><trkpt lat="59.0960067417" lon="30.0074694213"><ele>71.27</ele><time>2026-04-22T07:28:08Z</time></trkpt><trkpt lat="59.0960121900" lon="30.0077960640"><ele>70.79</ele><time>2026-04-22T07:28:44Z</time></trkpt><trkpt lat="59.0960077476" lon="30.0078352075"><ele>70.79</ele><time>2026-04-22T07:29:03Z</time></trkpt><trkpt lat="59.0960092563" lon="30.0078250654"><ele>70.79</ele><time>2026-04-22T07:29:19Z</time></trkpt><trkpt lat="59.0960182250" lon="30.0078426674"><ele>70.79</ele><time>2026-04-22T07:29:38Z</time></trkpt><trkpt lat="59.0960204042" lon="30.0078546535"><ele>70.79</ele><time>2026-04-22T07:30:01Z</time></trkpt><trkpt lat="59.0960257687" lon="30.0078381412"><ele>70.31</ele><time>2026-04-22T07:30:21Z</time></trkpt><trkpt lat="59.0960214101" lon="30.0078033563"><ele>70.31</ele><time>2026-04-22T07:30:45Z</time></trkpt><trkpt lat="59.0960230865" lon="30.0078000873"><ele>70.31</ele><time>2026-04-22T07:31:10Z</time></trkpt><trkpt lat="59.0960201528" lon="30.0078104809"><ele>70.31</ele><time>2026-04-22T07:31:28Z</time></trkpt><trkpt lat="59.0960352402" lon="30.0078941323"><ele>70.31</ele><time>2026-04-22T07:31:33Z</time></trkpt><trkpt lat="59.0960583743" lon="30.0079800468"><ele>70.31</ele><time>2026-04-22T07:31:37Z</time></trkpt><trkpt lat="59.0961066540" lon="30.0082306657"><ele>70.31</ele><time>2026-04-22T07:31:51Z</time></trkpt><trkpt lat="59.0961169638" lon="30.0084361061"><ele>70.31</ele><time>2026-04-22T07:31:59Z</time></trkpt><trkpt lat="59.0961821750" lon="30.0087534450"><ele>69.83</ele><time>2026-04-22T07:32:11Z</time></trkpt><trkpt lat="59.0961821750" lon="30.0089949276"><ele>69.83</ele><time>2026-04-22T07:32:22Z</time></trkpt><trkpt lat="59.0962365735" lon="30.0093045551"><ele>70.31</ele><time>2026-04-22T07:32:34Z</time></trkpt><trkpt lat="59.0962587856" lon="30.0093674194"><ele>69.83</ele><time>2026-04-22T07:32:36Z</time></trkpt><trkpt lat="59.0962724481" lon="30.0094167050"><ele>69.83</ele><time>2026-04-22T07:32:38Z</time></trkpt><trkpt lat="59.0962975100" lon="30.0095047988"><ele>69.83</ele><time>2026-04-22T07:32:42Z</time></trkpt><trkpt lat="59.0963380784" lon="30.0097673200"><ele>69.83</ele><time>2026-04-22T07:32:53Z</time></trkpt><trkpt lat="59.0963699296" lon="30.0098993350"><ele>69.83</ele><time>2026-04-22T07:33:01Z</time></trkpt><trkpt lat="59.0964008588" lon="30.0100361276"><ele>69.83</ele><time>2026-04-22T07:33:06Z</time></trkpt><trkpt lat="59.0964493062" lon="30.0103634410"><ele>69.83</ele><time>2026-04-22T07:33:18Z</time></trkpt><trkpt lat="59.0964573529" lon="30.0103788637"><ele>69.83</ele><time>2026-04-22T07:33:19Z</time></trkpt><trkpt lat="59.0964834206" lon="30.0105395447"><ele>69.83</ele><time>2026-04-22T07:33:26Z</time></trkpt><trkpt lat="59.0964855999" lon="30.0105813704"><ele>69.35</ele><time>2026-04-22T07:33:28Z</time></trkpt><trkpt lat="59.0964936465" lon="30.0106294826"><ele>69.35</ele><time>2026-04-22T07:33:30Z</time></trkpt><trkpt lat="59.0964969993" lon="30.0107919239"><ele>69.35</ele><time>2026-04-22T07:33:36Z</time></trkpt><trkpt lat="59.0965746995" lon="30.0110274553"><ele>69.35</ele><time>2026-04-22T07:33:49Z</time></trkpt><trkpt lat="59.0965926368" lon="30.0111065805"><ele>69.35</ele><time>2026-04-22T07:33:52Z</time></trkpt><trkpt lat="59.0966059640" lon="30.0111962669"><ele>69.35</ele><time>2026-04-22T07:33:55Z</time></trkpt><trkpt lat="59.0966208838" lon="30.0113123562"><ele>69.35</ele><time>2026-04-22T07:33:59Z</time></trkpt><trkpt lat="59.0966565907" lon="30.0114825089"><ele>69.35</ele><time>2026-04-22T07:34:05Z</time></trkpt><trkpt lat="59.0966827422" lon="30.0116139371"><ele>69.35</ele><time>2026-04-22T07:34:11Z</time></trkpt><trkpt lat="59.0966834128" lon="30.0116669945"><ele>69.35</ele><time>2026-04-22T07:34:13Z</time></trkpt><trkpt lat="59.0967095643" lon="30.0119479559"><ele>69.35</ele><time>2026-04-22T07:34:25Z</time></trkpt><trkpt lat="59.0967575926" lon="30.0122013409"><ele>68.87</ele><time>2026-04-22T07:34:37Z</time></trkpt><trkpt lat="59.0967927966" lon="30.0123448391"><ele>68.87</ele><time>2026-04-22T07:34:45Z</time></trkpt><trkpt lat="59.0968629532" lon="30.0127274729"><ele>68.87</ele><time>2026-04-22T07:34:59Z</time></trkpt><trkpt lat="59.0968945529" lon="30.0128948595"><ele>68.87</ele><time>2026-04-22T07:35:08Z</time></trkpt><trkpt lat="59.0969419107" lon="30.0132436305"><ele>68.87</ele><time>2026-04-22T07:35:20Z</time></trkpt><trkpt lat="59.0970313456" lon="30.0136271026"><ele>68.87</ele><time>2026-04-22T07:35:34Z</time></trkpt><trkpt lat="59.0970794577" lon="30.0139337126"><ele>67.43</ele><time>2026-04-22T07:35:47Z</time></trkpt><trkpt lat="59.0970779490" lon="30.0139619596"><ele>67.43</ele><time>2026-04-22T07:35:48Z</time></trkpt><trkpt lat="59.0970978979" lon="30.0140904542"><ele>67.43</ele><time>2026-04-22T07:35:54Z</time></trkpt><trkpt lat="59.0972021688" lon="30.0142927933"><ele>67.43</ele><time>2026-04-22T07:36:07Z</time></trkpt><trkpt lat="59.0972405579" lon="30.0145153329"><ele>67.43</ele><time>2026-04-22T07:36:20Z</time></trkpt><trkpt lat="59.0972357802" lon="30.0146338530"><ele>67.43</ele><time>2026-04-22T07:36:35Z</time></trkpt><trkpt lat="59.0972751752" lon="30.0148023292"><ele>66.95</ele><time>2026-04-22T07:36:45Z</time></trkpt><trkpt lat="59.0972968843" lon="30.0150437281"><ele>66.95</ele><time>2026-04-22T07:36:58Z</time></trkpt><trkpt lat="59.0973166656" lon="30.0151601527"><ele>66.95</ele><time>2026-04-22T07:37:03Z</time></trkpt><trkpt lat="59.0973465890" lon="30.0154257752"><ele>66.95</ele><time>2026-04-22T07:37:11Z</time></trkpt><trkpt lat="59.0974237025" lon="30.0156525895"><ele>66.95</ele><time>2026-04-22T07:37:24Z</time></trkpt><trkpt lat="59.0974125545" lon="30.0159236602"><ele>66.95</ele><time>2026-04-22T07:37:35Z</time></trkpt><trkpt lat="59.0974622592" lon="30.0161822420"><ele>66.95</ele><time>2026-04-22T07:37:45Z</time></trkpt><trkpt lat="59.0974811185" lon="30.0163963158"><ele>66.47</ele><time>2026-04-22T07:37:52Z</time></trkpt><trkpt lat="59.0974990558" lon="30.0165498722"><ele>66.47</ele><time>2026-04-22T07:37:58Z</time></trkpt><trkpt lat="59.0975608304" lon="30.0167713221"><ele>66.47</ele><time>2026-04-22T07:38:12Z</time></trkpt><trkpt lat="59.0975786839" lon="30.0168053526"><ele>66.47</ele><time>2026-04-22T07:38:14Z</time></trkpt><trkpt lat="59.0975896642" lon="30.0169279799"><ele>66.47</ele><time>2026-04-22T07:38:18Z</time></trkpt><trkpt lat="59.0976525284" lon="30.0171574764"><ele>66.47</ele><time>2026-04-22T07:38:31Z</time></trkpt><trkpt lat="59.0976760816" lon="30.0173696224"><ele>65.99</ele><time>2026-04-22T07:38:40Z</time></trkpt><trkpt lat="59.0976799373" lon="30.0173887331"><ele>65.99</ele><time>2026-04-22T07:38:41Z</time></trkpt><trkpt lat="59.0977210086" lon="30.0176216662"><ele>65.99</ele><time>2026-04-22T07:38:54Z</time></trkpt><trkpt lat="59.0977655165" lon="30.0178420264"><ele>65.51</ele><time>2026-04-22T07:39:11Z</time></trkpt><trkpt lat="59.0977925062" lon="30.0179467164"><ele>65.51</ele><time>2026-04-22T07:39:17Z</time></trkpt><trkpt lat="59.0978885628" lon="30.0182260014"><ele>65.51</ele><time>2026-04-22T07:39:28Z</time></trkpt><trkpt lat="59.0979301371" lon="30.0185407419"><ele>65.51</ele><time>2026-04-22T07:39:40Z</time></trkpt><trkpt lat="59.0979420394" lon="30.0186352059"><ele>65.51</ele><time>2026-04-22T07:39:42Z</time></trkpt><trkpt lat="59.0979512595" lon="30.0186922029"><ele>65.51</ele><time>2026-04-22T07:39:44Z</time></trkpt><trkpt lat="59.0979620721" lon="30.0188067835"><ele>65.51</ele><time>2026-04-22T07:39:47Z</time></trkpt><trkpt lat="59.0979605634" lon="30.0188970566"><ele>65.51</ele><time>2026-04-22T07:39:50Z</time></trkpt><trkpt lat="59.0979792550" lon="30.0190894213"><ele>65.51</ele><time>2026-04-22T07:39:59Z</time></trkpt><trkpt lat="59.0979770757" lon="30.0191843044"><ele>65.03</ele><time>2026-04-22T07:40:13Z</time></trkpt><trkpt lat="59.0979847033" lon="30.0192296505"><ele>65.03</ele><time>2026-04-22T07:40:16Z</time></trkpt><trkpt lat="59.0979908220" lon="30.0193020701"><ele>65.03</ele><time>2026-04-22T07:40:19Z</time></trkpt><trkpt lat="59.0980038978" lon="30.0193591509"><ele>65.03</ele><time>2026-04-22T07:40:21Z</time></trkpt><trkpt lat="59.0980577096" lon="30.0195116177"><ele>65.03</ele><time>2026-04-22T07:40:28Z</time></trkpt><trkpt lat="59.0981094260" lon="30.0198126119"><ele>65.99</ele><time>2026-04-22T07:40:40Z</time></trkpt><trkpt lat="59.0981272794" lon="30.0200007856"><ele>65.99</ele><time>2026-04-22T07:40:51Z</time></trkpt><trkpt lat="59.0981802531" lon="30.0202508178"><ele>65.99</ele><time>2026-04-22T07:41:03Z</time></trkpt><trkpt lat="59.0982437041" lon="30.0204015244"><ele>65.99</ele><time>2026-04-22T07:41:09Z</time></trkpt><trkpt lat="59.0983317140" lon="30.0206974894"><ele>65.99</ele><time>2026-04-22T07:41:21Z</time></trkpt><trkpt lat="59.0983448736" lon="30.0210305024"><ele>65.99</ele><time>2026-04-22T07:41:34Z</time></trkpt><trkpt lat="59.0983889624" lon="30.0213480089"><ele>65.99</ele><time>2026-04-22T07:41:47Z</time></trkpt><trkpt lat="59.0984152816" lon="30.0215785112"><ele>65.99</ele><time>2026-04-22T07:41:59Z</time></trkpt><trkpt lat="59.0984651539" lon="30.0218190718"><ele>65.99</ele><time>2026-04-22T07:42:10Z</time></trkpt><trkpt lat="59.0985207260" lon="30.0220645778"><ele>65.99</ele><time>2026-04-22T07:42:19Z</time></trkpt><trkpt lat="59.0985731129" lon="30.0223405100"><ele>66.47</ele><time>2026-04-22T07:42:31Z</time></trkpt><trkpt lat="59.0985886194" lon="30.0224433560"><ele>66.47</ele><time>2026-04-22T07:42:37Z</time></trkpt><trkpt lat="59.0985982586" lon="30.0226627942"><ele>65.99</ele><time>2026-04-22T07:42:46Z</time></trkpt><trkpt lat="59.0986372344" lon="30.0227596890"><ele>65.99</ele><time>2026-04-22T07:42:53Z</time></trkpt><trkpt lat="59.0986777190" lon="30.0229994953"><ele>66.47</ele><time>2026-04-22T07:43:05Z</time></trkpt><trkpt lat="59.0986927226" lon="30.0230486132"><ele>66.47</ele><time>2026-04-22T07:43:29Z</time></trkpt><trkpt lat="59.0986954048" lon="30.0230708253"><ele>66.47</ele><time>2026-04-22T07:43:45Z</time></trkpt><trkpt lat="59.0986932255" lon="30.0230601802"><ele>66.47</ele><time>2026-04-22T07:44:02Z</time></trkpt><trkpt lat="59.0987433493" lon="30.0231259782"><ele>66.47</ele><time>2026-04-22T07:44:13Z</time></trkpt><trkpt lat="59.0987782180" lon="30.0232745055"><ele>65.99</ele><time>2026-04-22T07:44:27Z</time></trkpt><trkpt lat="59.0987757035" lon="30.0235455763"><ele>65.99</ele><time>2026-04-22T07:44:38Z</time></trkpt><trkpt lat="59.0987940598" lon="30.0238923356"><ele>65.99</ele><time>2026-04-22T07:44:52Z</time></trkpt><trkpt lat="59.0988589358" lon="30.0241960119"><ele>65.99</ele><time>2026-04-22T07:45:05Z</time></trkpt><trkpt lat="59.0989152621" lon="30.0244536716"><ele>65.99</ele><time>2026-04-22T07:45:19Z</time></trkpt><trkpt lat="59.0989448503" lon="30.0245963316"><ele>65.51</ele><time>2026-04-22T07:45:28Z</time></trkpt><trkpt lat="59.0989747737" lon="30.0248819031"><ele>65.51</ele><time>2026-04-22T07:45:40Z</time></trkpt><trkpt lat="59.0990594309" lon="30.0251839869"><ele>65.51</ele><time>2026-04-22T07:45:52Z</time></trkpt><trkpt lat="59.0990985744" lon="30.0253790338"><ele>65.51</ele><time>2026-04-22T07:46:03Z</time></trkpt><trkpt lat="59.0991134103" lon="30.0256503560"><ele>65.03</ele><time>2026-04-22T07:46:17Z</time></trkpt><trkpt lat="59.0991512965" lon="30.0258703809"><ele>65.03</ele><time>2026-04-22T07:46:29Z</time></trkpt><trkpt lat="59.0991963074" lon="30.0261893962"><ele>65.03</ele><time>2026-04-22T07:46:44Z</time></trkpt><trkpt lat="59.0992069524" lon="30.0262456387"><ele>65.03</ele><time>2026-04-22T07:46:46Z</time></trkpt><trkpt lat="59.0992051084" lon="30.0263054855"><ele>65.03</ele><time>2026-04-22T07:46:49Z</time></trkpt><trkpt lat="59.0992782824" lon="30.0264737103"><ele>65.03</ele><time>2026-04-22T07:47:00Z</time></trkpt><trkpt lat="59.0993009973" lon="30.0266977586"><ele>65.03</ele><time>2026-04-22T07:47:11Z</time></trkpt><trkpt lat="59.0992984828" lon="30.0267529953"><ele>65.03</ele><time>2026-04-22T07:47:13Z</time></trkpt><trkpt lat="59.0992823895" lon="30.0268924702"><ele>64.55</ele><time>2026-04-22T07:47:18Z</time></trkpt><trkpt lat="59.0993387159" lon="30.0271639600"><ele>64.55</ele><time>2026-04-22T07:47:32Z</time></trkpt><trkpt lat="59.0994199365" lon="30.0273194443"><ele>64.55</ele><time>2026-04-22T07:47:42Z</time></trkpt><trkpt lat="59.0994702280" lon="30.0276725739"><ele>64.55</ele><time>2026-04-22T07:47:54Z</time></trkpt><trkpt lat="59.0995309968" lon="30.0279656891"><ele>65.03</ele><time>2026-04-22T07:48:09Z</time></trkpt><trkpt lat="59.0995425638" lon="30.0280327443"><ele>65.03</ele><time>2026-04-22T07:48:12Z</time></trkpt><trkpt lat="59.0995542146" lon="30.0281034037"><ele>65.03</ele><time>2026-04-22T07:48:15Z</time></trkpt><trkpt lat="59.0995856468" lon="30.0283365045"><ele>65.03</ele><time>2026-04-22T07:48:24Z</time></trkpt><trkpt lat="59.0996399615" lon="30.0285761431"><ele>65.51</ele><time>2026-04-22T07:48:35Z</time></trkpt><trkpt lat="59.0996800270" lon="30.0288795680"><ele>65.51</ele><time>2026-04-22T07:48:48Z</time></trkpt><trkpt lat="59.0997180808" lon="30.0291148480"><ele>65.51</ele><time>2026-04-22T07:48:58Z</time></trkpt><trkpt lat="59.0997674502" lon="30.0294515491"><ele>65.51</ele><time>2026-04-22T07:49:14Z</time></trkpt><trkpt lat="59.0998373553" lon="30.0298084505"><ele>65.03</ele><time>2026-04-22T07:49:27Z</time></trkpt><trkpt lat="59.0999131277" lon="30.0300113764"><ele>65.03</ele><time>2026-04-22T07:49:39Z</time></trkpt><trkpt lat="59.0999143012" lon="30.0300493464"><ele>65.03</ele><time>2026-04-22T07:49:42Z</time></trkpt><trkpt lat="59.0999503434" lon="30.0302237738"><ele>63.58</ele><time>2026-04-22T07:49:53Z</time></trkpt><trkpt lat="59.0999454819" lon="30.0303747319"><ele>63.58</ele><time>2026-04-22T07:50:05Z</time></trkpt><trkpt lat="59.0999450628" lon="30.0305178948"><ele>63.58</ele><time>2026-04-22T07:50:33Z</time></trkpt><trkpt lat="59.0999431349" lon="30.0305314735"><ele>63.58</ele><time>2026-04-22T07:50:55Z</time></trkpt><trkpt lat="59.0999728069" lon="30.0306113530"><ele>63.58</ele><time>2026-04-22T07:51:09Z</time></trkpt><trkpt lat="59.0999920852" lon="30.0307899714"><ele>63.58</ele><time>2026-04-22T07:51:22Z</time></trkpt><trkpt lat="59.1000185721" lon="30.0309447013"><ele>63.58</ele><time>2026-04-22T07:51:35Z</time></trkpt><trkpt lat="59.1001247708" lon="30.0313927978"><ele>63.58</ele><time>2026-04-22T07:51:48Z</time></trkpt><trkpt lat="59.1001258604" lon="30.0314360484"><ele>63.58</ele><time>2026-04-22T07:51:50Z</time></trkpt><trkpt lat="59.1001693625" lon="30.0316764414"><ele>63.58</ele><time>2026-04-22T07:52:03Z</time></trkpt><trkpt lat="59.1001883894" lon="30.0317991525"><ele>63.58</ele><time>2026-04-22T07:52:13Z</time></trkpt><trkpt lat="59.1001693625" lon="30.0319586601"><ele>63.58</ele><time>2026-04-22T07:52:27Z</time></trkpt><trkpt lat="59.1002427880" lon="30.0322807766"><ele>63.58</ele><time>2026-04-22T07:52:38Z</time></trkpt><trkpt lat="59.1002731305" lon="30.0324965268"><ele>64.55</ele><time>2026-04-22T07:52:46Z</time></trkpt><trkpt lat="59.1002962645" lon="30.0325839501"><ele>64.55</ele><time>2026-04-22T07:52:50Z</time></trkpt><trkpt lat="59.1003390960" lon="30.0329169631"><ele>64.55</ele><time>2026-04-22T07:53:01Z</time></trkpt><trkpt lat="59.1003647447" lon="30.0331794843"><ele>64.55</ele><time>2026-04-22T07:53:15Z</time></trkpt><trkpt lat="59.1004014574" lon="30.0334542431"><ele>64.55</ele><time>2026-04-22T07:53:29Z</time></trkpt><trkpt lat="59.1005556006" lon="30.0339590851"><ele>64.55</ele><time>2026-04-22T07:53:45Z</time></trkpt><trkpt lat="59.1005930677" lon="30.0341717340"><ele>64.55</ele><time>2026-04-22T07:54:00Z</time></trkpt><trkpt lat="59.1006447840" lon="30.0344072655"><ele>64.55</ele><time>2026-04-22T07:54:15Z</time></trkpt><trkpt lat="59.1006772220" lon="30.0345373526"><ele>64.55</ele><time>2026-04-22T07:54:31Z</time></trkpt><trkpt lat="59.1006888729" lon="30.0347321481"><ele>64.55</ele><time>2026-04-22T07:55:08Z</time></trkpt><trkpt lat="59.1006917227" lon="30.0349033065"><ele>65.03</ele><time>2026-04-22T07:55:30Z</time></trkpt><trkpt lat="59.1007099953" lon="30.0349464733"><ele>65.03</ele><time>2026-04-22T07:55:54Z</time></trkpt><trkpt lat="59.1007208079" lon="30.0349834375"><ele>65.03</ele><time>2026-04-22T07:56:25Z</time></trkpt><trkpt lat="59.1007700097" lon="30.0351892971"><ele>65.51</ele><time>2026-04-22T07:56:38Z</time></trkpt><trkpt lat="59.1007987596" lon="30.0354908779"><ele>65.99</ele><time>2026-04-22T07:56:52Z</time></trkpt><trkpt lat="59.1007980891" lon="30.0357322767"><ele>65.99</ele><time>2026-04-22T07:57:05Z</time></trkpt><trkpt lat="59.1008658148" lon="30.0361247174"><ele>65.99</ele><time>2026-04-22T07:57:20Z</time></trkpt><trkpt lat="59.1009054612" lon="30.0364672020"><ele>65.99</ele><time>2026-04-22T07:57:34Z</time></trkpt><trkpt lat="59.1009192914" lon="30.0365697127"><ele>65.51</ele><time>2026-04-22T07:57:41Z</time></trkpt><trkpt lat="59.1009634640" lon="30.0367062539"><ele>65.51</ele><time>2026-04-22T07:57:49Z</time></trkpt><trkpt lat="59.1010245681" lon="30.0369934179"><ele>65.51</ele><time>2026-04-22T07:58:01Z</time></trkpt><trkpt lat="59.1010936350" lon="30.0373420212"><ele>65.51</ele><time>2026-04-22T07:58:15Z</time></trkpt><trkpt lat="59.1011298448" lon="30.0376708433"><ele>65.51</ele><time>2026-04-22T07:58:28Z</time></trkpt><trkpt lat="59.1012003366" lon="30.0379409082"><ele>65.51</ele><time>2026-04-22T07:58:42Z</time></trkpt><trkpt lat="59.1012718342" lon="30.0381709076"><ele>65.51</ele><time>2026-04-22T07:58:53Z</time></trkpt><trkpt lat="59.1012855805" lon="30.0384087861"><ele>65.51</ele><time>2026-04-22T07:59:07Z</time></trkpt><trkpt lat="59.1013217065" lon="30.0386715587"><ele>65.99</ele><time>2026-04-22T07:59:20Z</time></trkpt><trkpt lat="59.1013504565" lon="30.0388201699"><ele>65.99</ele><time>2026-04-22T07:59:30Z</time></trkpt><trkpt lat="59.1014038492" lon="30.0390246883"><ele>65.99</ele><time>2026-04-22T07:59:41Z</time></trkpt><trkpt lat="59.1015171725" lon="30.0394371618"><ele>66.47</ele><time>2026-04-22T07:59:55Z</time></trkpt><trkpt lat="59.1015271470" lon="30.0395317934"><ele>66.47</ele><time>2026-04-22T08:00:01Z</time></trkpt><trkpt lat="59.1015511192" lon="30.0397919677"><ele>66.47</ele><time>2026-04-22T08:00:14Z</time></trkpt><trkpt lat="59.1015857365" lon="30.0399627909"><ele>66.47</ele><time>2026-04-22T08:00:29Z</time></trkpt><trkpt lat="59.1016047634" lon="30.0400031079"><ele>66.47</ele><time>2026-04-22T08:00:52Z</time></trkpt><trkpt lat="59.1015984770" lon="30.0399938878"><ele>66.95</ele><time>2026-04-22T08:01:17Z</time></trkpt><trkpt lat="59.1016152408" lon="30.0399957318"><ele>66.95</ele><time>2026-04-22T08:01:46Z</time></trkpt><trkpt lat="59.1016278137" lon="30.0400615297"><ele>66.95</ele><time>2026-04-22T08:02:07Z</time></trkpt><trkpt lat="59.1016362794" lon="30.0401813071"><ele>66.95</ele><time>2026-04-22T08:02:15Z</time></trkpt><trkpt lat="59.1016403027" lon="30.0403326843"><ele>66.95</ele><time>2026-04-22T08:02:28Z</time></trkpt><trkpt lat="59.1016632691" lon="30.0404898450"><ele>66.95</ele><time>2026-04-22T08:02:36Z</time></trkpt><trkpt lat="59.1016682144" lon="30.0406285655"><ele>66.95</ele><time>2026-04-22T08:02:40Z</time></trkpt><trkpt lat="59.1017174162" lon="30.0408105366"><ele>66.95</ele><time>2026-04-22T08:02:51Z</time></trkpt><trkpt lat="59.1017465852" lon="30.0409240276"><ele>66.95</ele><time>2026-04-22T08:02:54Z</time></trkpt><trkpt lat="59.1017972957" lon="30.0411826093"><ele>66.95</ele><time>2026-04-22T08:03:05Z</time></trkpt><trkpt lat="59.1018169932" lon="30.0414898898"><ele>66.95</ele><time>2026-04-22T08:03:19Z</time></trkpt><trkpt lat="59.1018223576" lon="30.0415181369"><ele>66.95</ele><time>2026-04-22T08:03:22Z</time></trkpt><trkpt lat="59.1018696316" lon="30.0417775568"><ele>66.95</ele><time>2026-04-22T08:03:34Z</time></trkpt><trkpt lat="59.1018687934" lon="30.0418080669"><ele>66.95</ele><time>2026-04-22T08:03:35Z</time></trkpt><trkpt lat="59.1019027401" lon="30.0419063866"><ele>66.95</ele><time>2026-04-22T08:03:39Z</time></trkpt><trkpt lat="59.1019772552" lon="30.0420712586"><ele>66.95</ele><time>2026-04-22T08:03:48Z</time></trkpt><trkpt lat="59.1019952763" lon="30.0421901979"><ele>66.95</ele><time>2026-04-22T08:03:51Z</time></trkpt><trkpt lat="59.1020139679" lon="30.0423846580"><ele>66.95</ele><time>2026-04-22T08:04:01Z</time></trkpt><trkpt lat="59.1020508483" lon="30.0425342750"><ele>65.51</ele><time>2026-04-22T08:04:10Z</time></trkpt><trkpt lat="59.1021099407" lon="30.0429143105"><ele>65.51</ele><time>2026-04-22T08:04:21Z</time></trkpt><trkpt lat="59.1021633334" lon="30.0431761611"><ele>65.51</ele><time>2026-04-22T08:04:31Z</time></trkpt><trkpt lat="59.1022004653" lon="30.0434366707"><ele>65.51</ele><time>2026-04-22T08:04:41Z</time></trkpt><trkpt lat="59.1022340767" lon="30.0435822643"><ele>65.51</ele><time>2026-04-22T08:04:51Z</time></trkpt><trkpt lat="59.1022740584" lon="30.0437600445"><ele>65.51</ele><time>2026-04-22T08:05:01Z</time></trkpt><trkpt lat="59.1023266967" lon="30.0440389942"><ele>65.51</ele><time>2026-04-22T08:05:13Z</time></trkpt><trkpt lat="59.1023250204" lon="30.0441099890"><ele>65.51</ele><time>2026-04-22T08:05:27Z</time></trkpt><trkpt lat="59.1023492441" lon="30.0441286806"><ele>65.51</ele><time>2026-04-22T08:05:54Z</time></trkpt><trkpt lat="59.1023458075" lon="30.0442119129"><ele>65.51</ele><time>2026-04-22T08:06:06Z</time></trkpt><trkpt lat="59.1023509204" lon="30.0442427583"><ele>65.51</ele><time>2026-04-22T08:06:08Z</time></trkpt><trkpt lat="59.1023552790" lon="30.0443181116"><ele>65.51</ele><time>2026-04-22T08:06:11Z</time></trkpt><trkpt lat="59.1023408622" lon="30.0445155054"><ele>65.51</ele><time>2026-04-22T08:06:22Z</time></trkpt><trkpt lat="59.1023637448" lon="30.0445445906"><ele>65.51</ele><time>2026-04-22T08:06:41Z</time></trkpt><trkpt lat="59.1023686063" lon="30.0445392262"><ele>65.51</ele><time>2026-04-22T08:06:52Z</time></trkpt><trkpt lat="59.1023842804" lon="30.0445409864"><ele>65.51</ele><time>2026-04-22T08:07:22Z</time></trkpt><trkpt lat="59.1023927461" lon="30.0445182715"><ele>64.55</ele><time>2026-04-22T08:07:54Z</time></trkpt><trkpt lat="59.1023901477" lon="30.0444961432"><ele>64.55</ele><time>2026-04-22T08:08:28Z</time></trkpt><trkpt lat="59.1023902316" lon="30.0444827322"><ele>64.55</ele><time>2026-04-22T08:08:58Z</time></trkpt><trkpt lat="59.1023914889" lon="30.0444930419"><ele>64.55</ele><time>2026-04-22T08:09:26Z</time></trkpt><trkpt lat="59.1023837775" lon="30.0445141643"><ele>64.55</ele><time>2026-04-22T08:09:59Z</time></trkpt><trkpt lat="59.1023851186" lon="30.0445520505"><ele>65.99</ele><time>2026-04-22T08:10:11Z</time></trkpt><trkpt lat="59.1023851186" lon="30.0445770286"><ele>65.99</ele><time>2026-04-22T08:10:32Z</time></trkpt><trkpt lat="59.1023877170" lon="30.0445924513"><ele>65.99</ele><time>2026-04-22T08:10:51Z</time></trkpt><trkpt lat="59.1023910698" lon="30.0446056947"><ele>65.99</ele><time>2026-04-22T08:10:55Z</time></trkpt><trkpt lat="59.1024287883" lon="30.0447258074"><ele>65.99</ele><time>2026-04-22T08:11:06Z</time></trkpt><trkpt lat="59.1024245974" lon="30.0448190141"><ele>65.99</ele><time>2026-04-22T08:11:19Z</time></trkpt><trkpt lat="59.1024532635" lon="30.0449318346"><ele>65.99</ele><time>2026-04-22T08:11:33Z</time></trkpt><trkpt lat="59.1024561971" lon="30.0449450780"><ele>65.99</ele><time>2026-04-22T08:11:35Z</time></trkpt><trkpt lat="59.1024860367" lon="30.0451322459"><ele>65.99</ele><time>2026-04-22T08:11:46Z</time></trkpt><trkpt lat="59.1024845280" lon="30.0451459084"><ele>65.99</ele><time>2026-04-22T08:11:47Z</time></trkpt><trkpt lat="59.1025383398" lon="30.0453258678"><ele>65.99</ele><time>2026-04-22T08:11:54Z</time></trkpt><trkpt lat="59.1025727056" lon="30.0454525184"><ele>65.51</ele><time>2026-04-22T08:12:03Z</time></trkpt><trkpt lat="59.1025971808" lon="30.0457078312"><ele>65.51</ele><time>2026-04-22T08:12:16Z</time></trkpt><trkpt lat="59.1026547644" lon="30.0459255930"><ele>65.51</ele><time>2026-04-22T08:12:26Z</time></trkpt><trkpt lat="59.1026962548" lon="30.0461843424"><ele>65.51</ele><time>2026-04-22T08:12:37Z</time></trkpt><trkpt lat="59.1027184669" lon="30.0463487953"><ele>65.51</ele><time>2026-04-22T08:12:46Z</time></trkpt><trkpt lat="59.1027394217" lon="30.0465233065"><ele>65.51</ele><time>2026-04-22T08:12:57Z</time></trkpt><trkpt lat="59.1027561016" lon="30.0467098877"><ele>65.51</ele><time>2026-04-22T08:13:11Z</time></trkpt><trkpt lat="59.1027709376" lon="30.0468718261"><ele>65.51</ele><time>2026-04-22T08:13:19Z</time></trkpt><trkpt lat="59.1028220672" lon="30.0471184216"><ele>65.51</ele><time>2026-04-22T08:13:32Z</time></trkpt><trkpt lat="59.1028156970" lon="30.0471911766"><ele>66.47</ele><time>2026-04-22T08:13:37Z</time></trkpt><trkpt lat="59.1028445307" lon="30.0474018976"><ele>66.47</ele><time>2026-04-22T08:13:49Z</time></trkpt><trkpt lat="59.1028378252" lon="30.0474835373"><ele>66.47</ele><time>2026-04-22T08:14:00Z</time></trkpt><trkpt lat="59.1028430220" lon="30.0475005526"><ele>66.47</ele><time>2026-04-22T08:14:01Z</time></trkpt><trkpt lat="59.1028524097" lon="30.0475640036"><ele>66.47</ele><time>2026-04-22T08:14:06Z</time></trkpt><trkpt lat="59.1029101610" lon="30.0476998743"><ele>66.47</ele><time>2026-04-22T08:14:18Z</time></trkpt><trkpt lat="59.1029249970" lon="30.0477039814"><ele>66.47</ele><time>2026-04-22T08:14:29Z</time></trkpt><trkpt lat="59.1029315349" lon="30.0477244332"><ele>66.95</ele><time>2026-04-22T08:14:56Z</time></trkpt><trkpt lat="59.1029212251" lon="30.0477714557"><ele>66.95</ele><time>2026-04-22T08:15:11Z</time></trkpt><trkpt lat="59.1029054672" lon="30.0478513353"><ele>66.95</ele><time>2026-04-22T08:15:17Z</time></trkpt><trkpt lat="59.1028671619" lon="30.0478999503"><ele>66.95</ele><time>2026-04-22T08:15:32Z</time></trkpt><trkpt lat="59.1028180439" lon="30.0479901396"><ele>66.95</ele><time>2026-04-22T08:15:56Z</time></trkpt><trkpt lat="59.1027472168" lon="30.0480719469"><ele>66.95</ele><time>2026-04-22T08:16:06Z</time></trkpt><trkpt lat="59.1026564408" lon="30.0482057221"><ele>67.43</ele><time>2026-04-22T08:16:23Z</time></trkpt><trkpt lat="59.1025623120" lon="30.0483477116"><ele>67.43</ele><time>2026-04-22T08:16:36Z</time></trkpt><trkpt lat="59.1025178041" lon="30.0484366436"><ele>67.43</ele><time>2026-04-22T08:16:49Z</time></trkpt><trkpt lat="59.1025166307" lon="30.0484362245"><ele>68.39</ele><time>2026-04-22T08:17:14Z</time></trkpt><trkpt lat="59.1025081649" lon="30.0484232325"><ele>68.39</ele><time>2026-04-22T08:17:30Z</time></trkpt><trkpt lat="59.1025086679" lon="30.0484333746"><ele>68.87</ele><time>2026-04-22T08:17:46Z</time></trkpt><trkpt lat="59.1025137808" lon="30.0484344643"><ele>68.87</ele><time>2026-04-22T08:18:16Z</time></trkpt><trkpt lat="59.1025188100" lon="30.0484122522"><ele>68.87</ele><time>2026-04-22T08:18:33Z</time></trkpt><trkpt lat="59.1024965979" lon="30.0483456999"><ele>68.87</ele><time>2026-04-22T08:18:44Z</time></trkpt><trkpt lat="59.1024906468" lon="30.0483464543"><ele>69.35</ele><time>2026-04-22T08:18:54Z</time></trkpt><trkpt lat="59.1024902277" lon="30.0483394135"><ele>69.35</ele><time>2026-04-22T08:19:04Z</time></trkpt><trkpt lat="59.1024939995" lon="30.0483345520"><ele>69.35</ele><time>2026-04-22T08:19:06Z</time></trkpt><trkpt lat="59.1024137847" lon="30.0481727812"><ele>69.35</ele><time>2026-04-22T08:19:19Z</time></trkpt><trkpt lat="59.1024023853" lon="30.0481326319"><ele>69.35</ele><time>2026-04-22T08:19:24Z</time></trkpt><trkpt lat="59.1024033073" lon="30.0479558576"><ele>69.35</ele><time>2026-04-22T08:19:35Z</time></trkpt><trkpt lat="59.1023717914" lon="30.0479024649"><ele>69.35</ele><time>2026-04-22T08:19:45Z</time></trkpt><trkpt lat="59.1023681033" lon="30.0477942545"><ele>69.35</ele><time>2026-04-22T08:19:59Z</time></trkpt><trkpt lat="59.1023469809" lon="30.0474979542"><ele>69.35</ele><time>2026-04-22T08:20:11Z</time></trkpt><trkpt lat="59.1023261938" lon="30.0473443139"><ele>69.35</ele><time>2026-04-22T08:20:23Z</time></trkpt><trkpt lat="59.1023717914" lon="30.0472241174"><ele>69.35</ele><time>2026-04-22T08:20:36Z</time></trkpt><trkpt lat="59.1023521777" lon="30.0470242091"><ele>69.35</ele><time>2026-04-22T08:20:48Z</time></trkpt><trkpt lat="59.1023520101" lon="30.0470087864"><ele>69.35</ele><time>2026-04-22T08:20:49Z</time></trkpt><trkpt lat="59.1022763215" lon="30.0467497017"><ele>69.35</ele><time>2026-04-22T08:21:01Z</time></trkpt><trkpt lat="59.1022979468" lon="30.0466193631"><ele>69.35</ele><time>2026-04-22T08:21:12Z</time></trkpt><trkpt lat="59.1022709571" lon="30.0465079676"><ele>69.35</ele><time>2026-04-22T08:21:24Z</time></trkpt><trkpt lat="59.1022697836" lon="30.0463566743"><ele>69.35</ele><time>2026-04-22T08:21:35Z</time></trkpt><trkpt lat="59.1022637486" lon="30.0461799838"><ele>69.35</ele><time>2026-04-22T08:21:49Z</time></trkpt><trkpt lat="59.1022862121" lon="30.0461451150"><ele>69.35</ele><time>2026-04-22T08:21:57Z</time></trkpt><trkpt lat="59.1022993717" lon="30.0462223962"><ele>69.83</ele><time>2026-04-22T08:22:06Z</time></trkpt><trkpt lat="59.1023163032" lon="30.0462056324"><ele>69.83</ele><time>2026-04-22T08:22:20Z</time></trkpt><trkpt lat="59.1023042332" lon="30.0461275131"><ele>69.83</ele><time>2026-04-22T08:22:31Z</time></trkpt><trkpt lat="59.1022931691" lon="30.0460833404"><ele>70.31</ele><time>2026-04-22T08:22:45Z</time></trkpt><trkpt lat="59.1022493318" lon="30.0460068136"><ele>70.31</ele><time>2026-04-22T08:22:58Z</time></trkpt><trkpt lat="59.1022423748" lon="30.0459224917"><ele>70.31</ele><time>2026-04-22T08:23:10Z</time></trkpt><trkpt lat="59.1022357531" lon="30.0458826777"><ele>70.79</ele><time>2026-04-22T08:23:22Z</time></trkpt><trkpt lat="59.1022023931" lon="30.0458520837"><ele>71.27</ele><time>2026-04-22T08:23:35Z</time></trkpt><trkpt lat="59.1021728888" lon="30.0458312966"><ele>71.27</ele><time>2026-04-22T08:23:44Z</time></trkpt><trkpt lat="59.1021490004" lon="30.0457981043"><ele>71.27</ele><time>2026-04-22T08:23:56Z</time></trkpt><trkpt lat="59.1021183226" lon="30.0457002874"><ele>71.27</ele><time>2026-04-22T08:24:07Z</time></trkpt><trkpt lat="59.1021336615" lon="30.0456229225"><ele>71.76</ele><time>2026-04-22T08:24:19Z</time></trkpt><trkpt lat="59.1021366790" lon="30.0456166361"><ele>71.27</ele><time>2026-04-22T08:24:20Z</time></trkpt><trkpt lat="59.1021759063" lon="30.0455791689"><ele>71.27</ele><time>2026-04-22T08:24:31Z</time></trkpt><trkpt lat="59.1021923348" lon="30.0455170590"><ele>71.27</ele><time>2026-04-22T08:24:43Z</time></trkpt><trkpt lat="59.1022153851" lon="30.0454884768"><ele>71.27</ele><time>2026-04-22T08:24:58Z</time></trkpt><trkpt lat="59.1022180673" lon="30.0454806816"><ele>71.76</ele><time>2026-04-22T08:25:35Z</time></trkpt><trkpt lat="59.1022124514" lon="30.0454873871"><ele>71.76</ele><time>2026-04-22T08:25:51Z</time></trkpt><trkpt lat="59.1022129543" lon="30.0454857945"><ele>71.76</ele><time>2026-04-22T08:26:23Z</time></trkpt><trkpt lat="59.1022095177" lon="30.0454546139"><ele>71.76</ele><time>2026-04-22T08:26:37Z</time></trkpt><trkpt lat="59.1021930054" lon="30.0454045739"><ele>72.72</ele><time>2026-04-22T08:26:51Z</time></trkpt><trkpt lat="59.1022076737" lon="30.0454013050"><ele>72.72</ele><time>2026-04-22T08:27:14Z</time></trkpt><trkpt lat="59.1022291314" lon="30.0453743152"><ele>72.72</ele><time>2026-04-22T08:27:23Z</time></trkpt><trkpt lat="59.1021743976" lon="30.0453274604"><ele>71.27</ele><time>2026-04-22T08:27:35Z</time></trkpt><trkpt lat="59.1021373495" lon="30.0452695414"><ele>71.27</ele><time>2026-04-22T08:27:46Z</time></trkpt><trkpt lat="59.1020798497" lon="30.0452780910"><ele>71.27</ele><time>2026-04-22T08:27:55Z</time></trkpt><trkpt lat="59.1020525247" lon="30.0452798512"><ele>71.27</ele><time>2026-04-22T08:27:58Z</time></trkpt><trkpt lat="59.1019654367" lon="30.0451752450"><ele>71.27</ele><time>2026-04-22T08:28:10Z</time></trkpt><trkpt lat="59.1019503493" lon="30.0450569764"><ele>71.27</ele><time>2026-04-22T08:28:20Z</time></trkpt><trkpt lat="59.1019239463" lon="30.0449217763"><ele>71.27</ele><time>2026-04-22T08:28:32Z</time></trkpt><trkpt lat="59.1019092780" lon="30.0447966345"><ele>71.27</ele><time>2026-04-22T08:28:43Z</time></trkpt><trkpt lat="59.1019044165" lon="30.0447523780"><ele>71.27</ele><time>2026-04-22T08:28:53Z</time></trkpt><trkpt lat="59.1018921789" lon="30.0447096303"><ele>71.27</ele><time>2026-04-22T08:29:03Z</time></trkpt><trkpt lat="59.1019102000" lon="30.0446512923"><ele>71.27</ele><time>2026-04-22T08:29:14Z</time></trkpt><trkpt lat="59.1019304004" lon="30.0444816425"><ele>72.24</ele><time>2026-04-22T08:29:24Z</time></trkpt><trkpt lat="59.1019405425" lon="30.0443735998"><ele>71.76</ele><time>2026-04-22T08:29:35Z</time></trkpt><trkpt lat="59.1019197553" lon="30.0443239789"><ele>71.76</ele><time>2026-04-22T08:29:46Z</time></trkpt><trkpt lat="59.1019147262" lon="30.0442404114"><ele>71.76</ele><time>2026-04-22T08:30:01Z</time></trkpt><trkpt lat="59.1018682066" lon="30.0441439357"><ele>72.24</ele><time>2026-04-22T08:30:14Z</time></trkpt><trkpt lat="59.1018200945" lon="30.0440400839"><ele>72.24</ele><time>2026-04-22T08:30:25Z</time></trkpt><trkpt lat="59.1017937753" lon="30.0440002698"><ele>72.24</ele><time>2026-04-22T08:30:37Z</time></trkpt><trkpt lat="59.1018080246" lon="30.0439684186"><ele>72.24</ele><time>2026-04-22T08:30:49Z</time></trkpt><trkpt lat="59.1018215194" lon="30.0439331308"><ele>72.24</ele><time>2026-04-22T08:31:01Z</time></trkpt><trkpt lat="59.1018402949" lon="30.0439164508"><ele>72.24</ele><time>2026-04-22T08:31:12Z</time></trkpt><trkpt lat="59.1018532030" lon="30.0438847672"><ele>73.20</ele><time>2026-04-22T08:31:23Z</time></trkpt><trkpt lat="59.1018739901" lon="30.0439121760"><ele>73.20</ele><time>2026-04-22T08:31:34Z</time></trkpt><trkpt lat="59.1019542888" lon="30.0439659040"><ele>73.20</ele><time>2026-04-22T08:31:45Z</time></trkpt><trkpt lat="59.1019542050" lon="30.0439771358"><ele>73.20</ele><time>2026-04-22T08:31:47Z</time></trkpt><trkpt lat="59.1019971203" lon="30.0439536665"><ele>73.20</ele><time>2026-04-22T08:31:58Z</time></trkpt><trkpt lat="59.1020132974" lon="30.0439304486"><ele>74.16</ele><time>2026-04-22T08:32:19Z</time></trkpt><trkpt lat="59.1020355932" lon="30.0438985974"><ele>72.72</ele><time>2026-04-22T08:32:41Z</time></trkpt><trkpt lat="59.1020345036" lon="30.0438962504"><ele>72.72</ele><time>2026-04-22T08:32:55Z</time></trkpt><trkpt lat="59.1019687057" lon="30.0437411014"><ele>72.72</ele><time>2026-04-22T08:33:07Z</time></trkpt><trkpt lat="59.1019398719" lon="30.0436428655"><ele>72.72</ele><time>2026-04-22T08:33:15Z</time></trkpt><trkpt lat="59.1018721461" lon="30.0436623115"><ele>72.72</ele><time>2026-04-22T08:33:26Z</time></trkpt><trkpt lat="59.1018278897" lon="30.0436302088"><ele>72.72</ele><time>2026-04-22T08:33:37Z</time></trkpt><trkpt lat="59.1018128023" lon="30.0436142832"><ele>72.72</ele><time>2026-04-22T08:33:39Z</time></trkpt><trkpt lat="59.1018009000" lon="30.0435848627"><ele>72.72</ele><time>2026-04-22T08:33:41Z</time></trkpt><trkpt lat="59.1017599124" lon="30.0435898919"><ele>72.72</ele><time>2026-04-22T08:33:52Z</time></trkpt><trkpt lat="59.1017189249" lon="30.0435962621"><ele>72.72</ele><time>2026-04-22T08:34:03Z</time></trkpt><trkpt lat="59.1017193440" lon="30.0435965136"><ele>72.72</ele><time>2026-04-22T08:34:04Z</time></trkpt><trkpt lat="59.1016782727" lon="30.0436189771"><ele>72.72</ele><time>2026-04-22T08:34:14Z</time></trkpt><trkpt lat="59.1016418114" lon="30.0436088350"><ele>72.72</ele><time>2026-04-22T08:34:24Z</time></trkpt><trkpt lat="59.1016139835" lon="30.0435957592"><ele>72.72</ele><time>2026-04-22T08:34:34Z</time></trkpt><trkpt lat="59.1015859041" lon="30.0436130259"><ele>72.72</ele><time>2026-04-22T08:34:45Z</time></trkpt><trkpt lat="59.1015767679" lon="30.0436094217"><ele>73.68</ele><time>2026-04-22T08:34:51Z</time></trkpt><trkpt lat="59.1015496943" lon="30.0436088350"><ele>73.68</ele><time>2026-04-22T08:35:02Z</time></trkpt><trkpt lat="59.1015425697" lon="30.0436271913"><ele>73.68</ele><time>2026-04-22T08:35:08Z</time></trkpt><trkpt lat="59.1015159991" lon="30.0435890537"><ele>73.68</ele><time>2026-04-22T08:35:18Z</time></trkpt><trkpt lat="59.1015027557" lon="30.0435648300"><ele>73.68</ele><time>2026-04-22T08:35:30Z</time></trkpt><trkpt lat="59.1014918592" lon="30.0435192324"><ele>73.68</ele><time>2026-04-22T08:35:41Z</time></trkpt><trkpt lat="59.1014708206" lon="30.0434613135"><ele>73.68</ele><time>2026-04-22T08:35:54Z</time></trkpt><trkpt lat="59.1014710721" lon="30.0434621517"><ele>73.68</ele><time>2026-04-22T08:35:56Z</time></trkpt><trkpt lat="59.1014737543" lon="30.0434370898"><ele>73.68</ele><time>2026-04-22T08:36:03Z</time></trkpt><trkpt lat="59.1014634445" lon="30.0433392730"><ele>73.68</ele><time>2026-04-22T08:36:11Z</time></trkpt><trkpt lat="59.1014236305" lon="30.0432710443"><ele>73.68</ele><time>2026-04-22T08:36:23Z</time></trkpt><trkpt lat="59.1014046874" lon="30.0431538653"><ele>73.68</ele><time>2026-04-22T08:36:35Z</time></trkpt><trkpt lat="59.1013886780" lon="30.0430585630"><ele>73.68</ele><time>2026-04-22T08:36:46Z</time></trkpt><trkpt lat="59.1013417393" lon="30.0430237781"><ele>73.68</ele><time>2026-04-22T08:37:01Z</time></trkpt><trkpt lat="59.1013039369" lon="30.0429416355"><ele>73.68</ele><time>2026-04-22T08:37:13Z</time></trkpt><trkpt lat="59.1013126541" lon="30.0428955350"><ele>73.68</ele><time>2026-04-22T08:37:17Z</time></trkpt><trkpt lat="59.1013295017" lon="30.0427764282"><ele>73.68</ele><time>2026-04-22T08:37:30Z</time></trkpt><trkpt lat="59.1013423260" lon="30.0427066069"><ele>73.68</ele><time>2026-04-22T08:37:41Z</time></trkpt><trkpt lat="59.1013588384" lon="30.0426610932"><ele>73.68</ele><time>2026-04-22T08:37:50Z</time></trkpt><trkpt lat="59.1013624426" lon="30.0426166691"><ele>73.68</ele><time>2026-04-22T08:38:02Z</time></trkpt><trkpt lat="59.1013719980" lon="30.0425947085"><ele>73.20</ele><time>2026-04-22T08:38:24Z</time></trkpt><trkpt lat="59.1013756022" lon="30.0425849017"><ele>73.20</ele><time>2026-04-22T08:38:48Z</time></trkpt><trkpt lat="59.1013714112" lon="30.0425734185"><ele>73.20</ele><time>2026-04-22T08:39:13Z</time></trkpt><trkpt lat="59.1013639513" lon="30.0426328462"><ele>73.20</ele><time>2026-04-22T08:39:26Z</time></trkpt><trkpt lat="59.1013573296" lon="30.0426514540"><ele>73.20</ele><time>2026-04-22T08:39:28Z</time></trkpt><trkpt lat="59.1013476904" lon="30.0426808745"><ele>73.20</ele><time>2026-04-22T08:39:30Z</time></trkpt><trkpt lat="59.1013207007" lon="30.0427693874"><ele>72.24</ele><time>2026-04-22T08:39:38Z</time></trkpt><trkpt lat="59.1013019253" lon="30.0428530388"><ele>72.24</ele><time>2026-04-22T08:39:47Z</time></trkpt><trkpt lat="59.1012963094" lon="30.0429769233"><ele>72.24</ele><time>2026-04-22T08:39:58Z</time></trkpt><trkpt lat="59.1012862511" lon="30.0430471636"><ele>72.24</ele><time>2026-04-22T08:40:14Z</time></trkpt><trkpt lat="59.1012454312" lon="30.0430640113"><ele>72.24</ele><time>2026-04-22T08:40:25Z</time></trkpt><trkpt lat="59.1012291703" lon="30.0430704653"><ele>71.76</ele><time>2026-04-22T08:40:38Z</time></trkpt><trkpt lat="59.1012026835" lon="30.0430537853"><ele>73.20</ele><time>2026-04-22T08:40:50Z</time></trkpt><trkpt lat="59.1011610255" lon="30.0430480018"><ele>73.20</ele><time>2026-04-22T08:41:02Z</time></trkpt><trkpt lat="59.1011139192" lon="30.0429687928"><ele>73.20</ele><time>2026-04-22T08:41:13Z</time></trkpt><trkpt lat="59.1010523960" lon="30.0430124626"><ele>73.20</ele><time>2026-04-22T08:41:25Z</time></trkpt><trkpt lat="59.1010309383" lon="30.0430375244"><ele>73.68</ele><time>2026-04-22T08:41:39Z</time></trkpt><trkpt lat="59.1010105703" lon="30.0430041645"><ele>73.68</ele><time>2026-04-22T08:41:51Z</time></trkpt><trkpt lat="59.1009796411" lon="30.0429635961"><ele>73.68</ele><time>2026-04-22T08:41:59Z</time></trkpt><trkpt lat="59.1009469517" lon="30.0429711398"><ele>73.68</ele><time>2026-04-22T08:42:13Z</time></trkpt><trkpt lat="59.1009303555" lon="30.0430016499"><ele>73.68</ele><time>2026-04-22T08:42:15Z</time></trkpt><trkpt lat="59.1009363905" lon="30.0430818647"><ele>73.68</ele><time>2026-04-22T08:42:22Z</time></trkpt><trkpt lat="59.1009236500" lon="30.0431006402"><ele>73.68</ele><time>2026-04-22T08:42:34Z</time></trkpt><trkpt lat="59.1009239014" lon="30.0430827867"><ele>73.68</ele><time>2026-04-22T08:42:35Z</time></trkpt><trkpt lat="59.1009357199" lon="30.0430039968"><ele>74.16</ele><time>2026-04-22T08:42:48Z</time></trkpt><trkpt lat="59.1009375639" lon="30.0429851376"><ele>73.68</ele><time>2026-04-22T08:43:11Z</time></trkpt><trkpt lat="59.1009592731" lon="30.0429074373"><ele>73.20</ele><time>2026-04-22T08:43:19Z</time></trkpt><trkpt lat="59.1009948123" lon="30.0428314973"><ele>72.72</ele><time>2026-04-22T08:43:25Z</time></trkpt><trkpt lat="59.1010342073" lon="30.0426730793"><ele>74.16</ele><time>2026-04-22T08:43:37Z</time></trkpt><trkpt lat="59.1010505520" lon="30.0426578242"><ele>74.16</ele><time>2026-04-22T08:43:39Z</time></trkpt><trkpt lat="59.1010709200" lon="30.0425605942"><ele>74.16</ele><time>2026-04-22T08:43:46Z</time></trkpt><trkpt lat="59.1010726802" lon="30.0425197743"><ele>74.16</ele><time>2026-04-22T08:43:49Z</time></trkpt><trkpt lat="59.1011074651" lon="30.0424965564"><ele>73.20</ele><time>2026-04-22T08:43:59Z</time></trkpt><trkpt lat="59.1011280846" lon="30.0425014179"><ele>73.20</ele><time>2026-04-22T08:44:04Z</time></trkpt><trkpt lat="59.1011420824" lon="30.0424626935"><ele>73.20</ele><time>2026-04-22T08:44:08Z</time></trkpt><trkpt lat="59.1011901945" lon="30.0423318520"><ele>73.20</ele><time>2026-04-22T08:44:22Z</time></trkpt><trkpt lat="59.1011992469" lon="30.0422686525"><ele>73.20</ele><time>2026-04-22T08:44:35Z</time></trkpt><trkpt lat="59.1012253985" lon="30.0421523117"><ele>73.20</ele><time>2026-04-22T08:44:45Z</time></trkpt><trkpt lat="59.1012677271" lon="30.0421474501"><ele>73.20</ele><time>2026-04-22T08:44:57Z</time></trkpt><trkpt lat="59.1013326030" lon="30.0421371404"><ele>73.20</ele><time>2026-04-22T08:45:09Z</time></trkpt><trkpt lat="59.1013895161" lon="30.0421336200"><ele>72.72</ele><time>2026-04-22T08:45:17Z</time></trkpt><trkpt lat="59.1014442500" lon="30.0421259087"><ele>72.72</ele><time>2026-04-22T08:45:27Z</time></trkpt><trkpt lat="59.1014938708" lon="30.0421793852"><ele>72.72</ele><time>2026-04-22T08:45:41Z</time></trkpt><trkpt lat="59.1015275661" lon="30.0421798043"><ele>72.72</ele><time>2026-04-22T08:45:55Z</time></trkpt><trkpt lat="59.1015713196" lon="30.0422106497"><ele>72.72</ele><time>2026-04-22T08:46:04Z</time></trkpt><trkpt lat="59.1016084515" lon="30.0422613602"><ele>72.72</ele><time>2026-04-22T08:46:14Z</time></trkpt><trkpt lat="59.1016069427" lon="30.0423584227"><ele>72.72</ele><time>2026-04-22T08:46:25Z</time></trkpt><trkpt lat="59.1016040929" lon="30.0423630327"><ele>72.72</ele><time>2026-04-22T08:46:27Z</time></trkpt><trkpt lat="59.1015978064" lon="30.0424626935"><ele>72.72</ele><time>2026-04-22T08:46:36Z</time></trkpt><trkpt lat="59.1016068589" lon="30.0425714068"><ele>73.68</ele><time>2026-04-22T08:46:48Z</time></trkpt><trkpt lat="59.1016086191" lon="30.0426256377"><ele>73.68</ele><time>2026-04-22T08:47:01Z</time></trkpt><trkpt lat="59.1016066913" lon="30.0426406413"><ele>73.68</ele><time>2026-04-22T08:47:04Z</time></trkpt><trkpt lat="59.1016219463" lon="30.0427060202"><ele>73.68</ele><time>2026-04-22T08:47:15Z</time></trkpt><trkpt lat="59.1016395483" lon="30.0426579919"><ele>73.68</ele><time>2026-04-22T08:47:29Z</time></trkpt><trkpt lat="59.1016341839" lon="30.0426488556"><ele>73.68</ele><time>2026-04-22T08:47:34Z</time></trkpt><trkpt lat="59.1016093735" lon="30.0425571576"><ele>73.68</ele><time>2026-04-22T08:47:45Z</time></trkpt><trkpt lat="59.1016123071" lon="30.0424393080"><ele>73.68</ele><time>2026-04-22T08:47:56Z</time></trkpt><trkpt lat="59.1016406380" lon="30.0422702450"><ele>73.68</ele><time>2026-04-22T08:48:06Z</time></trkpt><trkpt lat="59.1015789472" lon="30.0421591010"><ele>73.68</ele><time>2026-04-22T08:48:18Z</time></trkpt><trkpt lat="59.1015392169" lon="30.0421029422"><ele>73.68</ele><time>2026-04-22T08:48:30Z</time></trkpt><trkpt lat="59.1015544720" lon="30.0420543272"><ele>73.68</ele><time>2026-04-22T08:48:38Z</time></trkpt><trkpt lat="59.1015600041" lon="30.0419955701"><ele>73.68</ele><time>2026-04-22T08:48:49Z</time></trkpt><trkpt lat="59.1015695594" lon="30.0419542473"><ele>73.68</ele><time>2026-04-22T08:49:00Z</time></trkpt><trkpt lat="59.1015569028" lon="30.0419130921"><ele>73.68</ele><time>2026-04-22T08:49:17Z</time></trkpt><trkpt lat="59.1015640274" lon="30.0418164488"><ele>73.68</ele><time>2026-04-22T08:49:31Z</time></trkpt><trkpt lat="59.1015527956" lon="30.0417649839"><ele>74.16</ele><time>2026-04-22T08:49:44Z</time></trkpt><trkpt lat="59.1015372053" lon="30.0417324621"><ele>74.16</ele><time>2026-04-22T08:49:57Z</time></trkpt><trkpt lat="59.1015294939" lon="30.0416992698"><ele>74.16</ele><time>2026-04-22T08:50:00Z</time></trkpt><trkpt lat="59.1014484409" lon="30.0417344738"><ele>74.64</ele><time>2026-04-22T08:50:12Z</time></trkpt><trkpt lat="59.1013846546" lon="30.0417769700"><ele>74.64</ele><time>2026-04-22T08:50:24Z</time></trkpt><trkpt lat="59.1013381351" lon="30.0417503156"><ele>74.64</ele><time>2026-04-22T08:50:35Z</time></trkpt><trkpt lat="59.1013031825" lon="30.0417153630"><ele>74.64</ele><time>2026-04-22T08:50:45Z</time></trkpt><trkpt lat="59.1012946330" lon="30.0416919775"><ele>74.16</ele><time>2026-04-22T08:50:47Z</time></trkpt><trkpt lat="59.1012661345" lon="30.0416468829"><ele>74.16</ele><time>2026-04-22T08:50:53Z</time></trkpt><trkpt lat="59.1011849977" lon="30.0416123495"><ele>74.16</ele><time>2026-04-22T08:51:02Z</time></trkpt><trkpt lat="59.1011360474" lon="30.0415458810"><ele>74.16</ele><time>2026-04-22T08:51:12Z</time></trkpt><trkpt lat="59.1011277493" lon="30.0415278599"><ele>74.16</ele><time>2026-04-22T08:51:16Z</time></trkpt><trkpt lat="59.1011082195" lon="30.0414649118"><ele>74.16</ele><time>2026-04-22T08:51:22Z</time></trkpt><trkpt lat="59.1011160146" lon="30.0413199887"><ele>74.16</ele><time>2026-04-22T08:51:34Z</time></trkpt><trkpt lat="59.1011498775" lon="30.0412249379"><ele>74.16</ele><time>2026-04-22T08:51:47Z</time></trkpt><trkpt lat="59.1011562478" lon="30.0411701202"><ele>74.16</ele><time>2026-04-22T08:52:06Z</time></trkpt><trkpt lat="59.1011544876" lon="30.0411727186"><ele>74.64</ele><time>2026-04-22T08:52:24Z</time></trkpt><trkpt lat="59.1011629533" lon="30.0411500037"><ele>74.64</ele><time>2026-04-22T08:52:53Z</time></trkpt><trkpt lat="59.1011695750" lon="30.0411211699"><ele>73.68</ele><time>2026-04-22T08:53:04Z</time></trkpt><trkpt lat="59.1011562478" lon="30.0410920009"><ele>73.68</ele><time>2026-04-22T08:53:15Z</time></trkpt><trkpt lat="59.1011289228" lon="30.0410115346"><ele>73.68</ele><time>2026-04-22T08:53:25Z</time></trkpt><trkpt lat="59.1011094768" lon="30.0409429707"><ele>73.68</ele><time>2026-04-22T08:53:37Z</time></trkpt><trkpt lat="59.1010622028" lon="30.0408804417"><ele>73.68</ele><time>2026-04-22T08:53:50Z</time></trkpt><trkpt lat="59.1010454390" lon="30.0408578105"><ele>73.68</ele><time>2026-04-22T08:53:53Z</time></trkpt><trkpt lat="59.1010271665" lon="30.0408348441"><ele>73.68</ele><time>2026-04-22T08:54:04Z</time></trkpt><trkpt lat="59.1010249034" lon="30.0407367758"><ele>73.68</ele><time>2026-04-22T08:54:16Z</time></trkpt><trkpt lat="59.1010026075" lon="30.0405625161"><ele>73.68</ele><time>2026-04-22T08:54:28Z</time></trkpt><trkpt lat="59.1009856761" lon="30.0404136535"><ele>73.68</ele><time>2026-04-22T08:54:39Z</time></trkpt><trkpt lat="59.1009582672" lon="30.0401806366"><ele>73.68</ele><time>2026-04-22T08:54:50Z</time></trkpt><trkpt lat="59.1009233985" lon="30.0400190335"><ele>74.16</ele><time>2026-04-22T08:54:59Z</time></trkpt><trkpt lat="59.1008883622" lon="30.0399949774"><ele>73.68</ele><time>2026-04-22T08:55:03Z</time></trkpt><trkpt lat="59.1008361429" lon="30.0399684906"><ele>75.60</ele><time>2026-04-22T08:55:09Z</time></trkpt><trkpt lat="59.1008060519" lon="30.0398746971"><ele>75.60</ele><time>2026-04-22T08:55:18Z</time></trkpt><trkpt lat="59.1007808223" lon="30.0397229847"><ele>75.60</ele><time>2026-04-22T08:55:29Z</time></trkpt><trkpt lat="59.1007659025" lon="30.0396871939"><ele>75.60</ele><time>2026-04-22T08:55:32Z</time></trkpt><trkpt lat="59.1007373203" lon="30.0395982619"><ele>75.60</ele><time>2026-04-22T08:55:42Z</time></trkpt><trkpt lat="59.1007453669" lon="30.0395882875"><ele>75.60</ele><time>2026-04-22T08:55:43Z</time></trkpt><trkpt lat="59.1008369811" lon="30.0395934843"><ele>76.08</ele><time>2026-04-22T08:55:53Z</time></trkpt><trkpt lat="59.1008506436" lon="30.0395893771"><ele>76.08</ele><time>2026-04-22T08:55:59Z</time></trkpt><trkpt lat="59.1008698381" lon="30.0395167060"><ele>76.08</ele><time>2026-04-22T08:56:09Z</time></trkpt><trkpt lat="59.1008301917" lon="30.0394308753"><ele>76.08</ele><time>2026-04-22T08:56:16Z</time></trkpt><trkpt lat="59.1007901262" lon="30.0393767282"><ele>76.08</ele><time>2026-04-22T08:56:20Z</time></trkpt><trkpt lat="59.1007565986" lon="30.0392482337"><ele>76.56</ele><time>2026-04-22T08:56:28Z</time></trkpt><trkpt lat="59.1007497255" lon="30.0392085034"><ele>76.56</ele><time>2026-04-22T08:56:31Z</time></trkpt><trkpt lat="59.1007356439" lon="30.0391523447"><ele>76.56</ele><time>2026-04-22T08:56:36Z</time></trkpt><trkpt lat="59.1008248273" lon="30.0391233433"><ele>76.56</ele><time>2026-04-22T08:56:46Z</time></trkpt><trkpt lat="59.1008519847" lon="30.0390873011"><ele>76.56</ele><time>2026-04-22T08:56:59Z</time></trkpt><trkpt lat="59.1008866020" lon="30.0390331540"><ele>76.56</ele><time>2026-04-22T08:57:09Z</time></trkpt><trkpt lat="59.1009395756" lon="30.0389681943"><ele>77.04</ele><time>2026-04-22T08:57:22Z</time></trkpt><trkpt lat="59.1009594407" lon="30.0388768315"><ele>77.04</ele><time>2026-04-22T08:57:33Z</time></trkpt><trkpt lat="59.1009509750" lon="30.0388255343"><ele>77.04</ele><time>2026-04-22T08:57:37Z</time></trkpt><trkpt lat="59.1009296011" lon="30.0386252906"><ele>77.04</ele><time>2026-04-22T08:57:48Z</time></trkpt><trkpt lat="59.1009270865" lon="30.0385040883"><ele>77.04</ele><time>2026-04-22T08:58:01Z</time></trkpt><trkpt lat="59.1009528190" lon="30.0384676270"><ele>77.04</ele><time>2026-04-22T08:58:06Z</time></trkpt><trkpt lat="59.1009043716" lon="30.0382858235"><ele>77.04</ele><time>2026-04-22T08:58:17Z</time></trkpt><trkpt lat="59.1008676589" lon="30.0382191036"><ele>77.04</ele><time>2026-04-22T08:58:28Z</time></trkpt><trkpt lat="59.1008388251" lon="30.0381015055"><ele>77.04</ele><time>2026-04-22T08:58:37Z</time></trkpt><trkpt lat="59.1007751226" lon="30.0380181894"><ele>77.04</ele><time>2026-04-22T08:58:46Z</time></trkpt><trkpt lat="59.1007601190" lon="30.0379804708"><ele>77.04</ele><time>2026-04-22T08:58:50Z</time></trkpt><trkpt lat="59.1007063910" lon="30.0378800556"><ele>77.04</ele><time>2026-04-22T08:59:03Z</time></trkpt><trkpt lat="59.1006965004" lon="30.0378685724"><ele>77.04</ele><time>2026-04-22T08:59:26Z</time></trkpt><trkpt lat="59.1006999370" lon="30.0378577597"><ele>77.04</ele><time>2026-04-22T08:59:45Z</time></trkpt><trkpt lat="59.1006823350" lon="30.0378732663"><ele>77.52</ele><time>2026-04-22T09:00:05Z</time></trkpt><trkpt lat="59.1006639786" lon="30.0378736854"><ele>77.52</ele><time>2026-04-22T09:00:18Z</time></trkpt><trkpt lat="59.1006486397" lon="30.0379238930"><ele>77.52</ele><time>2026-04-22T09:00:24Z</time></trkpt><trkpt lat="59.1006016172" lon="30.0379269943"><ele>77.52</ele><time>2026-04-22T09:00:36Z</time></trkpt><trkpt lat="59.1005507391" lon="30.0377731863"><ele>77.52</ele><time>2026-04-22T09:00:47Z</time></trkpt><trkpt lat="59.1005379148" lon="30.0377261639"><ele>77.52</ele><time>2026-04-22T09:01:04Z</time></trkpt><trkpt lat="59.1005331371" lon="30.0377125852"><ele>77.52</ele><time>2026-04-22T09:01:26Z</time></trkpt><trkpt lat="59.1005370766" lon="30.0376689993"><ele>77.52</ele><time>2026-04-22T09:01:41Z</time></trkpt><trkpt lat="59.1005369090" lon="30.0375983398"><ele>78.00</ele><time>2026-04-22T09:01:53Z</time></trkpt><trkpt lat="59.1004844382" lon="30.0374788977"><ele>78.00</ele><time>2026-04-22T09:02:03Z</time></trkpt><trkpt lat="59.1004587896" lon="30.0374076515"><ele>78.00</ele><time>2026-04-22T09:02:17Z</time></trkpt><trkpt lat="59.1004677583" lon="30.0373710226"><ele>78.00</ele><time>2026-04-22T09:02:21Z</time></trkpt><trkpt lat="59.1004464682" lon="30.0372379180"><ele>78.00</ele><time>2026-04-22T09:02:31Z</time></trkpt><trkpt lat="59.1004238371" lon="30.0371651631"><ele>78.00</ele><time>2026-04-22T09:02:43Z</time></trkpt><trkpt lat="59.1003986914" lon="30.0371110160"><ele>78.00</ele><time>2026-04-22T09:03:06Z</time></trkpt><trkpt lat="59.1004030500" lon="30.0370831881"><ele>78.00</ele><time>2026-04-22T09:03:32Z</time></trkpt><trkpt lat="59.1004049778" lon="30.0370693579"><ele>78.48</ele><time>2026-04-22T09:03:52Z</time></trkpt><trkpt lat="59.1003768146" lon="30.0370606408"><ele>78.48</ele><time>2026-04-22T09:04:08Z</time></trkpt><trkpt lat="59.1003636550" lon="30.0370311365"><ele>78.48</ele><time>2026-04-22T09:04:30Z</time></trkpt><trkpt lat="59.1003372520" lon="30.0370879658"><ele>78.48</ele><time>2026-04-22T09:04:49Z</time></trkpt><trkpt lat="59.1003337316" lon="30.0370027218"><ele>78.48</ele><time>2026-04-22T09:05:00Z</time></trkpt><trkpt lat="59.1003009584" lon="30.0370525941"><ele>78.48</ele><time>2026-04-22T09:05:13Z</time></trkpt><trkpt lat="59.1002567858" lon="30.0370861217"><ele>78.48</ele><time>2026-04-22T09:05:24Z</time></trkpt><trkpt lat="59.1002493259" lon="30.0371318869"><ele>78.48</ele><time>2026-04-22T09:05:38Z</time></trkpt><trkpt lat="59.1002418660" lon="30.0371004548"><ele>78.48</ele><time>2026-04-22T09:05:51Z</time></trkpt><trkpt lat="59.1002365854" lon="30.0370028894"><ele>78.48</ele><time>2026-04-22T09:06:06Z</time></trkpt><trkpt lat="59.1002359986" lon="30.0369401928"><ele>78.48</ele><time>2026-04-22T09:06:16Z</time></trkpt><trkpt lat="59.1002234258" lon="30.0368426275"><ele>78.48</ele><time>2026-04-22T09:06:28Z</time></trkpt><trkpt lat="59.1002133675" lon="30.0367494207"><ele>78.48</ele><time>2026-04-22T09:06:33Z</time></trkpt><trkpt lat="59.1002163850" lon="30.0366597343"><ele>78.97</ele><time>2026-04-22T09:06:43Z</time></trkpt><trkpt lat="59.1002201568" lon="30.0366481673"><ele>78.97</ele><time>2026-04-22T09:06:49Z</time></trkpt><trkpt lat="59.1002097633" lon="30.0366589800"><ele>78.97</ele><time>2026-04-22T09:07:00Z</time></trkpt><trkpt lat="59.1002077516" lon="30.0366578065"><ele>78.97</ele><time>2026-04-22T09:07:27Z</time></trkpt><trkpt lat="59.1002130322" lon="30.0366536155"><ele>78.97</ele><time>2026-04-22T09:07:49Z</time></trkpt><trkpt lat="59.1002190672" lon="30.0365569722"><ele>78.97</ele><time>2026-04-22T09:08:00Z</time></trkpt><trkpt lat="59.1002261918" lon="30.0363959558"><ele>78.97</ele><time>2026-04-22T09:08:11Z</time></trkpt><trkpt lat="59.1002256889" lon="30.0363641884"><ele>78.97</ele><time>2026-04-22T09:08:13Z</time></trkpt><trkpt lat="59.1002169717" lon="30.0362852309"><ele>78.97</ele><time>2026-04-22T09:08:17Z</time></trkpt><trkpt lat="59.1002650838" lon="30.0361563172"><ele>78.97</ele><time>2026-04-22T09:08:28Z</time></trkpt><trkpt lat="59.1003111843" lon="30.0360740069"><ele>78.97</ele><time>2026-04-22T09:08:39Z</time></trkpt><trkpt lat="59.1002977733" lon="30.0360277388"><ele>78.97</ele><time>2026-04-22T09:08:53Z</time></trkpt><trkpt lat="59.1002893914" lon="30.0359211210"><ele>78.97</ele><time>2026-04-22T09:09:04Z</time></trkpt><trkpt lat="59.1003011260" lon="30.0357570034"><ele>79.45</ele><time>2026-04-22T09:09:15Z</time></trkpt><trkpt lat="59.1002523433" lon="30.0356577616"><ele>79.93</ele><time>2026-04-22T09:09:26Z</time></trkpt><trkpt lat="59.1002308019" lon="30.0356054585"><ele>79.93</ele><time>2026-04-22T09:09:31Z</time></trkpt><trkpt lat="59.1002462246" lon="30.0355096534"><ele>79.93</ele><time>2026-04-22T09:09:41Z</time></trkpt><trkpt lat="59.1002037283" lon="30.0354037061"><ele>79.93</ele><time>2026-04-22T09:09:52Z</time></trkpt><trkpt lat="59.1002031416" lon="30.0353657361"><ele>80.41</ele><time>2026-04-22T09:10:12Z</time></trkpt><trkpt lat="59.1001807619" lon="30.0352768041"><ele>80.41</ele><time>2026-04-22T09:10:27Z</time></trkpt><trkpt lat="59.1002018005" lon="30.0352589507"><ele>80.41</ele><time>2026-04-22T09:10:37Z</time></trkpt><trkpt lat="59.1002505831" lon="30.0352388341"><ele>80.41</ele><time>2026-04-22T09:10:47Z</time></trkpt><trkpt lat="59.1002901457" lon="30.0351918116"><ele>80.41</ele><time>2026-04-22T09:10:57Z</time></trkpt><trkpt lat="59.1003164649" lon="30.0351455435"><ele>80.89</ele><time>2026-04-22T09:11:08Z</time></trkpt><trkpt lat="59.1003535967" lon="30.0350566115"><ele>80.89</ele><time>2026-04-22T09:11:19Z</time></trkpt><trkpt lat="59.1003362462" lon="30.0349468924"><ele>80.89</ele><time>2026-04-22T09:11:29Z</time></trkpt><trkpt lat="59.1002968512" lon="30.0348277017"><ele>80.89</ele><time>2026-04-22T09:11:42Z</time></trkpt><trkpt lat="59.1002855357" lon="30.0346720498"><ele>80.89</ele><time>2026-04-22T09:11:54Z</time></trkpt><trkpt lat="59.1002848651" lon="30.0346255302"><ele>80.89</ele><time>2026-04-22T09:11:57Z</time></trkpt><trkpt lat="59.1002315562" lon="30.0345020648"><ele>80.89</ele><time>2026-04-22T09:12:08Z</time></trkpt><trkpt lat="59.1002026387" lon="30.0344112050"><ele>80.89</ele><time>2026-04-22T09:12:18Z</time></trkpt><trkpt lat="59.1001741402" lon="30.0344128814"><ele>81.37</ele><time>2026-04-22T09:12:25Z</time></trkpt><trkpt lat="59.1001648363" lon="30.0344075169"><ele>81.85</ele><time>2026-04-22T09:12:27Z</time></trkpt><trkpt lat="59.1000968590" lon="30.0342946965"><ele>81.85</ele><time>2026-04-22T09:12:35Z</time></trkpt><trkpt lat="59.1001080070" lon="30.0341690518"><ele>81.85</ele><time>2026-04-22T09:12:44Z</time></trkpt><trkpt lat="59.1001272015" lon="30.0340419821"><ele>81.85</ele><time>2026-04-22T09:12:56Z</time></trkpt><trkpt lat="59.1001000442" lon="30.0339812972"><ele>81.85</ele><time>2026-04-22T09:13:08Z</time></trkpt><trkpt lat="59.1000919137" lon="30.0338770263"><ele>81.85</ele><time>2026-04-22T09:13:16Z</time></trkpt><trkpt lat="59.1000903212" lon="30.0338046905"><ele>81.85</ele><time>2026-04-22T09:13:26Z</time></trkpt><trkpt lat="59.1000443883" lon="30.0337486155"><ele>81.85</ele><time>2026-04-22T09:13:35Z</time></trkpt><trkpt lat="59.1000298038" lon="30.0337076280"><ele>82.33</ele><time>2026-04-22T09:13:52Z</time></trkpt><trkpt lat="59.1000458971" lon="30.0336303469"><ele>82.33</ele><time>2026-04-22T09:14:00Z</time></trkpt><trkpt lat="59.0999922529" lon="30.0335658900"><ele>82.33</ele><time>2026-04-22T09:14:12Z</time></trkpt><trkpt lat="59.0999826137" lon="30.0334756169"><ele>82.81</ele><time>2026-04-22T09:14:27Z</time></trkpt><trkpt lat="59.0999826975" lon="30.0333860982"><ele>82.81</ele><time>2026-04-22T09:14:37Z</time></trkpt><trkpt lat="59.0999925882" lon="30.0333251618"><ele>82.81</ele><time>2026-04-22T09:14:47Z</time></trkpt><trkpt lat="59.1000161413" lon="30.0333408359"><ele>82.81</ele><time>2026-04-22T09:14:59Z</time></trkpt><trkpt lat="59.1000018083" lon="30.0333262514"><ele>82.81</ele><time>2026-04-22T09:15:04Z</time></trkpt><trkpt lat="59.0999578033" lon="30.0332024507"><ele>82.81</ele><time>2026-04-22T09:15:14Z</time></trkpt><trkpt lat="59.0999590605" lon="30.0331656542"><ele>82.81</ele><time>2026-04-22T09:15:25Z</time></trkpt><trkpt lat="59.0999338310" lon="30.0330771413"><ele>82.81</ele><time>2026-04-22T09:15:40Z</time></trkpt><trkpt lat="59.0999541990" lon="30.0330843497"><ele>82.81</ele><time>2026-04-22T09:15:46Z</time></trkpt><trkpt lat="59.0999966953" lon="30.0330791529"><ele>82.81</ele><time>2026-04-22T09:15:57Z</time></trkpt><trkpt lat="59.1000157222" lon="30.0330658257"><ele>82.81</ele><time>2026-04-22T09:16:07Z</time></trkpt><trkpt lat="59.1000259481" lon="30.0329841860"><ele>82.81</ele><time>2026-04-22T09:16:20Z</time></trkpt><trkpt lat="59.1000273731" lon="30.0329624768"><ele>83.29</ele><time>2026-04-22T09:16:39Z</time></trkpt><trkpt lat="59.1000059154" lon="30.0328401010"><ele>83.29</ele><time>2026-04-22T09:16:51Z</time></trkpt><trkpt lat="59.0999867208" lon="30.0327943359"><ele>83.29</ele><time>2026-04-22T09:16:55Z</time></trkpt><trkpt lat="59.0999263711" lon="30.0327639934"><ele>83.29</ele><time>2026-04-22T09:17:04Z</time></trkpt><trkpt lat="59.0997813642" lon="30.0327908155"><ele>83.29</ele><time>2026-04-22T09:17:18Z</time></trkpt><trkpt lat="59.0997081902" lon="30.0327139534"><ele>83.29</ele><time>2026-04-22T09:17:28Z</time></trkpt><trkpt lat="59.0996760875" lon="30.0326689426"><ele>83.29</ele><time>2026-04-22T09:17:32Z</time></trkpt><trkpt lat="59.0996242035" lon="30.0325875543"><ele>83.29</ele><time>2026-04-22T09:17:39Z</time></trkpt><trkpt lat="59.0995957889" lon="30.0325512607"><ele>83.29</ele><time>2026-04-22T09:17:43Z</time></trkpt><trkpt lat="59.0996137261" lon="30.0324166473"><ele>83.29</ele><time>2026-04-22T09:17:51Z</time></trkpt><trkpt lat="59.0995935258" lon="30.0323827844"><ele>83.29</ele><time>2026-04-22T09:17:53Z</time></trkpt><trkpt lat="59.0995986387" lon="30.0322469976"><ele>83.29</ele><time>2026-04-22T09:18:01Z</time></trkpt><trkpt lat="59.0995987225" lon="30.0321165752"><ele>83.29</ele><time>2026-04-22T09:18:13Z</time></trkpt><trkpt lat="59.0995173343" lon="30.0320801977"><ele>83.29</ele><time>2026-04-22T09:18:25Z</time></trkpt><trkpt lat="59.0995121375" lon="30.0319935288"><ele>83.29</ele><time>2026-04-22T09:18:32Z</time></trkpt><trkpt lat="59.0995626803" lon="30.0319137331"><ele>83.29</ele><time>2026-04-22T09:18:42Z</time></trkpt><trkpt lat="59.0995427314" lon="30.0317797903"><ele>83.29</ele><time>2026-04-22T09:18:56Z</time></trkpt><trkpt lat="59.0995406359" lon="30.0316909421"><ele>83.29</ele><time>2026-04-22T09:19:06Z</time></trkpt><trkpt lat="59.0994635224" lon="30.0315835699"><ele>83.29</ele><time>2026-04-22T09:19:17Z</time></trkpt><trkpt lat="59.0994300786" lon="30.0314616971"><ele>83.29</ele><time>2026-04-22T09:19:29Z</time></trkpt><trkpt lat="59.0994260553" lon="30.0313678198"><ele>83.29</ele><time>2026-04-22T09:19:40Z</time></trkpt><trkpt lat="59.0994058549" lon="30.0312515628"><ele>83.29</ele><time>2026-04-22T09:19:50Z</time></trkpt><trkpt lat="59.0993517917" lon="30.0311358087"><ele>83.29</ele><time>2026-04-22T09:19:59Z</time></trkpt><trkpt lat="59.0993070323" lon="30.0310286880"><ele>83.29</ele><time>2026-04-22T09:20:06Z</time></trkpt><trkpt lat="59.0993164200" lon="30.0309043005"><ele>82.33</ele><time>2026-04-22T09:20:17Z</time></trkpt><trkpt lat="59.0993397217" lon="30.0307880435"><ele>82.33</ele><time>2026-04-22T09:20:27Z</time></trkpt><trkpt lat="59.0993888397" lon="30.0307551865"><ele>81.85</ele><time>2026-04-22T09:20:38Z</time></trkpt><trkpt lat="59.0994235408" lon="30.0307307113"><ele>81.85</ele><time>2026-04-22T09:20:49Z</time></trkpt><trkpt lat="59.0994434059" lon="30.0307883788"><ele>81.85</ele><time>2026-04-22T09:21:00Z</time></trkpt><trkpt lat="59.0994235408" lon="30.0307585392"><ele>81.85</ele><time>2026-04-22T09:21:06Z</time></trkpt><trkpt lat="59.0994283184" lon="30.0306889694"><ele>81.85</ele><time>2026-04-22T09:21:16Z</time></trkpt><trkpt lat="59.0994448308" lon="30.0306370854"><ele>81.37</ele><time>2026-04-22T09:21:36Z</time></trkpt><trkpt lat="59.0994493570" lon="30.0306261890"><ele>82.81</ele><time>2026-04-22T09:21:40Z</time></trkpt><trkpt lat="59.0994449984" lon="30.0306194834"><ele>82.33</ele><time>2026-04-22T09:22:01Z</time></trkpt><trkpt lat="59.0994457528" lon="30.0306217466"><ele>80.89</ele><time>2026-04-22T09:22:21Z</time></trkpt><trkpt lat="59.0994377900" lon="30.0306172203"><ele>82.33</ele><time>2026-04-22T09:22:23Z</time></trkpt><trkpt lat="59.0994281508" lon="30.0306042284"><ele>83.29</ele><time>2026-04-22T09:22:25Z</time></trkpt><trkpt lat="59.0994149074" lon="30.0306036416"><ele>83.29</ele><time>2026-04-22T09:22:35Z</time></trkpt><trkpt lat="59.0994137339" lon="30.0306207407"><ele>81.85</ele><time>2026-04-22T09:22:49Z</time></trkpt><trkpt lat="59.0994073637" lon="30.0306239258"><ele>81.85</ele><time>2026-04-22T09:22:59Z</time></trkpt><trkpt lat="59.0994051844" lon="30.0306190643"><ele>81.85</ele><time>2026-04-22T09:23:09Z</time></trkpt><trkpt lat="59.0994124766" lon="30.0305888895"><ele>81.37</ele><time>2026-04-22T09:23:21Z</time></trkpt><trkpt lat="59.0993680526" lon="30.0305481534"><ele>81.37</ele><time>2026-04-22T09:23:35Z</time></trkpt><trkpt lat="59.0993456729" lon="30.0305063277"><ele>81.37</ele><time>2026-04-22T09:23:50Z</time></trkpt><trkpt lat="59.0993346088" lon="30.0304950122"><ele>82.33</ele><time>2026-04-22T09:24:07Z</time></trkpt><trkpt lat="59.0993147437" lon="30.0304760691"><ele>82.33</ele><time>2026-04-22T09:24:22Z</time></trkpt><trkpt lat="59.0993184317" lon="30.0304463133"><ele>82.33</ele><time>2026-04-22T09:24:35Z</time></trkpt><trkpt lat="59.0993101336" lon="30.0304195751"><ele>81.85</ele><time>2026-04-22T09:24:47Z</time></trkpt><trkpt lat="59.0992992371" lon="30.0304323994"><ele>81.85</ele><time>2026-04-22T09:25:07Z</time></trkpt><trkpt lat="59.0993062779" lon="30.0304281246"><ele>81.85</ele><time>2026-04-22T09:25:27Z</time></trkpt><trkpt lat="59.0992917772" lon="30.0304274540"><ele>81.85</ele><time>2026-04-22T09:25:48Z</time></trkpt><trkpt lat="59.0992849041" lon="30.0304277055"><ele>81.85</ele><time>2026-04-22T09:26:04Z</time></trkpt><trkpt lat="59.0992845688" lon="30.0304255262"><ele>81.85</ele><time>2026-04-22T09:26:24Z</time></trkpt><trkpt lat="59.0992813837" lon="30.0304224249"><ele>81.85</ele><time>2026-04-22T09:26:42Z</time></trkpt><trkpt lat="59.0992654581" lon="30.0303881429"><ele>81.37</ele><time>2026-04-22T09:27:05Z</time></trkpt><trkpt lat="59.0992631949" lon="30.0303956028"><ele>81.37</ele><time>2026-04-22T09:27:26Z</time></trkpt><trkpt lat="59.0992667153" lon="30.0303883106"><ele>81.37</ele><time>2026-04-22T09:27:50Z</time></trkpt><trkpt lat="59.0992558189" lon="30.0304028951"><ele>81.37</ele><time>2026-04-22T09:28:19Z</time></trkpt><trkpt lat="59.0992541425" lon="30.0304026436"><ele>81.37</ele><time>2026-04-22T09:28:43Z</time></trkpt><trkpt lat="59.0992536396" lon="30.0304086786"><ele>80.89</ele><time>2026-04-22T09:29:05Z</time></trkpt><trkpt lat="59.0992574953" lon="30.0303879753"><ele>79.93</ele><time>2026-04-22T09:29:28Z</time></trkpt><trkpt lat="59.0992639493" lon="30.0303807668"><ele>79.93</ele><time>2026-04-22T09:29:47Z</time></trkpt><trkpt lat="59.0992516279" lon="30.0303640030"><ele>79.93</ele><time>2026-04-22T09:30:15Z</time></trkpt><trkpt lat="59.0992529690" lon="30.0303679425"><ele>79.45</ele><time>2026-04-22T09:30:40Z</time></trkpt><trkpt lat="59.0992550645" lon="30.0303649250"><ele>79.45</ele><time>2026-04-22T09:31:04Z</time></trkpt><trkpt lat="59.0992570762" lon="30.0303547829"><ele>79.45</ele><time>2026-04-22T09:31:28Z</time></trkpt><trkpt lat="59.0992574114" lon="30.0303471554"><ele>79.45</ele><time>2026-04-22T09:31:52Z</time></trkpt><trkpt lat="59.0992718283" lon="30.0303464849"><ele>79.45</ele><time>2026-04-22T09:32:21Z</time></trkpt><trkpt lat="59.0992713254" lon="30.0303401984"><ele>79.45</ele><time>2026-04-22T09:32:47Z</time></trkpt><trkpt lat="59.0992738400" lon="30.0303640869"><ele>78.97</ele><time>2026-04-22T09:33:08Z</time></trkpt><trkpt lat="59.0992762707" lon="30.0303559564"><ele>78.97</ele><time>2026-04-22T09:33:30Z</time></trkpt><trkpt lat="59.0992654581" lon="30.0303631648"><ele>78.97</ele><time>2026-04-22T09:33:46Z</time></trkpt><trkpt lat="59.0992680565" lon="30.0303780846"><ele>79.93</ele><time>2026-04-22T09:34:08Z</time></trkpt><trkpt lat="59.0992711578" lon="30.0303950999"><ele>79.93</ele><time>2026-04-22T09:34:33Z</time></trkpt><trkpt lat="59.0992681403" lon="30.0303824432"><ele>79.93</ele><time>2026-04-22T09:34:49Z</time></trkpt><trkpt lat="59.0992795397" lon="30.0303436350"><ele>79.93</ele><time>2026-04-22T09:35:01Z</time></trkpt><trkpt lat="59.0992746782" lon="30.0302267913"><ele>79.93</ele><time>2026-04-22T09:35:11Z</time></trkpt><trkpt lat="59.0992158372" lon="30.0300845504"><ele>79.93</ele><time>2026-04-22T09:35:20Z</time></trkpt><trkpt lat="59.0991373826" lon="30.0298603345"><ele>79.93</ele><time>2026-04-22T09:35:32Z</time></trkpt><trkpt lat="59.0990560781" lon="30.0297341030"><ele>82.81</ele><time>2026-04-22T09:35:43Z</time></trkpt><trkpt lat="59.0990198683" lon="30.0296862423"><ele>82.81</ele><time>2026-04-22T09:35:48Z</time></trkpt><trkpt lat="59.0989114065" lon="30.0295240525"><ele>81.37</ele><time>2026-04-22T09:35:58Z</time></trkpt><trkpt lat="59.0988638811" lon="30.0294758566"><ele>81.37</ele><time>2026-04-22T09:36:01Z</time></trkpt><trkpt lat="59.0988162719" lon="30.0295479409"><ele>81.37</ele><time>2026-04-22T09:36:05Z</time></trkpt><trkpt lat="59.0987011883" lon="30.0297914352"><ele>81.37</ele><time>2026-04-22T09:36:19Z</time></trkpt><trkpt lat="59.0986829158" lon="30.0298167486"><ele>81.37</ele><time>2026-04-22T09:36:22Z</time></trkpt><trkpt lat="59.0985881165" lon="30.0299311616"><ele>81.37</ele><time>2026-04-22T09:36:32Z</time></trkpt><trkpt lat="59.0984953288" lon="30.0300734863"><ele>81.37</ele><time>2026-04-22T09:36:41Z</time></trkpt><trkpt lat="59.0984467976" lon="30.0301125459"><ele>81.37</ele><time>2026-04-22T09:36:45Z</time></trkpt><trkpt lat="59.0982779022" lon="30.0302580558"><ele>81.37</ele><time>2026-04-22T09:36:59Z</time></trkpt><trkpt lat="59.0982530080" lon="30.0302806031"><ele>81.37</ele><time>2026-04-22T09:37:01Z</time></trkpt><trkpt lat="59.0981858689" lon="30.0303214230"><ele>81.37</ele><time>2026-04-22T09:37:07Z</time></trkpt><trkpt lat="59.0981613938" lon="30.0303224288"><ele>81.37</ele><time>2026-04-22T09:37:09Z</time></trkpt><trkpt lat="59.0980487410" lon="30.0303388573"><ele>80.89</ele><time>2026-04-22T09:37:19Z</time></trkpt><trkpt lat="59.0979841165" lon="30.0303567108"><ele>80.89</ele><time>2026-04-22T09:37:25Z</time></trkpt><trkpt lat="59.0978396963" lon="30.0303763244"><ele>81.37</ele><time>2026-04-22T09:37:37Z</time></trkpt><trkpt lat="59.0976993833" lon="30.0304171443"><ele>80.89</ele><time>2026-04-22T09:37:48Z</time></trkpt><trkpt lat="59.0976150613" lon="30.0305448007"><ele>80.89</ele><time>2026-04-22T09:37:55Z</time></trkpt><trkpt lat="59.0974869020" lon="30.0306595489"><ele>80.89</ele><time>2026-04-22T09:38:05Z</time></trkpt><trkpt lat="59.0973180905" lon="30.0307591259"><ele>80.89</ele><time>2026-04-22T09:38:16Z</time></trkpt><trkpt lat="59.0971627738" lon="30.0309270993"><ele>80.41</ele><time>2026-04-22T09:38:28Z</time></trkpt><trkpt lat="59.0970268194" lon="30.0310498103"><ele>80.41</ele><time>2026-04-22T09:38:40Z</time></trkpt><trkpt lat="59.0968672279" lon="30.0313643832"><ele>81.37</ele><time>2026-04-22T09:38:55Z</time></trkpt><trkpt lat="59.0968618635" lon="30.0313788000"><ele>81.37</ele><time>2026-04-22T09:39:00Z</time></trkpt><trkpt lat="59.0968596004" lon="30.0313960668"><ele>81.37</ele><time>2026-04-22T09:39:02Z</time></trkpt><trkpt lat="59.0968366340" lon="30.0315246452"><ele>81.37</ele><time>2026-04-22T09:39:09Z</time></trkpt><trkpt lat="59.0967614483" lon="30.0317799579"><ele>81.37</ele><time>2026-04-22T09:39:22Z</time></trkpt><trkpt lat="59.0966488793" lon="30.0319102965"><ele>81.37</ele><time>2026-04-22T09:39:31Z</time></trkpt><trkpt lat="59.0965496376" lon="30.0319893379"><ele>81.37</ele><time>2026-04-22T09:39:36Z</time></trkpt><trkpt lat="59.0963177942" lon="30.0321511086"><ele>81.37</ele><time>2026-04-22T09:39:51Z</time></trkpt><trkpt lat="59.0962799918" lon="30.0321705546"><ele>80.41</ele><time>2026-04-22T09:39:54Z</time></trkpt><trkpt lat="59.0961289499" lon="30.0322775077"><ele>79.93</ele><time>2026-04-22T09:40:06Z</time></trkpt><trkpt lat="59.0960779879" lon="30.0323006418"><ele>79.93</ele><time>2026-04-22T09:40:09Z</time></trkpt><trkpt lat="59.0959411953" lon="30.0323430542"><ele>79.93</ele><time>2026-04-22T09:40:18Z</time></trkpt><trkpt lat="59.0958985314" lon="30.0323371030"><ele>79.93</ele><time>2026-04-22T09:40:22Z</time></trkpt><trkpt lat="59.0957494173" lon="30.0323925074"><ele>81.37</ele><time>2026-04-22T09:40:34Z</time></trkpt><trkpt lat="59.0957362577" lon="30.0324008893"><ele>81.37</ele><time>2026-04-22T09:40:35Z</time></trkpt><trkpt lat="59.0956753213" lon="30.0323775038"><ele>81.37</ele><time>2026-04-22T09:40:40Z</time></trkpt><trkpt lat="59.0955915023" lon="30.0324719679"><ele>81.37</ele><time>2026-04-22T09:40:49Z</time></trkpt><trkpt lat="59.0955086052" lon="30.0324620772"><ele>81.37</ele><time>2026-04-22T09:40:56Z</time></trkpt><trkpt lat="59.0953357704" lon="30.0324248616"><ele>81.37</ele><time>2026-04-22T09:41:07Z</time></trkpt><trkpt lat="59.0951339342" lon="30.0324581377"><ele>81.37</ele><time>2026-04-22T09:41:21Z</time></trkpt><trkpt lat="59.0950021707" lon="30.0325029809"><ele>81.37</ele><time>2026-04-22T09:41:34Z</time></trkpt><trkpt lat="59.0948934574" lon="30.0325691141"><ele>80.89</ele><time>2026-04-22T09:41:46Z</time></trkpt><trkpt lat="59.0948580857" lon="30.0325421244"><ele>80.89</ele><time>2026-04-22T09:41:51Z</time></trkpt><trkpt lat="59.0948012564" lon="30.0325111952"><ele>80.89</ele><time>2026-04-22T09:41:56Z</time></trkpt><trkpt lat="59.0946692415" lon="30.0323682837"><ele>80.89</ele><time>2026-04-22T09:42:07Z</time></trkpt><trkpt lat="59.0946304332" lon="30.0323359296"><ele>80.89</ele><time>2026-04-22T09:42:10Z</time></trkpt><trkpt lat="59.0945322812" lon="30.0322721433"><ele>80.89</ele><time>2026-04-22T09:42:18Z</time></trkpt><trkpt lat="59.0944129229" lon="30.0322876498"><ele>80.89</ele><time>2026-04-22T09:42:27Z</time></trkpt><trkpt lat="59.0943180397" lon="30.0322795194"><ele>80.89</ele><time>2026-04-22T09:42:39Z</time></trkpt><trkpt lat="59.0942380764" lon="30.0322965346"><ele>80.89</ele><time>2026-04-22T09:42:50Z</time></trkpt><trkpt lat="59.0942432731" lon="30.0322941039"><ele>80.89</ele><time>2026-04-22T09:42:56Z</time></trkpt><trkpt lat="59.0941068996" lon="30.0323793478"><ele>81.85</ele><time>2026-04-22T09:43:08Z</time></trkpt><trkpt lat="59.0939510800" lon="30.0324614905"><ele>81.85</ele><time>2026-04-22T09:43:20Z</time></trkpt><trkpt lat="59.0938179754" lon="30.0325756520"><ele>81.85</ele><time>2026-04-22T09:43:32Z</time></trkpt><trkpt lat="59.0937984455" lon="30.0325826090"><ele>82.33</ele><time>2026-04-22T09:43:34Z</time></trkpt><trkpt lat="59.0937452205" lon="30.0325792562"><ele>81.85</ele><time>2026-04-22T09:43:38Z</time></trkpt><trkpt lat="59.0937197395" lon="30.0325667672"><ele>81.85</ele><time>2026-04-22T09:43:41Z</time></trkpt><trkpt lat="59.0936759859" lon="30.0325752329"><ele>81.85</ele><time>2026-04-22T09:43:45Z</time></trkpt><trkpt lat="59.0935360920" lon="30.0325746462"><ele>81.85</ele><time>2026-04-22T09:43:58Z</time></trkpt><trkpt lat="59.0934842080" lon="30.0325731374"><ele>81.85</ele><time>2026-04-22T09:44:01Z</time></trkpt><trkpt lat="59.0934040770" lon="30.0325833634"><ele>81.85</ele><time>2026-04-22T09:44:14Z</time></trkpt><trkpt lat="59.0932892449" lon="30.0326025579"><ele>81.85</ele><time>2026-04-22T09:44:26Z</time></trkpt><trkpt lat="59.0932768397" lon="30.0326073356"><ele>81.85</ele><time>2026-04-22T09:44:27Z</time></trkpt><trkpt lat="59.0931189246" lon="30.0327205751"><ele>81.85</ele><time>2026-04-22T09:44:39Z</time></trkpt><trkpt lat="59.0929471795" lon="30.0327707827"><ele>81.85</ele><time>2026-04-22T09:44:51Z</time></trkpt><trkpt lat="59.0928890929" lon="30.0328017958"><ele>81.85</ele><time>2026-04-22T09:44:56Z</time></trkpt><trkpt lat="59.0928458422" lon="30.0328327250"><ele>80.89</ele><time>2026-04-22T09:45:01Z</time></trkpt><trkpt lat="59.0927938744" lon="30.0328965951"><ele>80.89</ele><time>2026-04-22T09:45:06Z</time></trkpt><trkpt lat="59.0926659666" lon="30.0328918174"><ele>80.89</ele><time>2026-04-22T09:45:18Z</time></trkpt><trkpt lat="59.0926222131" lon="30.0328933261"><ele>80.89</ele><time>2026-04-22T09:45:22Z</time></trkpt><trkpt lat="59.0925823990" lon="30.0328909792"><ele>80.89</ele><time>2026-04-22T09:45:25Z</time></trkpt><trkpt lat="59.0925171878" lon="30.0329302903"><ele>80.89</ele><time>2026-04-22T09:45:39Z</time></trkpt><trkpt lat="59.0924916230" lon="30.0329464674"><ele>80.89</ele><time>2026-04-22T09:45:55Z</time></trkpt><trkpt lat="59.0925054532" lon="30.0329369120"><ele>80.89</ele><time>2026-04-22T09:46:19Z</time></trkpt><trkpt lat="59.0924959816" lon="30.0329238363"><ele>80.89</ele><time>2026-04-22T09:46:41Z</time></trkpt><trkpt lat="59.0924931318" lon="30.0329369120"><ele>80.89</ele><time>2026-04-22T09:47:08Z</time></trkpt><trkpt lat="59.0924794693" lon="30.0329312962"><ele>80.89</ele><time>2026-04-22T09:47:25Z</time></trkpt><trkpt lat="59.0924378112" lon="30.0329364091"><ele>82.33</ele><time>2026-04-22T09:47:28Z</time></trkpt><trkpt lat="59.0923119150" lon="30.0329911429"><ele>82.33</ele><time>2026-04-22T09:47:39Z</time></trkpt><trkpt lat="59.0923007671" lon="30.0329955015"><ele>82.33</ele><time>2026-04-22T09:47:40Z</time></trkpt><trkpt lat="59.0922551695" lon="30.0330203958"><ele>82.33</ele><time>2026-04-22T09:47:45Z</time></trkpt><trkpt lat="59.0921770502" lon="30.0331212301"><ele>81.37</ele><time>2026-04-22T09:47:57Z</time></trkpt><trkpt lat="59.0921656508" lon="30.0331295282"><ele>81.37</ele><time>2026-04-22T09:48:13Z</time></trkpt><trkpt lat="59.0921661537" lon="30.0331141055"><ele>81.37</ele><time>2026-04-22T09:48:35Z</time></trkpt><trkpt lat="59.0921674110" lon="30.0331190508"><ele>81.37</ele><time>2026-04-22T09:48:58Z</time></trkpt><trkpt lat="59.0921594482" lon="30.0331353955"><ele>80.41</ele><time>2026-04-22T09:49:19Z</time></trkpt><trkpt lat="59.0921239089" lon="30.0332017802"><ele>80.41</ele><time>2026-04-22T09:49:31Z</time></trkpt><trkpt lat="59.0921211429" lon="30.0331942365"><ele>80.41</ele><time>2026-04-22T09:49:49Z</time></trkpt><trkpt lat="59.0921073966" lon="30.0332734454"><ele>81.37</ele><time>2026-04-22T09:50:01Z</time></trkpt><trkpt lat="59.0921024512" lon="30.0333263353"><ele>81.37</ele><time>2026-04-22T09:50:04Z</time></trkpt><trkpt lat="59.0920775570" lon="30.0333609525"><ele>81.37</ele><time>2026-04-22T09:50:16Z</time></trkpt><trkpt lat="59.0921249148" lon="30.0333260000"><ele>80.89</ele><time>2026-04-22T09:50:43Z</time></trkpt><trkpt lat="59.0921332967" lon="30.0333315320"><ele>80.89</ele><time>2026-04-22T09:51:03Z</time></trkpt><trkpt lat="59.0921180416" lon="30.0333235692"><ele>80.89</ele><time>2026-04-22T09:51:26Z</time></trkpt><trkpt lat="59.0921258368" lon="30.0333421770"><ele>80.89</ele><time>2026-04-22T09:51:52Z</time></trkpt><trkpt lat="59.0921252500" lon="30.0333234854"><ele>80.89</ele><time>2026-04-22T09:52:19Z</time></trkpt><trkpt lat="59.0921260882" lon="30.0333090685"><ele>80.89</ele><time>2026-04-22T09:52:40Z</time></trkpt><trkpt lat="59.0921221487" lon="30.0333064701"><ele>81.37</ele><time>2026-04-22T09:53:03Z</time></trkpt><trkpt lat="59.0921060555" lon="30.0333019439"><ele>81.37</ele><time>2026-04-22T09:53:25Z</time></trkpt><trkpt lat="59.0920903813" lon="30.0332962442"><ele>80.89</ele><time>2026-04-22T09:53:52Z</time></trkpt><trkpt lat="59.0920746233" lon="30.0332607049"><ele>81.85</ele><time>2026-04-22T09:54:05Z</time></trkpt><trkpt lat="59.0920780599" lon="30.0332694221"><ele>81.85</ele><time>2026-04-22T09:54:24Z</time></trkpt><trkpt lat="59.0920792334" lon="30.0332734454"><ele>81.85</ele><time>2026-04-22T09:54:42Z</time></trkpt><trkpt lat="59.0920783114" lon="30.0332713500"><ele>81.85</ele><time>2026-04-22T09:55:12Z</time></trkpt><trkpt lat="59.0920803230" lon="30.0332773011"><ele>82.81</ele><time>2026-04-22T09:55:32Z</time></trkpt><trkpt lat="59.0920883697" lon="30.0332803186"><ele>82.81</ele><time>2026-04-22T09:55:51Z</time></trkpt><trkpt lat="59.0920730308" lon="30.0333002675"><ele>83.77</ele><time>2026-04-22T09:56:19Z</time></trkpt><trkpt lat="59.0920747072" lon="30.0333087333"><ele>80.89</ele><time>2026-04-22T09:56:33Z</time></trkpt><trkpt lat="59.0920744557" lon="30.0333112478"><ele>83.77</ele><time>2026-04-22T09:56:45Z</time></trkpt><trkpt lat="59.0920743719" lon="30.0333104096"><ele>84.73</ele><time>2026-04-22T09:56:47Z</time></trkpt><trkpt lat="59.0920713544" lon="30.0333089009"><ele>83.77</ele><time>2026-04-22T09:57:10Z</time></trkpt><trkpt lat="59.0920781437" lon="30.0332984235"><ele>83.77</ele><time>2026-04-22T09:57:24Z</time></trkpt><trkpt lat="59.0920714382" lon="30.0332881976"><ele>83.77</ele><time>2026-04-22T09:57:46Z</time></trkpt><trkpt lat="59.0920711029" lon="30.0332999323"><ele>83.77</ele><time>2026-04-22T09:58:14Z</time></trkpt><trkpt lat="59.0920682531" lon="30.0333208032"><ele>83.77</ele><time>2026-04-22T09:58:31Z</time></trkpt><trkpt lat="59.0920737013" lon="30.0333162770"><ele>83.29</ele><time>2026-04-22T09:58:50Z</time></trkpt><trkpt lat="59.0920887049" lon="30.0333000161"><ele>82.81</ele><time>2026-04-22T09:59:20Z</time></trkpt><trkpt lat="59.0920929797" lon="30.0333063863"><ele>83.77</ele><time>2026-04-22T09:59:44Z</time></trkpt><trkpt lat="59.0921031218" lon="30.0332737807"><ele>83.77</ele><time>2026-04-22T09:59:54Z</time></trkpt><trkpt lat="59.0922332089" lon="30.0331227388"><ele>83.77</ele><time>2026-04-22T10:00:07Z</time></trkpt><trkpt lat="59.0922388248" lon="30.0330701005"><ele>83.77</ele><time>2026-04-22T10:00:22Z</time></trkpt><trkpt lat="59.0922337957" lon="30.0330566894"><ele>85.21</ele><time>2026-04-22T10:00:38Z</time></trkpt><trkpt lat="59.0922276769" lon="30.0330309570"><ele>84.25</ele><time>2026-04-22T10:01:07Z</time></trkpt><trkpt lat="59.0922270902" lon="30.0330338906"><ele>84.25</ele><time>2026-04-22T10:01:13Z</time></trkpt><trkpt lat="59.0921733622" lon="30.0328565296"><ele>84.25</ele><time>2026-04-22T10:01:25Z</time></trkpt><trkpt lat="59.0920975897" lon="30.0328312162"><ele>84.25</ele><time>2026-04-22T10:01:36Z</time></trkpt><trkpt lat="59.0919921454" lon="30.0326926634"><ele>84.25</ele><time>2026-04-22T10:01:47Z</time></trkpt><trkpt lat="59.0919613838" lon="30.0326619018"><ele>84.25</ele><time>2026-04-22T10:01:50Z</time></trkpt><trkpt lat="59.0918945801" lon="30.0325886440"><ele>83.29</ele><time>2026-04-22T10:02:01Z</time></trkpt><trkpt lat="59.0918349847" lon="30.0324486662"><ele>83.29</ele><time>2026-04-22T10:02:10Z</time></trkpt><trkpt lat="59.0917512495" lon="30.0323050842"><ele>83.29</ele><time>2026-04-22T10:02:19Z</time></trkpt><trkpt lat="59.0917236730" lon="30.0321280584"><ele>82.81</ele><time>2026-04-22T10:02:30Z</time></trkpt><trkpt lat="59.0916861221" lon="30.0319790281"><ele>84.25</ele><time>2026-04-22T10:02:39Z</time></trkpt><trkpt lat="59.0916075837" lon="30.0318704825"><ele>84.25</ele><time>2026-04-22T10:02:49Z</time></trkpt><trkpt lat="59.0915790852" lon="30.0317108911"><ele>83.77</ele><time>2026-04-22T10:03:01Z</time></trkpt><trkpt lat="59.0915742237" lon="30.0316749327"><ele>83.77</ele><time>2026-04-22T10:03:03Z</time></trkpt><trkpt lat="59.0914955176" lon="30.0315530598"><ele>83.77</ele><time>2026-04-22T10:03:15Z</time></trkpt><trkpt lat="59.0914173145" lon="30.0314342044"><ele>84.25</ele><time>2026-04-22T10:03:29Z</time></trkpt><trkpt lat="59.0914087649" lon="30.0313034467"><ele>84.73</ele><time>2026-04-22T10:03:38Z</time></trkpt><trkpt lat="59.0913148038" lon="30.0311140995"><ele>84.73</ele><time>2026-04-22T10:03:49Z</time></trkpt><trkpt lat="59.0912668593" lon="30.0309878681"><ele>84.73</ele><time>2026-04-22T10:03:58Z</time></trkpt><trkpt lat="59.0912317391" lon="30.0308672525"><ele>83.77</ele><time>2026-04-22T10:04:05Z</time></trkpt><trkpt lat="59.0912171546" lon="30.0307622273"><ele>83.29</ele><time>2026-04-22T10:04:10Z</time></trkpt><trkpt lat="59.0911866445" lon="30.0305950921"><ele>82.81</ele><time>2026-04-22T10:04:18Z</time></trkpt><trkpt lat="59.0911770053" lon="30.0304722134"><ele>82.81</ele><time>2026-04-22T10:04:24Z</time></trkpt><trkpt lat="59.0911322460" lon="30.0304158032"><ele>82.81</ele><time>2026-04-22T10:04:28Z</time></trkpt><trkpt lat="59.0910756681" lon="30.0302805193"><ele>83.77</ele><time>2026-04-22T10:04:40Z</time></trkpt><trkpt lat="59.0910426434" lon="30.0302469078"><ele>83.77</ele><time>2026-04-22T10:04:46Z</time></trkpt><trkpt lat="59.0910056792" lon="30.0301547907"><ele>83.77</ele><time>2026-04-22T10:04:57Z</time></trkpt><trkpt lat="59.0909602493" lon="30.0301148929"><ele>83.29</ele><time>2026-04-22T10:05:12Z</time></trkpt><trkpt lat="59.0909209382" lon="30.0300846342"><ele>83.29</ele><time>2026-04-22T10:05:24Z</time></trkpt><trkpt lat="59.0909169987" lon="30.0300568901"><ele>83.77</ele><time>2026-04-22T10:05:40Z</time></trkpt><trkpt lat="59.0909082815" lon="30.0300435629"><ele>83.77</ele><time>2026-04-22T10:06:06Z</time></trkpt><trkpt lat="59.0909074433" lon="30.0300426409"><ele>83.77</ele><time>2026-04-22T10:06:11Z</time></trkpt><trkpt lat="59.0909039229" lon="30.0299677905"><ele>83.77</ele><time>2026-04-22T10:06:20Z</time></trkpt><trkpt lat="59.0908307489" lon="30.0298313331"><ele>83.77</ele><time>2026-04-22T10:06:33Z</time></trkpt><trkpt lat="59.0908279829" lon="30.0298159942"><ele>83.77</ele><time>2026-04-22T10:06:34Z</time></trkpt><trkpt lat="59.0907345247" lon="30.0296628568"><ele>83.77</ele><time>2026-04-22T10:06:46Z</time></trkpt><trkpt lat="59.0906934533" lon="30.0295864977"><ele>83.29</ele><time>2026-04-22T10:06:57Z</time></trkpt><trkpt lat="59.0905845724" lon="30.0294434186"><ele>83.29</ele><time>2026-04-22T10:07:08Z</time></trkpt><trkpt lat="59.0905367117" lon="30.0293137506"><ele>83.29</ele><time>2026-04-22T10:07:17Z</time></trkpt><trkpt lat="59.0905443393" lon="30.0292306021"><ele>83.29</ele><time>2026-04-22T10:07:27Z</time></trkpt><trkpt lat="59.0905367117" lon="30.0291705038"><ele>83.29</ele><time>2026-04-22T10:07:35Z</time></trkpt><trkpt lat="59.0904811397" lon="30.0291098189"><ele>83.29</ele><time>2026-04-22T10:07:44Z</time></trkpt><trkpt lat="59.0904771164" lon="30.0291043706"><ele>83.29</ele><time>2026-04-22T10:07:45Z</time></trkpt><trkpt lat="59.0903402399" lon="30.0290111639"><ele>83.29</ele><time>2026-04-22T10:07:57Z</time></trkpt><trkpt lat="59.0903233923" lon="30.0289808214"><ele>82.81</ele><time>2026-04-22T10:08:12Z</time></trkpt><trkpt lat="59.0903186146" lon="30.0289945677"><ele>82.81</ele><time>2026-04-22T10:08:29Z</time></trkpt><trkpt lat="59.0903000068" lon="30.0289884489"><ele>82.81</ele><time>2026-04-22T10:08:32Z</time></trkpt><trkpt lat="59.0902499668" lon="30.0289571844"><ele>83.77</ele><time>2026-04-22T10:08:45Z</time></trkpt><trkpt lat="59.0902537387" lon="30.0289444439"><ele>83.29</ele><time>2026-04-22T10:09:01Z</time></trkpt><trkpt lat="59.0902636293" lon="30.0290086493"><ele>83.29</ele><time>2026-04-22T10:09:11Z</time></trkpt><trkpt lat="59.0902544931" lon="30.0290788058"><ele>83.29</ele><time>2026-04-22T10:09:14Z</time></trkpt><trkpt lat="59.0901437681" lon="30.0291871838"><ele>83.29</ele><time>2026-04-22T10:09:26Z</time></trkpt><trkpt lat="59.0901388228" lon="30.0291717611"><ele>83.29</ele><time>2026-04-22T10:09:27Z</time></trkpt><trkpt lat="59.0901281778" lon="30.0291357189"><ele>83.29</ele><time>2026-04-22T10:09:29Z</time></trkpt><trkpt lat="59.0901063848" lon="30.0290971622"><ele>83.29</ele><time>2026-04-22T10:09:32Z</time></trkpt><trkpt lat="59.0900758747" lon="30.0290783867"><ele>83.77</ele><time>2026-04-22T10:09:35Z</time></trkpt><trkpt lat="59.0900374018" lon="30.0290311128"><ele>83.29</ele><time>2026-04-22T10:09:49Z</time></trkpt><trkpt lat="59.0899926424" lon="30.0289852638"><ele>83.29</ele><time>2026-04-22T10:10:02Z</time></trkpt><trkpt lat="59.0899735317" lon="30.0289711822"><ele>83.29</ele><time>2026-04-22T10:10:04Z</time></trkpt><trkpt lat="59.0899114218" lon="30.0287799910"><ele>83.29</ele><time>2026-04-22T10:10:15Z</time></trkpt><trkpt lat="59.0899041295" lon="30.0287685916"><ele>83.29</ele><time>2026-04-22T10:10:16Z</time></trkpt><trkpt lat="59.0898657404" lon="30.0287100021"><ele>83.29</ele><time>2026-04-22T10:10:22Z</time></trkpt><trkpt lat="59.0898488928" lon="30.0286008697"><ele>82.33</ele><time>2026-04-22T10:10:31Z</time></trkpt><trkpt lat="59.0898469649" lon="30.0284986105"><ele>81.85</ele><time>2026-04-22T10:10:43Z</time></trkpt><trkpt lat="59.0898384154" lon="30.0284793321"><ele>81.85</ele><time>2026-04-22T10:10:44Z</time></trkpt><trkpt lat="59.0897586197" lon="30.0283767376"><ele>81.85</ele><time>2026-04-22T10:10:50Z</time></trkpt><trkpt lat="59.0897198953" lon="30.0283365883"><ele>81.85</ele><time>2026-04-22T10:10:54Z</time></trkpt><trkpt lat="59.0896982700" lon="30.0281980354"><ele>81.85</ele><time>2026-04-22T10:11:00Z</time></trkpt><trkpt lat="59.0896434523" lon="30.0281182397"><ele>81.85</ele><time>2026-04-22T10:11:12Z</time></trkpt><trkpt lat="59.0896235034" lon="30.0280748215"><ele>83.29</ele><time>2026-04-22T10:11:25Z</time></trkpt><trkpt lat="59.0896209888" lon="30.0280607399"><ele>81.37</ele><time>2026-04-22T10:11:41Z</time></trkpt><trkpt lat="59.0895940829" lon="30.0279085245"><ele>81.37</ele><time>2026-04-22T10:11:50Z</time></trkpt><trkpt lat="59.0895532630" lon="30.0278159045"><ele>81.37</ele><time>2026-04-22T10:11:54Z</time></trkpt><trkpt lat="59.0894553624" lon="30.0276797824"><ele>82.81</ele><time>2026-04-22T10:12:01Z</time></trkpt><trkpt lat="59.0894346591" lon="30.0276454166"><ele>83.29</ele><time>2026-04-22T10:12:07Z</time></trkpt><trkpt lat="59.0894530993" lon="30.0275943708"><ele>83.29</ele><time>2026-04-22T10:12:11Z</time></trkpt><trkpt lat="59.0894676000" lon="30.0275689736"><ele>83.29</ele><time>2026-04-22T10:12:14Z</time></trkpt><trkpt lat="59.0894649178" lon="30.0273098890"><ele>83.29</ele><time>2026-04-22T10:12:25Z</time></trkpt><trkpt lat="59.0894054063" lon="30.0270054583"><ele>83.29</ele><time>2026-04-22T10:12:40Z</time></trkpt><trkpt lat="59.0893562883" lon="30.0267962459"><ele>82.81</ele><time>2026-04-22T10:12:52Z</time></trkpt><trkpt lat="59.0893277898" lon="30.0266438629"><ele>82.81</ele><time>2026-04-22T10:13:05Z</time></trkpt><trkpt lat="59.0893194079" lon="30.0266345590"><ele>82.81</ele><time>2026-04-22T10:13:09Z</time></trkpt><trkpt lat="59.0892956033" lon="30.0264777336"><ele>82.81</ele><time>2026-04-22T10:13:21Z</time></trkpt><trkpt lat="59.0892298054" lon="30.0262828544"><ele>82.81</ele><time>2026-04-22T10:13:34Z</time></trkpt><trkpt lat="59.0891347546" lon="30.0261501689"><ele>82.81</ele><time>2026-04-22T10:13:46Z</time></trkpt><trkpt lat="59.0890527796" lon="30.0259272940"><ele>82.81</ele><time>2026-04-22T10:13:58Z</time></trkpt><trkpt lat="59.0890223533" lon="30.0258133840"><ele>81.85</ele><time>2026-04-22T10:14:07Z</time></trkpt><trkpt lat="59.0890166536" lon="30.0257884897"><ele>81.85</ele><time>2026-04-22T10:14:08Z</time></trkpt><trkpt lat="59.0889423899" lon="30.0255796965"><ele>81.85</ele><time>2026-04-22T10:14:18Z</time></trkpt><trkpt lat="59.0888897516" lon="30.0254895072"><ele>81.85</ele><time>2026-04-22T10:14:23Z</time></trkpt><trkpt lat="59.0888490994" lon="30.0254480168"><ele>81.85</ele><time>2026-04-22T10:14:36Z</time></trkpt><trkpt lat="59.0888502728" lon="30.0254304148"><ele>81.85</ele><time>2026-04-22T10:14:50Z</time></trkpt><trkpt lat="59.0888264682" lon="30.0252848212"><ele>81.85</ele><time>2026-04-22T10:15:02Z</time></trkpt><trkpt lat="59.0887909289" lon="30.0251696538"><ele>81.85</ele><time>2026-04-22T10:15:07Z</time></trkpt><trkpt lat="59.0887474269" lon="30.0249673147"><ele>81.85</ele><time>2026-04-22T10:15:19Z</time></trkpt><trkpt lat="59.0887269750" lon="30.0249058753"><ele>81.85</ele><time>2026-04-22T10:15:33Z</time></trkpt><trkpt lat="59.0887162462" lon="30.0248476211"><ele>81.85</ele><time>2026-04-22T10:15:50Z</time></trkpt><trkpt lat="59.0886973031" lon="30.0247948151"><ele>81.85</ele><time>2026-04-22T10:16:18Z</time></trkpt><trkpt lat="59.0886988118" lon="30.0247611199"><ele>81.85</ele><time>2026-04-22T10:16:35Z</time></trkpt><trkpt lat="59.0888170805" lon="30.0247772131"><ele>81.85</ele><time>2026-04-22T10:16:49Z</time></trkpt><trkpt lat="59.0888144821" lon="30.0248066336"><ele>81.85</ele><time>2026-04-22T10:17:08Z</time></trkpt><trkpt lat="59.0888475068" lon="30.0247894507"><ele>81.85</ele><time>2026-04-22T10:17:28Z</time></trkpt><trkpt lat="59.0888688806" lon="30.0247897860"><ele>81.85</ele><time>2026-04-22T10:17:30Z</time></trkpt><trkpt lat="59.0889837127" lon="30.0248218887"><ele>81.85</ele><time>2026-04-22T10:17:40Z</time></trkpt><trkpt lat="59.0890943538" lon="30.0248765387"><ele>81.37</ele><time>2026-04-22T10:17:54Z</time></trkpt><trkpt lat="59.0892009716" lon="30.0249085575"><ele>81.37</ele><time>2026-04-22T10:18:07Z</time></trkpt><trkpt lat="59.0892800130" lon="30.0249667279"><ele>81.37</ele><time>2026-04-22T10:18:20Z</time></trkpt><trkpt lat="59.0894011315" lon="30.0250665564"><ele>81.37</ele><time>2026-04-22T10:18:32Z</time></trkpt><trkpt lat="59.0895200707" lon="30.0252459291"><ele>81.37</ele><time>2026-04-22T10:18:43Z</time></trkpt><trkpt lat="59.0895882156" lon="30.0253658742"><ele>81.37</ele><time>2026-04-22T10:18:54Z</time></trkpt><trkpt lat="59.0896533430" lon="30.0254924409"><ele>81.37</ele><time>2026-04-22T10:19:08Z</time></trkpt><trkpt lat="59.0896772314" lon="30.0255277287"><ele>81.37</ele><time>2026-04-22T10:19:11Z</time></trkpt><trkpt lat="59.0897598770" lon="30.0256256294"><ele>81.37</ele><time>2026-04-22T10:19:22Z</time></trkpt><trkpt lat="59.0897842683" lon="30.0256858952"><ele>81.37</ele><time>2026-04-22T10:19:27Z</time></trkpt><trkpt lat="59.0898374934" lon="30.0257815327"><ele>81.37</ele><time>2026-04-22T10:19:32Z</time></trkpt><trkpt lat="59.0898795705" lon="30.0258607417"><ele>81.37</ele><time>2026-04-22T10:19:35Z</time></trkpt><trkpt lat="59.0899382439" lon="30.0259282161"><ele>81.37</ele><time>2026-04-22T10:19:41Z</time></trkpt><trkpt lat="59.0900122561" lon="30.0260783359"><ele>81.37</ele><time>2026-04-22T10:19:53Z</time></trkpt><trkpt lat="59.0900183748" lon="30.0261686929"><ele>81.37</ele><time>2026-04-22T10:19:57Z</time></trkpt><trkpt lat="59.0900380723" lon="30.0263094250"><ele>82.81</ele><time>2026-04-22T10:20:04Z</time></trkpt><trkpt lat="59.0900809038" lon="30.0264245924"><ele>82.81</ele><time>2026-04-22T10:20:15Z</time></trkpt><trkpt lat="59.0901873540" lon="30.0265205652"><ele>82.81</ele><time>2026-04-22T10:20:28Z</time></trkpt><trkpt lat="59.0902182832" lon="30.0266467128"><ele>82.33</ele><time>2026-04-22T10:20:36Z</time></trkpt><trkpt lat="59.0902036987" lon="30.0267640594"><ele>82.33</ele><time>2026-04-22T10:20:47Z</time></trkpt><trkpt lat="59.0902058780" lon="30.0267881155"><ele>82.33</ele><time>2026-04-22T10:20:51Z</time></trkpt><trkpt lat="59.0902070515" lon="30.0268935598"><ele>82.33</ele><time>2026-04-22T10:21:01Z</time></trkpt><trkpt lat="59.0902552474" lon="30.0269646384"><ele>81.37</ele><time>2026-04-22T10:21:15Z</time></trkpt><trkpt lat="59.0903378092" lon="30.0271556620"><ele>80.89</ele><time>2026-04-22T10:21:28Z</time></trkpt><trkpt lat="59.0903695766" lon="30.0272941310"><ele>80.89</ele><time>2026-04-22T10:21:39Z</time></trkpt><trkpt lat="59.0904321056" lon="30.0273893494"><ele>80.89</ele><time>2026-04-22T10:21:53Z</time></trkpt><trkpt lat="59.0904938802" lon="30.0275600888"><ele>80.89</ele><time>2026-04-22T10:22:05Z</time></trkpt><trkpt lat="59.0905321855" lon="30.0276612584"><ele>80.89</ele><time>2026-04-22T10:22:14Z</time></trkpt><trkpt lat="59.0905731730" lon="30.0278188381"><ele>80.89</ele><time>2026-04-22T10:22:24Z</time></trkpt><trkpt lat="59.0905694012" lon="30.0278497674"><ele>80.89</ele><time>2026-04-22T10:22:34Z</time></trkpt><trkpt lat="59.0906357020" lon="30.0279247016"><ele>80.89</ele><time>2026-04-22T10:22:45Z</time></trkpt><trkpt lat="59.0906697325" lon="30.0279591512"><ele>81.85</ele><time>2026-04-22T10:22:55Z</time></trkpt><trkpt lat="59.0907595865" lon="30.0280437246"><ele>81.37</ele><time>2026-04-22T10:23:07Z</time></trkpt><trkpt lat="59.0907925274" lon="30.0281235203"><ele>81.37</ele><time>2026-04-22T10:23:17Z</time></trkpt><trkpt lat="59.0908118058" lon="30.0281885639"><ele>81.37</ele><time>2026-04-22T10:23:27Z</time></trkpt><trkpt lat="59.0908713173" lon="30.0282675214"><ele>81.37</ele><time>2026-04-22T10:23:35Z</time></trkpt><trkpt lat="59.0909782704" lon="30.0285185594"><ele>81.85</ele><time>2026-04-22T10:23:48Z</time></trkpt><trkpt lat="59.0910147317" lon="30.0288331322"><ele>81.85</ele><time>2026-04-22T10:24:03Z</time></trkpt><trkpt lat="59.0910174977" lon="30.0288628880"><ele>81.85</ele><time>2026-04-22T10:24:04Z</time></trkpt><trkpt lat="59.0910253767" lon="30.0289510656"><ele>81.85</ele><time>2026-04-22T10:24:07Z</time></trkpt><trkpt lat="59.0910477564" lon="30.0290264189"><ele>81.85</ele><time>2026-04-22T10:24:12Z</time></trkpt><trkpt lat="59.0910303220" lon="30.0291867647"><ele>81.37</ele><time>2026-04-22T10:24:20Z</time></trkpt><trkpt lat="59.0910100378" lon="30.0292112399"><ele>81.37</ele><time>2026-04-22T10:24:22Z</time></trkpt><trkpt lat="59.0909987222" lon="30.0293214619"><ele>81.37</ele><time>2026-04-22T10:24:27Z</time></trkpt><trkpt lat="59.0911268815" lon="30.0295341108"><ele>81.37</ele><time>2026-04-22T10:24:42Z</time></trkpt><trkpt lat="59.0911661927" lon="30.0295735896"><ele>81.85</ele><time>2026-04-22T10:24:51Z</time></trkpt><trkpt lat="59.0912216809" lon="30.0295036007"><ele>82.33</ele><time>2026-04-22T10:25:01Z</time></trkpt><trkpt lat="59.0912300628" lon="30.0294896029"><ele>82.33</ele><time>2026-04-22T10:25:02Z</time></trkpt><trkpt lat="59.0912760794" lon="30.0294694863"><ele>82.33</ele><time>2026-04-22T10:25:05Z</time></trkpt><trkpt lat="59.0913307294" lon="30.0295369606"><ele>82.33</ele><time>2026-04-22T10:25:09Z</time></trkpt><trkpt lat="59.0914026462" lon="30.0295942929"><ele>82.33</ele><time>2026-04-22T10:25:19Z</time></trkpt><trkpt lat="59.0914143808" lon="30.0296181813"><ele>82.33</ele><time>2026-04-22T10:25:21Z</time></trkpt><trkpt lat="59.0914898179" lon="30.0297504477"><ele>82.33</ele><time>2026-04-22T10:25:29Z</time></trkpt><trkpt lat="59.0915719606" lon="30.0300650205"><ele>82.33</ele><time>2026-04-22T10:25:43Z</time></trkpt><trkpt lat="59.0916606411" lon="30.0302018970"><ele>81.85</ele><time>2026-04-22T10:25:55Z</time></trkpt><trkpt lat="59.0917282831" lon="30.0303277094"><ele>81.85</ele><time>2026-04-22T10:26:08Z</time></trkpt><trkpt lat="59.0918651596" lon="30.0304654241"><ele>81.85</ele><time>2026-04-22T10:26:20Z</time></trkpt><trkpt lat="59.0920177940" lon="30.0306549389"><ele>81.85</ele><time>2026-04-22T10:26:32Z</time></trkpt><trkpt lat="59.0921519883" lon="30.0309751276"><ele>81.37</ele><time>2026-04-22T10:26:48Z</time></trkpt><trkpt lat="59.0922518168" lon="30.0311649777"><ele>81.85</ele><time>2026-04-22T10:27:02Z</time></trkpt><trkpt lat="59.0923556685" lon="30.0313106552"><ele>81.85</ele><time>2026-04-22T10:27:16Z</time></trkpt><trkpt lat="59.0924118273" lon="30.0314199552"><ele>81.85</ele><time>2026-04-22T10:27:20Z</time></trkpt><trkpt lat="59.0924409963" lon="30.0315468572"><ele>81.85</ele><time>2026-04-22T10:27:28Z</time></trkpt><trkpt lat="59.0925261565" lon="30.0316345319"><ele>81.85</ele><time>2026-04-22T10:27:38Z</time></trkpt><trkpt lat="59.0925356280" lon="30.0317166746"><ele>81.85</ele><time>2026-04-22T10:27:51Z</time></trkpt><trkpt lat="59.0925274137" lon="30.0318555627"><ele>81.85</ele><time>2026-04-22T10:28:01Z</time></trkpt><trkpt lat="59.0925326105" lon="30.0319751725"><ele>82.33</ele><time>2026-04-22T10:28:11Z</time></trkpt><trkpt lat="59.0925486200" lon="30.0321006496"><ele>82.33</ele><time>2026-04-22T10:28:23Z</time></trkpt><trkpt lat="59.0925534815" lon="30.0322296470"><ele>82.33</ele><time>2026-04-22T10:28:37Z</time></trkpt><trkpt lat="59.0925616957" lon="30.0322583970"><ele>82.33</ele><time>2026-04-22T10:28:51Z</time></trkpt><trkpt lat="59.0926093049" lon="30.0325381011"><ele>82.33</ele><time>2026-04-22T10:29:04Z</time></trkpt><trkpt lat="59.0926469397" lon="30.0326701161"><ele>82.33</ele><time>2026-04-22T10:29:15Z</time></trkpt><trkpt lat="59.0927550662" lon="30.0328551047"><ele>82.33</ele><time>2026-04-22T10:29:26Z</time></trkpt><trkpt lat="59.0928264800" lon="30.0328168832"><ele>82.33</ele><time>2026-04-22T10:29:38Z</time></trkpt><trkpt lat="59.0928459261" lon="30.0328064896"><ele>82.33</ele><time>2026-04-22T10:29:40Z</time></trkpt><trkpt lat="59.0930518694" lon="30.0327106006"><ele>81.85</ele><time>2026-04-22T10:29:53Z</time></trkpt><trkpt lat="59.0931981336" lon="30.0326514244"><ele>81.85</ele><time>2026-04-22T10:30:05Z</time></trkpt><trkpt lat="59.0933131333" lon="30.0326220039"><ele>81.85</ele><time>2026-04-22T10:30:18Z</time></trkpt><trkpt lat="59.0934614930" lon="30.0326339062"><ele>80.41</ele><time>2026-04-22T10:30:31Z</time></trkpt><trkpt lat="59.0935907420" lon="30.0325746462"><ele>80.41</ele><time>2026-04-22T10:30:44Z</time></trkpt><trkpt lat="59.0937417001" lon="30.0324899890"><ele>80.41</ele><time>2026-04-22T10:30:57Z</time></trkpt><trkpt lat="59.0938778222" lon="30.0324327406"><ele>79.93</ele><time>2026-04-22T10:31:09Z</time></trkpt><trkpt lat="59.0940119326" lon="30.0323748216"><ele>79.93</ele><time>2026-04-22T10:31:22Z</time></trkpt><trkpt lat="59.0941711888" lon="30.0323138013"><ele>79.45</ele><time>2026-04-22T10:31:35Z</time></trkpt><trkpt lat="59.0943359770" lon="30.0323225185"><ele>79.45</ele><time>2026-04-22T10:31:48Z</time></trkpt><trkpt lat="59.0945159364" lon="30.0324179046"><ele>78.97</ele><time>2026-04-22T10:32:03Z</time></trkpt><trkpt lat="59.0947932098" lon="30.0324613228"><ele>78.97</ele><time>2026-04-22T10:32:16Z</time></trkpt><trkpt lat="59.0949446708" lon="30.0324510969"><ele>78.48</ele><time>2026-04-22T10:32:28Z</time></trkpt><trkpt lat="59.0951194335" lon="30.0323983748"><ele>78.48</ele><time>2026-04-22T10:32:40Z</time></trkpt><trkpt lat="59.0953411348" lon="30.0323932618"><ele>77.52</ele><time>2026-04-22T10:32:56Z</time></trkpt><trkpt lat="59.0955197532" lon="30.0323700439"><ele>77.52</ele><time>2026-04-22T10:33:07Z</time></trkpt><trkpt lat="59.0958196577" lon="30.0323152263"><ele>77.04</ele><time>2026-04-22T10:33:21Z</time></trkpt><trkpt lat="59.0960315522" lon="30.0322476681"><ele>77.04</ele><time>2026-04-22T10:33:34Z</time></trkpt><trkpt lat="59.0961416066" lon="30.0321661122"><ele>77.04</ele><time>2026-04-22T10:33:49Z</time></trkpt><trkpt lat="59.0963093285" lon="30.0320324209"><ele>76.56</ele><time>2026-04-22T10:34:00Z</time></trkpt><trkpt lat="59.0964286029" lon="30.0319555588"><ele>76.56</ele><time>2026-04-22T10:34:07Z</time></trkpt><trkpt lat="59.0965658147" lon="30.0318084564"><ele>76.56</ele><time>2026-04-22T10:34:17Z</time></trkpt><trkpt lat="59.0967733506" lon="30.0314745214"><ele>76.56</ele><time>2026-04-22T10:34:32Z</time></trkpt><trkpt lat="59.0968673117" lon="30.0312767085"><ele>76.08</ele><time>2026-04-22T10:34:41Z</time></trkpt><trkpt lat="59.0969408210" lon="30.0310613774"><ele>76.08</ele><time>2026-04-22T10:34:51Z</time></trkpt><trkpt lat="59.0970985685" lon="30.0308843516"><ele>76.08</ele><time>2026-04-22T10:35:03Z</time></trkpt><trkpt lat="59.0972660389" lon="30.0307508279"><ele>75.60</ele><time>2026-04-22T10:35:18Z</time></trkpt><trkpt lat="59.0974301565" lon="30.0305250194"><ele>75.60</ele><time>2026-04-22T10:35:33Z</time></trkpt><trkpt lat="59.0975743253" lon="30.0303121191"><ele>75.60</ele><time>2026-04-22T10:35:47Z</time></trkpt><trkpt lat="59.0976223536" lon="30.0302993786"><ele>75.12</ele><time>2026-04-22T10:35:50Z</time></trkpt><trkpt lat="59.0978386905" lon="30.0303060841"><ele>75.12</ele><time>2026-04-22T10:36:05Z</time></trkpt><trkpt lat="59.0980254393" lon="30.0302917510"><ele>75.12</ele><time>2026-04-22T10:36:19Z</time></trkpt><trkpt lat="59.0980719589" lon="30.0302800164"><ele>75.12</ele><time>2026-04-22T10:36:21Z</time></trkpt><trkpt lat="59.0982270241" lon="30.0302311499"><ele>74.64</ele><time>2026-04-22T10:36:31Z</time></trkpt><trkpt lat="59.0983898006" lon="30.0301033258"><ele>74.64</ele><time>2026-04-22T10:36:44Z</time></trkpt><trkpt lat="59.0985314548" lon="30.0299306586"><ele>74.64</ele><time>2026-04-22T10:36:56Z</time></trkpt><trkpt lat="59.0987023618" lon="30.0297491066"><ele>74.64</ele><time>2026-04-22T10:37:09Z</time></trkpt><trkpt lat="59.0988415852" lon="30.0295740087"><ele>74.16</ele><time>2026-04-22T10:37:23Z</time></trkpt><trkpt lat="59.0988860093" lon="30.0294891000"><ele>74.16</ele><time>2026-04-22T10:37:29Z</time></trkpt><trkpt lat="59.0989717562" lon="30.0293296762"><ele>74.16</ele><time>2026-04-22T10:37:38Z</time></trkpt><trkpt lat="59.0991103090" lon="30.0291770417"><ele>74.16</ele><time>2026-04-22T10:37:50Z</time></trkpt><trkpt lat="59.0992390551" lon="30.0290020276"><ele>74.16</ele><time>2026-04-22T10:38:03Z</time></trkpt><trkpt lat="59.0992749296" lon="30.0289415941"><ele>74.16</ele><time>2026-04-22T10:38:07Z</time></trkpt><trkpt lat="59.0993861575" lon="30.0288525783"><ele>74.16</ele><time>2026-04-22T10:38:17Z</time></trkpt><trkpt lat="59.0994530451" lon="30.0288096629"><ele>74.16</ele><time>2026-04-22T10:38:22Z</time></trkpt><trkpt lat="59.0995032527" lon="30.0287550129"><ele>74.16</ele><time>2026-04-22T10:38:26Z</time></trkpt><trkpt lat="59.0996119659" lon="30.0289168674"><ele>74.16</ele><time>2026-04-22T10:38:37Z</time></trkpt><trkpt lat="59.0996229462" lon="30.0289447792"><ele>74.16</ele><time>2026-04-22T10:38:39Z</time></trkpt><trkpt lat="59.0996733215" lon="30.0290626287"><ele>74.16</ele><time>2026-04-22T10:38:46Z</time></trkpt><trkpt lat="59.0997169074" lon="30.0291893631"><ele>74.16</ele><time>2026-04-22T10:38:59Z</time></trkpt><trkpt lat="59.0997504350" lon="30.0292574242"><ele>73.68</ele><time>2026-04-22T10:39:28Z</time></trkpt><trkpt lat="59.0997499321" lon="30.0292720087"><ele>73.68</ele><time>2026-04-22T10:39:30Z</time></trkpt><trkpt lat="59.0997391194" lon="30.0292023551"><ele>74.16</ele><time>2026-04-22T10:39:34Z</time></trkpt><trkpt lat="59.0997428913" lon="30.0291602779"><ele>75.60</ele><time>2026-04-22T10:39:36Z</time></trkpt><trkpt lat="59.0997335035" lon="30.0290272571"><ele>76.56</ele><time>2026-04-22T10:39:45Z</time></trkpt><trkpt lat="59.0997616667" lon="30.0291430112"><ele>76.56</ele><time>2026-04-22T10:39:52Z</time></trkpt><trkpt lat="59.0997544583" lon="30.0292787980"><ele>76.56</ele><time>2026-04-22T10:40:03Z</time></trkpt><trkpt lat="59.0997506026" lon="30.0292779598"><ele>76.56</ele><time>2026-04-22T10:40:04Z</time></trkpt><trkpt lat="59.0997176617" lon="30.0293100625"><ele>74.64</ele><time>2026-04-22T10:40:17Z</time></trkpt><trkpt lat="59.0996757522" lon="30.0293616951"><ele>74.16</ele><time>2026-04-22T10:40:28Z</time></trkpt><trkpt lat="59.0996073559" lon="30.0294356234"><ele>76.08</ele><time>2026-04-22T10:40:37Z</time></trkpt><trkpt lat="59.0995693021" lon="30.0295569096"><ele>75.60</ele><time>2026-04-22T10:40:49Z</time></trkpt><trkpt lat="59.0995092038" lon="30.0296355318"><ele>74.64</ele><time>2026-04-22T10:40:59Z</time></trkpt><trkpt lat="59.0994267259" lon="30.0297006592"><ele>74.64</ele><time>2026-04-22T10:41:09Z</time></trkpt><trkpt lat="59.0994018316" lon="30.0296154991"><ele>74.16</ele><time>2026-04-22T10:41:25Z</time></trkpt><trkpt lat="59.0993553121" lon="30.0295517966"><ele>74.16</ele><time>2026-04-22T10:41:36Z</time></trkpt><trkpt lat="59.0993266460" lon="30.0295476057"><ele>74.16</ele><time>2026-04-22T10:41:41Z</time></trkpt><trkpt lat="59.0992530528" lon="30.0294599310"><ele>73.68</ele><time>2026-04-22T10:41:53Z</time></trkpt><trkpt lat="59.0992320143" lon="30.0294052809"><ele>73.68</ele><time>2026-04-22T10:41:57Z</time></trkpt><trkpt lat="59.0992084611" lon="30.0292964838"><ele>73.68</ele><time>2026-04-22T10:42:06Z</time></trkpt><trkpt lat="59.0992030129" lon="30.0291743595"><ele>74.16</ele><time>2026-04-22T10:42:15Z</time></trkpt><trkpt lat="59.0991760232" lon="30.0291321147"><ele>75.12</ele><time>2026-04-22T10:42:19Z</time></trkpt><trkpt lat="59.0991725028" lon="30.0291151833"><ele>75.60</ele><time>2026-04-22T10:42:20Z</time></trkpt><trkpt lat="59.0991559904" lon="30.0290858466"><ele>75.12</ele><time>2026-04-22T10:42:22Z</time></trkpt><trkpt lat="59.0991060343" lon="30.0289915502"><ele>75.12</ele><time>2026-04-22T10:42:28Z</time></trkpt><trkpt lat="59.0990713332" lon="30.0288113393"><ele>75.12</ele><time>2026-04-22T10:42:36Z</time></trkpt><trkpt lat="59.0990908630" lon="30.0286751334"><ele>75.60</ele><time>2026-04-22T10:42:44Z</time></trkpt><trkpt lat="59.0990269091" lon="30.0283844490"><ele>74.16</ele><time>2026-04-22T10:42:58Z</time></trkpt><trkpt lat="59.0990113188" lon="30.0283505023"><ele>74.16</ele><time>2026-04-22T10:43:00Z</time></trkpt><trkpt lat="59.0989662241" lon="30.0282689463"><ele>74.16</ele><time>2026-04-22T10:43:04Z</time></trkpt><trkpt lat="59.0989559982" lon="30.0281384401"><ele>74.16</ele><time>2026-04-22T10:43:11Z</time></trkpt><trkpt lat="59.0989488736" lon="30.0279774237"><ele>74.16</ele><time>2026-04-22T10:43:19Z</time></trkpt><trkpt lat="59.0989256557" lon="30.0278544612"><ele>74.16</ele><time>2026-04-22T10:43:25Z</time></trkpt><trkpt lat="59.0989420004" lon="30.0277646910"><ele>74.16</ele><time>2026-04-22T10:43:37Z</time></trkpt><trkpt lat="59.0989212133" lon="30.0277256314"><ele>74.16</ele><time>2026-04-22T10:43:47Z</time></trkpt><trkpt lat="59.0988907870" lon="30.0276122242"><ele>74.64</ele><time>2026-04-22T10:43:57Z</time></trkpt><trkpt lat="59.0988718439" lon="30.0276180077"><ele>74.64</ele><time>2026-04-22T10:43:59Z</time></trkpt><trkpt lat="59.0988295991" lon="30.0274943747"><ele>74.64</ele><time>2026-04-22T10:44:09Z</time></trkpt><trkpt lat="59.0988553315" lon="30.0273788720"><ele>74.64</ele><time>2026-04-22T10:44:19Z</time></trkpt><trkpt lat="59.0988764539" lon="30.0273309276"><ele>74.64</ele><time>2026-04-22T10:44:23Z</time></trkpt><trkpt lat="59.0989050362" lon="30.0271254033"><ele>74.64</ele><time>2026-04-22T10:44:36Z</time></trkpt><trkpt lat="59.0989129152" lon="30.0270857569"><ele>74.64</ele><time>2026-04-22T10:44:39Z</time></trkpt><trkpt lat="59.0989174414" lon="30.0270423386"><ele>74.64</ele><time>2026-04-22T10:44:50Z</time></trkpt><trkpt lat="59.0989119932" lon="30.0270473678"><ele>74.64</ele><time>2026-04-22T10:44:52Z</time></trkpt><trkpt lat="59.0989199560" lon="30.0270125829"><ele>74.64</ele><time>2026-04-22T10:44:55Z</time></trkpt><trkpt lat="59.0989190340" lon="30.0268962421"><ele>74.64</ele><time>2026-04-22T10:45:07Z</time></trkpt><trkpt lat="59.0988900326" lon="30.0268833339"><ele>74.64</ele><time>2026-04-22T10:45:16Z</time></trkpt><trkpt lat="59.0988870990" lon="30.0267424341"><ele>74.64</ele><time>2026-04-22T10:45:25Z</time></trkpt><trkpt lat="59.0989171900" lon="30.0266291946"><ele>74.64</ele><time>2026-04-22T10:45:36Z</time></trkpt><trkpt lat="59.0989183635" lon="30.0266169570"><ele>74.64</ele><time>2026-04-22T10:45:37Z</time></trkpt><trkpt lat="59.0988702513" lon="30.0265499856"><ele>74.64</ele><time>2026-04-22T10:45:48Z</time></trkpt><trkpt lat="59.0988673177" lon="30.0265321322"><ele>74.64</ele><time>2026-04-22T10:45:50Z</time></trkpt><trkpt lat="59.0988146793" lon="30.0264531747"><ele>74.64</ele><time>2026-04-22T10:45:59Z</time></trkpt><trkpt lat="59.0987988375" lon="30.0264092535"><ele>74.64</ele><time>2026-04-22T10:46:14Z</time></trkpt><trkpt lat="59.0987665672" lon="30.0263447128"><ele>74.64</ele><time>2026-04-22T10:46:21Z</time></trkpt><trkpt lat="59.0987517312" lon="30.0261586346"><ele>74.64</ele><time>2026-04-22T10:46:32Z</time></trkpt><trkpt lat="59.0987432655" lon="30.0260961056"><ele>74.64</ele><time>2026-04-22T10:46:36Z</time></trkpt><trkpt lat="59.0986579377" lon="30.0259728916"><ele>74.64</ele><time>2026-04-22T10:46:48Z</time></trkpt><trkpt lat="59.0986201353" lon="30.0258547068"><ele>74.64</ele><time>2026-04-22T10:46:56Z</time></trkpt><trkpt lat="59.0986428503" lon="30.0258245319"><ele>74.64</ele><time>2026-04-22T10:47:06Z</time></trkpt><trkpt lat="59.0986313671" lon="30.0257896632"><ele>74.64</ele><time>2026-04-22T10:47:18Z</time></trkpt><trkpt lat="59.0985938162" lon="30.0256107934"><ele>74.64</ele><time>2026-04-22T10:47:28Z</time></trkpt><trkpt lat="59.0985496435" lon="30.0255269744"><ele>74.64</ele><time>2026-04-22T10:47:37Z</time></trkpt><trkpt lat="59.0985534992" lon="30.0255356077"><ele>74.64</ele><time>2026-04-22T10:47:43Z</time></trkpt><trkpt lat="59.0985372383" lon="30.0255666208"><ele>74.64</ele><time>2026-04-22T10:47:54Z</time></trkpt><trkpt lat="59.0985338856" lon="30.0255717337"><ele>74.64</ele><time>2026-04-22T10:48:04Z</time></trkpt><trkpt lat="59.0985273477" lon="30.0255717337"><ele>74.64</ele><time>2026-04-22T10:48:17Z</time></trkpt><trkpt lat="59.0985176247" lon="30.0255335122"><ele>74.64</ele><time>2026-04-22T10:48:27Z</time></trkpt><trkpt lat="59.0984741226" lon="30.0254800357"><ele>74.64</ele><time>2026-04-22T10:48:38Z</time></trkpt><trkpt lat="59.0984234959" lon="30.0253577437"><ele>74.64</ele><time>2026-04-22T10:48:48Z</time></trkpt><trkpt lat="59.0984226577" lon="30.0253134873"><ele>74.64</ele><time>2026-04-22T10:49:00Z</time></trkpt><trkpt lat="59.0984229930" lon="30.0251961406"><ele>74.64</ele><time>2026-04-22T10:49:10Z</time></trkpt><trkpt lat="59.0984477196" lon="30.0250888523"><ele>74.64</ele><time>2026-04-22T10:49:21Z</time></trkpt><trkpt lat="59.0984659083" lon="30.0250334479"><ele>74.64</ele><time>2026-04-22T10:49:33Z</time></trkpt><trkpt lat="59.0984784812" lon="30.0249412470"><ele>74.64</ele><time>2026-04-22T10:49:45Z</time></trkpt><trkpt lat="59.0984737873" lon="30.0249238126"><ele>74.64</ele><time>2026-04-22T10:49:46Z</time></trkpt><trkpt lat="59.0984660760" lon="30.0248001795"><ele>74.64</ele><time>2026-04-22T10:49:54Z</time></trkpt><trkpt lat="59.0984125156" lon="30.0246744510"><ele>74.64</ele><time>2026-04-22T10:50:05Z</time></trkpt><trkpt lat="59.0983849391" lon="30.0246464554"><ele>74.64</ele><time>2026-04-22T10:50:10Z</time></trkpt><trkpt lat="59.0983768087" lon="30.0246574357"><ele>74.16</ele><time>2026-04-22T10:50:21Z</time></trkpt><trkpt lat="59.0983508248" lon="30.0246296078"><ele>74.16</ele><time>2026-04-22T10:50:32Z</time></trkpt><trkpt lat="59.0983469691" lon="30.0246280991"><ele>75.12</ele><time>2026-04-22T10:50:34Z</time></trkpt><trkpt lat="59.0983400121" lon="30.0245690066"><ele>75.12</ele><time>2026-04-22T10:50:45Z</time></trkpt><trkpt lat="59.0983204823" lon="30.0245661568"><ele>75.60</ele><time>2026-04-22T10:51:07Z</time></trkpt><trkpt lat="59.0983008686" lon="30.0245078187"><ele>75.60</ele><time>2026-04-22T10:51:29Z</time></trkpt><trkpt lat="59.0983137768" lon="30.0244404282"><ele>75.60</ele><time>2026-04-22T10:51:45Z</time></trkpt><trkpt lat="59.0983560216" lon="30.0243733730"><ele>75.60</ele><time>2026-04-22T10:51:54Z</time></trkpt><trkpt lat="59.0983538423" lon="30.0243431143"><ele>75.60</ele><time>2026-04-22T10:52:03Z</time></trkpt><trkpt lat="59.0983644873" lon="30.0242435373"><ele>75.60</ele><time>2026-04-22T10:52:13Z</time></trkpt><trkpt lat="59.0983766410" lon="30.0241020508"><ele>75.60</ele><time>2026-04-22T10:52:22Z</time></trkpt><trkpt lat="59.0983659122" lon="30.0240116939"><ele>75.60</ele><time>2026-04-22T10:52:33Z</time></trkpt><trkpt lat="59.0983529203" lon="30.0239721313"><ele>76.08</ele><time>2026-04-22T10:52:35Z</time></trkpt><trkpt lat="59.0983145311" lon="30.0238351710"><ele>76.08</ele><time>2026-04-22T10:52:41Z</time></trkpt><trkpt lat="59.0983121004" lon="30.0236702152"><ele>76.08</ele><time>2026-04-22T10:52:53Z</time></trkpt><trkpt lat="59.0983050596" lon="30.0236393698"><ele>76.08</ele><time>2026-04-22T10:53:04Z</time></trkpt><trkpt lat="59.0982675087" lon="30.0235821214"><ele>75.12</ele><time>2026-04-22T10:53:19Z</time></trkpt><trkpt lat="59.0982577857" lon="30.0236082729"><ele>74.64</ele><time>2026-04-22T10:53:31Z</time></trkpt><trkpt lat="59.0982486494" lon="30.0236095302"><ele>74.16</ele><time>2026-04-22T10:53:48Z</time></trkpt><trkpt lat="59.0982477274" lon="30.0236086920"><ele>74.16</ele><time>2026-04-22T10:53:49Z</time></trkpt><trkpt lat="59.0982618928" lon="30.0236076862"><ele>74.16</ele><time>2026-04-22T10:54:06Z</time></trkpt><trkpt lat="59.0982399322" lon="30.0234867353"><ele>74.16</ele><time>2026-04-22T10:54:15Z</time></trkpt><trkpt lat="59.0982302092" lon="30.0234249607"><ele>74.16</ele><time>2026-04-22T10:54:27Z</time></trkpt><trkpt lat="59.0982128587" lon="30.0233848952"><ele>75.60</ele><time>2026-04-22T10:54:39Z</time></trkpt><trkpt lat="59.0982086677" lon="30.0233795308"><ele>75.12</ele><time>2026-04-22T10:54:40Z</time></trkpt><trkpt lat="59.0982062370" lon="30.0233335141"><ele>75.60</ele><time>2026-04-22T10:54:50Z</time></trkpt><trkpt lat="59.0982059017" lon="30.0232643634"><ele>75.60</ele><time>2026-04-22T10:54:52Z</time></trkpt><trkpt lat="59.0981886350" lon="30.0232262257"><ele>75.60</ele><time>2026-04-22T10:55:04Z</time></trkpt><trkpt lat="59.0981691051" lon="30.0231847353"><ele>75.60</ele><time>2026-04-22T10:55:15Z</time></trkpt><trkpt lat="59.0981396846" lon="30.0231246371"><ele>75.60</ele><time>2026-04-22T10:55:20Z</time></trkpt><trkpt lat="59.0981297940" lon="30.0230224617"><ele>75.60</ele><time>2026-04-22T10:55:31Z</time></trkpt><trkpt lat="59.0981219150" lon="30.0229305960"><ele>75.60</ele><time>2026-04-22T10:55:42Z</time></trkpt><trkpt lat="59.0981114376" lon="30.0228507165"><ele>75.60</ele><time>2026-04-22T10:55:51Z</time></trkpt><trkpt lat="59.0981151257" lon="30.0228158478"><ele>75.60</ele><time>2026-04-22T10:56:05Z</time></trkpt><trkpt lat="59.0981125273" lon="30.0227497984"><ele>75.60</ele><time>2026-04-22T10:56:15Z</time></trkpt><trkpt lat="59.0981025528" lon="30.0226683263"><ele>75.60</ele><time>2026-04-22T10:56:26Z</time></trkpt><trkpt lat="59.0980832744" lon="30.0226275064"><ele>75.60</ele><time>2026-04-22T10:56:31Z</time></trkpt><trkpt lat="59.0980361681" lon="30.0225389935"><ele>76.08</ele><time>2026-04-22T10:56:40Z</time></trkpt><trkpt lat="59.0980316419" lon="30.0224861875"><ele>76.08</ele><time>2026-04-22T10:56:51Z</time></trkpt><trkpt lat="59.0980299655" lon="30.0223443657"><ele>76.08</ele><time>2026-04-22T10:57:01Z</time></trkpt><trkpt lat="59.0979812667" lon="30.0221592095"><ele>76.08</ele><time>2026-04-22T10:57:13Z</time></trkpt><trkpt lat="59.0979650896" lon="30.0221096724"><ele>76.08</ele><time>2026-04-22T10:57:26Z</time></trkpt><trkpt lat="59.0979627427" lon="30.0220211595"><ele>76.08</ele><time>2026-04-22T10:57:42Z</time></trkpt><trkpt lat="59.0979578812" lon="30.0219416153"><ele>76.08</ele><time>2026-04-22T10:57:59Z</time></trkpt><trkpt lat="59.0979568753" lon="30.0219194870"><ele>76.08</ele><time>2026-04-22T10:58:02Z</time></trkpt><trkpt lat="59.0979451407" lon="30.0219224207"><ele>76.08</ele><time>2026-04-22T10:58:14Z</time></trkpt><trkpt lat="59.0978893172" lon="30.0219822675"><ele>76.08</ele><time>2026-04-22T10:58:25Z</time></trkpt><trkpt lat="59.0978716314" lon="30.0219120272"><ele>76.08</ele><time>2026-04-22T10:58:35Z</time></trkpt><trkpt lat="59.0978210885" lon="30.0219088420"><ele>75.60</ele><time>2026-04-22T10:58:46Z</time></trkpt><trkpt lat="59.0977987926" lon="30.0219182298"><ele>75.60</ele><time>2026-04-22T10:58:59Z</time></trkpt><trkpt lat="59.0977991279" lon="30.0219015498"><ele>75.60</ele><time>2026-04-22T10:59:14Z</time></trkpt><trkpt lat="59.0978049953" lon="30.0218958501"><ele>76.08</ele><time>2026-04-22T10:59:42Z</time></trkpt><trkpt lat="59.0978163946" lon="30.0219186489"><ele>76.08</ele><time>2026-04-22T10:59:55Z</time></trkpt><trkpt lat="59.0978134610" lon="30.0219468959"><ele>76.08</ele><time>2026-04-22T11:00:09Z</time></trkpt><trkpt lat="59.0977535304" lon="30.0219902303"><ele>76.56</ele><time>2026-04-22T11:00:21Z</time></trkpt><trkpt lat="59.0977350064" lon="30.0219033100"><ele>76.56</ele><time>2026-04-22T11:00:34Z</time></trkpt><trkpt lat="59.0977193322" lon="30.0218755659"><ele>76.56</ele><time>2026-04-22T11:00:43Z</time></trkpt><trkpt lat="59.0976949409" lon="30.0218504202"><ele>76.08</ele><time>2026-04-22T11:00:56Z</time></trkpt><trkpt lat="59.0976908337" lon="30.0218118634"><ele>76.08</ele><time>2026-04-22T11:01:09Z</time></trkpt><trkpt lat="59.0976796020" lon="30.0217923336"><ele>76.08</ele><time>2026-04-22T11:01:27Z</time></trkpt><trkpt lat="59.0976654366" lon="30.0217577163"><ele>76.08</ele><time>2026-04-22T11:01:35Z</time></trkpt><trkpt lat="59.0976640116" lon="30.0216790941"><ele>76.08</ele><time>2026-04-22T11:01:43Z</time></trkpt><trkpt lat="59.0976267122" lon="30.0215669442"><ele>76.08</ele><time>2026-04-22T11:01:53Z</time></trkpt><trkpt lat="59.0976279695" lon="30.0215184130"><ele>76.08</ele><time>2026-04-22T11:01:59Z</time></trkpt><trkpt lat="59.0976269636" lon="30.0214109570"><ele>76.08</ele><time>2026-04-22T11:02:12Z</time></trkpt><trkpt lat="59.0976229403" lon="30.0213991385"><ele>76.08</ele><time>2026-04-22T11:02:31Z</time></trkpt><trkpt lat="59.0976153966" lon="30.0213844702"><ele>74.64</ele><time>2026-04-22T11:02:48Z</time></trkpt><trkpt lat="59.0975946095" lon="30.0213533733"><ele>75.60</ele><time>2026-04-22T11:03:00Z</time></trkpt><trkpt lat="59.0975621715" lon="30.0213477574"><ele>75.60</ele><time>2026-04-22T11:03:08Z</time></trkpt><trkpt lat="59.0975386184" lon="30.0212876592"><ele>75.60</ele><time>2026-04-22T11:03:21Z</time></trkpt><trkpt lat="59.0975314099" lon="30.0212274771"><ele>75.60</ele><time>2026-04-22T11:03:32Z</time></trkpt><trkpt lat="59.0975294821" lon="30.0212240405"><ele>75.60</ele><time>2026-04-22T11:03:34Z</time></trkpt><trkpt lat="59.0975573100" lon="30.0211828854"><ele>75.60</ele><time>2026-04-22T11:03:41Z</time></trkpt><trkpt lat="59.0975395404" lon="30.0211372040"><ele>75.60</ele><time>2026-04-22T11:03:52Z</time></trkpt><trkpt lat="59.0975222737" lon="30.0211100467"><ele>75.60</ele><time>2026-04-22T11:03:55Z</time></trkpt><trkpt lat="59.0974785201" lon="30.0210392196"><ele>75.60</ele><time>2026-04-22T11:04:05Z</time></trkpt><trkpt lat="59.0974576492" lon="30.0210205279"><ele>75.60</ele><time>2026-04-22T11:04:20Z</time></trkpt><trkpt lat="59.0974637680" lon="30.0209837314"><ele>75.60</ele><time>2026-04-22T11:04:24Z</time></trkpt><trkpt lat="59.0974713955" lon="30.0209616870"><ele>75.60</ele><time>2026-04-22T11:04:35Z</time></trkpt><trkpt lat="59.0974705573" lon="30.0209578313"><ele>75.60</ele><time>2026-04-22T11:04:55Z</time></trkpt><trkpt lat="59.0974616725" lon="30.0209411513"><ele>75.60</ele><time>2026-04-22T11:05:06Z</time></trkpt><trkpt lat="59.0974527039" lon="30.0209077075"><ele>75.60</ele><time>2026-04-22T11:05:21Z</time></trkpt><trkpt lat="59.0974520333" lon="30.0209050253"><ele>75.60</ele><time>2026-04-22T11:05:41Z</time></trkpt><trkpt lat="59.0974476747" lon="30.0208977330"><ele>76.08</ele><time>2026-04-22T11:06:05Z</time></trkpt><trkpt lat="59.0974765923" lon="30.0209069531"><ele>76.08</ele><time>2026-04-22T11:06:14Z</time></trkpt><trkpt lat="59.0975264646" lon="30.0208745152"><ele>76.56</ele><time>2026-04-22T11:06:24Z</time></trkpt><trkpt lat="59.0975352656" lon="30.0208251458"><ele>76.56</ele><time>2026-04-22T11:06:34Z</time></trkpt><trkpt lat="59.0975388698" lon="30.0207356270"><ele>76.56</ele><time>2026-04-22T11:06:47Z</time></trkpt><trkpt lat="59.0975272190" lon="30.0207248982"><ele>76.56</ele><time>2026-04-22T11:06:53Z</time></trkpt><trkpt lat="59.0974610858" lon="30.0206860062"><ele>76.08</ele><time>2026-04-22T11:07:02Z</time></trkpt><trkpt lat="59.0974457469" lon="30.0206456892"><ele>76.08</ele><time>2026-04-22T11:07:13Z</time></trkpt><trkpt lat="59.0973934438" lon="30.0206865929"><ele>76.08</ele><time>2026-04-22T11:07:23Z</time></trkpt><trkpt lat="59.0973614249" lon="30.0206930470"><ele>76.08</ele><time>2026-04-22T11:07:31Z</time></trkpt><trkpt lat="59.0973496903" lon="30.0206742715"><ele>76.08</ele><time>2026-04-22T11:07:42Z</time></trkpt><trkpt lat="59.0973281488" lon="30.0206756964"><ele>76.08</ele><time>2026-04-22T11:07:52Z</time></trkpt><trkpt lat="59.0973049309" lon="30.0206208788"><ele>76.08</ele><time>2026-04-22T11:08:03Z</time></trkpt><trkpt lat="59.0972754266" lon="30.0205808971"><ele>76.08</ele><time>2026-04-22T11:08:14Z</time></trkpt><trkpt lat="59.0972326789" lon="30.0205135904"><ele>76.08</ele><time>2026-04-22T11:08:28Z</time></trkpt><trkpt lat="59.0972288232" lon="30.0204459485"><ele>75.60</ele><time>2026-04-22T11:08:40Z</time></trkpt><trkpt lat="59.0972258896" lon="30.0204099901"><ele>75.60</ele><time>2026-04-22T11:08:56Z</time></trkpt><trkpt lat="59.0972043481" lon="30.0203127600"><ele>75.60</ele><time>2026-04-22T11:09:11Z</time></trkpt><trkpt lat="59.0971747600" lon="30.0202073157"><ele>75.60</ele><time>2026-04-22T11:09:23Z</time></trkpt><trkpt lat="59.0971382987" lon="30.0201145280"><ele>75.60</ele><time>2026-04-22T11:09:34Z</time></trkpt><trkpt lat="59.0971357003" lon="30.0200761389"><ele>75.60</ele><time>2026-04-22T11:09:39Z</time></trkpt><trkpt lat="59.0970931202" lon="30.0200390071"><ele>75.60</ele><time>2026-04-22T11:09:49Z</time></trkpt><trkpt lat="59.0970647056" lon="30.0199228339"><ele>75.60</ele><time>2026-04-22T11:10:01Z</time></trkpt><trkpt lat="59.0970403980" lon="30.0198303815"><ele>75.60</ele><time>2026-04-22T11:10:12Z</time></trkpt><trkpt lat="59.0970706567" lon="30.0197494961"><ele>75.60</ele><time>2026-04-22T11:10:21Z</time></trkpt><trkpt lat="59.0970905218" lon="30.0197261944"><ele>75.60</ele><time>2026-04-22T11:10:32Z</time></trkpt><trkpt lat="59.0970933717" lon="30.0196629949"><ele>76.08</ele><time>2026-04-22T11:10:48Z</time></trkpt><trkpt lat="59.0971175954" lon="30.0196179003"><ele>76.08</ele><time>2026-04-22T11:11:02Z</time></trkpt><trkpt lat="59.0971178468" lon="30.0196008012"><ele>76.08</ele><time>2026-04-22T11:11:15Z</time></trkpt><trkpt lat="59.0971385501" lon="30.0195548683"><ele>76.08</ele><time>2026-04-22T11:11:28Z</time></trkpt><trkpt lat="59.0971428249" lon="30.0195189100"><ele>76.08</ele><time>2026-04-22T11:11:44Z</time></trkpt><trkpt lat="59.0971429925" lon="30.0195179041"><ele>76.08</ele><time>2026-04-22T11:11:45Z</time></trkpt><trkpt lat="59.0971913561" lon="30.0195729733"><ele>75.60</ele><time>2026-04-22T11:11:56Z</time></trkpt><trkpt lat="59.0971978102" lon="30.0195816904"><ele>75.60</ele><time>2026-04-22T11:11:59Z</time></trkpt><trkpt lat="59.0972538851" lon="30.0195416249"><ele>75.60</ele><time>2026-04-22T11:12:10Z</time></trkpt><trkpt lat="59.0972941183" lon="30.0195172336"><ele>75.60</ele><time>2026-04-22T11:12:20Z</time></trkpt><trkpt lat="59.0973303281" lon="30.0194615778"><ele>75.60</ele><time>2026-04-22T11:12:31Z</time></trkpt><trkpt lat="59.0973324236" lon="30.0194324926"><ele>75.60</ele><time>2026-04-22T11:12:33Z</time></trkpt><trkpt lat="59.0973423142" lon="30.0193537027"><ele>75.60</ele><time>2026-04-22T11:12:49Z</time></trkpt><trkpt lat="59.0973471757" lon="30.0193319097"><ele>75.60</ele><time>2026-04-22T11:13:07Z</time></trkpt><trkpt lat="59.0973517857" lon="30.0192930177"><ele>75.60</ele><time>2026-04-22T11:13:23Z</time></trkpt><trkpt lat="59.0973524563" lon="30.0191694684"><ele>75.60</ele><time>2026-04-22T11:13:35Z</time></trkpt><trkpt lat="59.0973454993" lon="30.0191207696"><ele>75.60</ele><time>2026-04-22T11:13:48Z</time></trkpt><trkpt lat="59.0973504446" lon="30.0190964621"><ele>75.12</ele><time>2026-04-22T11:14:02Z</time></trkpt><trkpt lat="59.0973475110" lon="30.0190241262"><ele>75.12</ele><time>2026-04-22T11:14:12Z</time></trkpt><trkpt lat="59.0973481815" lon="30.0190199353"><ele>75.12</ele><time>2026-04-22T11:14:15Z</time></trkpt><trkpt lat="59.0973651130" lon="30.0189597532"><ele>75.12</ele><time>2026-04-22T11:14:21Z</time></trkpt><trkpt lat="59.0973393805" lon="30.0188186020"><ele>75.60</ele><time>2026-04-22T11:14:32Z</time></trkpt><trkpt lat="59.0973261371" lon="30.0187880080"><ele>75.60</ele><time>2026-04-22T11:14:44Z</time></trkpt><trkpt lat="59.0972986445" lon="30.0186989084"><ele>75.60</ele><time>2026-04-22T11:14:54Z</time></trkpt><trkpt lat="59.0972954594" lon="30.0186859164"><ele>75.60</ele><time>2026-04-22T11:15:13Z</time></trkpt><trkpt lat="59.0972962976" lon="30.0186791271"><ele>75.60</ele><time>2026-04-22T11:15:28Z</time></trkpt><trkpt lat="59.0972519573" lon="30.0187276583"><ele>76.08</ele><time>2026-04-22T11:15:41Z</time></trkpt><trkpt lat="59.0972507000" lon="30.0187359564"><ele>76.08</ele><time>2026-04-22T11:16:06Z</time></trkpt><trkpt lat="59.0972487722" lon="30.0187364593"><ele>75.60</ele><time>2026-04-22T11:16:28Z</time></trkpt><trkpt lat="59.0972483531" lon="30.0187395606"><ele>75.60</ele><time>2026-04-22T11:16:42Z</time></trkpt><trkpt lat="59.0972538013" lon="30.0187164266"><ele>75.60</ele><time>2026-04-22T11:16:58Z</time></trkpt><trkpt lat="59.0972554777" lon="30.0186906103"><ele>75.60</ele><time>2026-04-22T11:17:12Z</time></trkpt><trkpt lat="59.0972605068" lon="30.0186547358"><ele>75.60</ele><time>2026-04-22T11:17:25Z</time></trkpt><trkpt lat="59.0972660389" lon="30.0186135806"><ele>76.08</ele><time>2026-04-22T11:17:38Z</time></trkpt><trkpt lat="59.0972662065" lon="30.0185513031"><ele>76.08</ele><time>2026-04-22T11:17:53Z</time></trkpt><trkpt lat="59.0972385462" lon="30.0184536539"><ele>76.08</ele><time>2026-04-22T11:18:04Z</time></trkpt><trkpt lat="59.0972312540" lon="30.0183295179"><ele>76.08</ele><time>2026-04-22T11:18:11Z</time></trkpt><trkpt lat="59.0972366184" lon="30.0181828346"><ele>76.08</ele><time>2026-04-22T11:18:18Z</time></trkpt><trkpt lat="59.0972400550" lon="30.0180882029"><ele>76.08</ele><time>2026-04-22T11:18:23Z</time></trkpt><trkpt lat="59.0972543042" lon="30.0179336406"><ele>76.08</ele><time>2026-04-22T11:18:34Z</time></trkpt><trkpt lat="59.0972630214" lon="30.0177204888"><ele>76.08</ele><time>2026-04-22T11:18:48Z</time></trkpt><trkpt lat="59.0972593334" lon="30.0176603906"><ele>76.08</ele><time>2026-04-22T11:18:59Z</time></trkpt><trkpt lat="59.0972563997" lon="30.0175412837"><ele>76.56</ele><time>2026-04-22T11:19:13Z</time></trkpt><trkpt lat="59.0972287394" lon="30.0173653476"><ele>76.56</ele><time>2026-04-22T11:19:25Z</time></trkpt><trkpt lat="59.0972273145" lon="30.0171943568"><ele>76.56</ele><time>2026-04-22T11:19:37Z</time></trkpt><trkpt lat="59.0971886739" lon="30.0170308258"><ele>76.56</ele><time>2026-04-22T11:19:48Z</time></trkpt><trkpt lat="59.0971600078" lon="30.0169465877"><ele>76.56</ele><time>2026-04-22T11:19:59Z</time></trkpt><trkpt lat="59.0971534699" lon="30.0167867448"><ele>76.08</ele><time>2026-04-22T11:20:12Z</time></trkpt><trkpt lat="59.0971599240" lon="30.0167125650"><ele>76.08</ele><time>2026-04-22T11:20:28Z</time></trkpt><trkpt lat="59.0971564874" lon="30.0167014170"><ele>77.04</ele><time>2026-04-22T11:20:30Z</time></trkpt><trkpt lat="59.0971280728" lon="30.0165740121"><ele>76.56</ele><time>2026-04-22T11:20:40Z</time></trkpt><trkpt lat="59.0970674716" lon="30.0164285861"><ele>76.56</ele><time>2026-04-22T11:20:51Z</time></trkpt><trkpt lat="59.0970195271" lon="30.0162927993"><ele>76.56</ele><time>2026-04-22T11:21:02Z</time></trkpt><trkpt lat="59.0970341954" lon="30.0162675697"><ele>76.56</ele><time>2026-04-22T11:21:06Z</time></trkpt><trkpt lat="59.0970170964" lon="30.0161640532"><ele>76.56</ele><time>2026-04-22T11:21:14Z</time></trkpt><trkpt lat="59.0970707405" lon="30.0160768814"><ele>76.56</ele><time>2026-04-22T11:21:23Z</time></trkpt><trkpt lat="59.0970405657" lon="30.0159260910"><ele>76.56</ele><time>2026-04-22T11:21:34Z</time></trkpt><trkpt lat="59.0970355365" lon="30.0158897135"><ele>76.56</ele><time>2026-04-22T11:21:38Z</time></trkpt><trkpt lat="59.0969749354" lon="30.0157433655"><ele>76.56</ele><time>2026-04-22T11:21:49Z</time></trkpt><trkpt lat="59.0969353728" lon="30.0156189781"><ele>76.56</ele><time>2026-04-22T11:21:59Z</time></trkpt><trkpt lat="59.0969419107" lon="30.0154929981"><ele>76.56</ele><time>2026-04-22T11:22:10Z</time></trkpt><trkpt lat="59.0969416592" lon="30.0154339895"><ele>76.56</ele><time>2026-04-22T11:22:16Z</time></trkpt><trkpt lat="59.0968924575" lon="30.0152905751"><ele>76.56</ele><time>2026-04-22T11:22:28Z</time></trkpt><trkpt lat="59.0968734305" lon="30.0151355937"><ele>76.56</ele><time>2026-04-22T11:22:38Z</time></trkpt><trkpt lat="59.0968223009" lon="30.0150469970"><ele>76.56</ele><time>2026-04-22T11:22:44Z</time></trkpt><trkpt lat="59.0967970714" lon="30.0148678757"><ele>76.56</ele><time>2026-04-22T11:22:56Z</time></trkpt><trkpt lat="59.0968045313" lon="30.0147532951"><ele>76.56</ele><time>2026-04-22T11:23:08Z</time></trkpt><trkpt lat="59.0968446806" lon="30.0145274028"><ele>76.56</ele><time>2026-04-22T11:23:20Z</time></trkpt><trkpt lat="59.0968524758" lon="30.0144519657"><ele>76.08</ele><time>2026-04-22T11:23:30Z</time></trkpt><trkpt lat="59.0968845785" lon="30.0143566635"><ele>76.08</ele><time>2026-04-22T11:23:40Z</time></trkpt><trkpt lat="59.0969036054" lon="30.0142951403"><ele>76.08</ele><time>2026-04-22T11:23:50Z</time></trkpt><trkpt lat="59.0969081316" lon="30.0142522249"><ele>76.08</ele><time>2026-04-22T11:24:01Z</time></trkpt><trkpt lat="59.0969419945" lon="30.0141273346"><ele>76.08</ele><time>2026-04-22T11:24:14Z</time></trkpt><trkpt lat="59.0969649609" lon="30.0140435155"><ele>76.08</ele><time>2026-04-22T11:24:23Z</time></trkpt><trkpt lat="59.0969771147" lon="30.0139731076"><ele>76.08</ele><time>2026-04-22T11:24:31Z</time></trkpt><trkpt lat="59.0969897714" lon="30.0138794817"><ele>74.64</ele><time>2026-04-22T11:24:35Z</time></trkpt><trkpt lat="59.0969764441" lon="30.0137028750"><ele>74.64</ele><time>2026-04-22T11:24:51Z</time></trkpt><trkpt lat="59.0969777014" lon="30.0135763921"><ele>74.64</ele><time>2026-04-22T11:25:01Z</time></trkpt><trkpt lat="59.0969761927" lon="30.0135354046"><ele>74.64</ele><time>2026-04-22T11:25:03Z</time></trkpt><trkpt lat="59.0969580039" lon="30.0132882223"><ele>75.60</ele><time>2026-04-22T11:25:13Z</time></trkpt><trkpt lat="59.0969560761" lon="30.0132361706"><ele>75.60</ele><time>2026-04-22T11:25:15Z</time></trkpt><trkpt lat="59.0969191957" lon="30.0130241923"><ele>75.12</ele><time>2026-04-22T11:25:22Z</time></trkpt><trkpt lat="59.0968846623" lon="30.0128723960"><ele>75.60</ele><time>2026-04-22T11:25:27Z</time></trkpt><trkpt lat="59.0968365502" lon="30.0126290694"><ele>75.60</ele><time>2026-04-22T11:25:37Z</time></trkpt><trkpt lat="59.0968003403" lon="30.0124824699"><ele>76.08</ele><time>2026-04-22T11:25:46Z</time></trkpt><trkpt lat="59.0967634600" lon="30.0123055279"><ele>76.56</ele><time>2026-04-22T11:25:55Z</time></trkpt><trkpt lat="59.0967218857" lon="30.0119768735"><ele>76.56</ele><time>2026-04-22T11:26:06Z</time></trkpt><trkpt lat="59.0967039485" lon="30.0119130034"><ele>76.56</ele><time>2026-04-22T11:26:09Z</time></trkpt><trkpt lat="59.0966768749" lon="30.0117480475"><ele>76.56</ele><time>2026-04-22T11:26:15Z</time></trkpt><trkpt lat="59.0966402460" lon="30.0114570279"><ele>76.56</ele><time>2026-04-22T11:26:26Z</time></trkpt><trkpt lat="59.0965938941" lon="30.0111556146"><ele>76.56</ele><time>2026-04-22T11:26:39Z</time></trkpt><trkpt lat="59.0965649765" lon="30.0110285450"><ele>77.04</ele><time>2026-04-22T11:26:45Z</time></trkpt><trkpt lat="59.0965504758" lon="30.0108664390"><ele>77.04</ele><time>2026-04-22T11:26:51Z</time></trkpt><trkpt lat="59.0965191275" lon="30.0107270479"><ele>77.04</ele><time>2026-04-22T11:26:57Z</time></trkpt><trkpt lat="59.0964974184" lon="30.0106583163"><ele>77.04</ele><time>2026-04-22T11:27:00Z</time></trkpt><trkpt lat="59.0964843426" lon="30.0105604995"><ele>77.04</ele><time>2026-04-22T11:27:05Z</time></trkpt><trkpt lat="59.0964256693" lon="30.0102849025"><ele>77.04</ele><time>2026-04-22T11:27:17Z</time></trkpt><trkpt lat="59.0964068100" lon="30.0101972278"><ele>77.04</ele><time>2026-04-22T11:27:21Z</time></trkpt><trkpt lat="59.0963827539" lon="30.0099552423"><ele>77.04</ele><time>2026-04-22T11:27:32Z</time></trkpt><trkpt lat="59.0963588655" lon="30.0098099839"><ele>77.04</ele><time>2026-04-22T11:27:40Z</time></trkpt><trkpt lat="59.0963104181" lon="30.0095966645"><ele>77.04</ele><time>2026-04-22T11:27:51Z</time></trkpt><trkpt lat="59.0962794889" lon="30.0094538368"><ele>77.04</ele><time>2026-04-22T11:28:04Z</time></trkpt><trkpt lat="59.0962762199" lon="30.0094173755"><ele>76.56</ele><time>2026-04-22T11:28:07Z</time></trkpt><trkpt lat="59.0962545108" lon="30.0091846101"><ele>76.56</ele><time>2026-04-22T11:28:20Z</time></trkpt><trkpt lat="59.0962265991" lon="30.0090075005"><ele>76.56</ele><time>2026-04-22T11:28:31Z</time></trkpt><trkpt lat="59.0961606335" lon="30.0087596476"><ele>76.56</ele><time>2026-04-22T11:28:42Z</time></trkpt><trkpt lat="59.0961424448" lon="30.0087406207"><ele>76.08</ele><time>2026-04-22T11:28:52Z</time></trkpt><trkpt lat="59.0961056482" lon="30.0086864736"><ele>76.08</ele><time>2026-04-22T11:29:04Z</time></trkpt><trkpt lat="59.0960969310" lon="30.0086394511"><ele>76.08</ele><time>2026-04-22T11:29:17Z</time></trkpt><trkpt lat="59.0960533451" lon="30.0085346773"><ele>75.60</ele><time>2026-04-22T11:29:29Z</time></trkpt><trkpt lat="59.0960266069" lon="30.0084830448"><ele>75.60</ele><time>2026-04-22T11:29:43Z</time></trkpt><trkpt lat="59.0960138664" lon="30.0084674545"><ele>75.60</ele><time>2026-04-22T11:29:53Z</time></trkpt><trkpt lat="59.0959903970" lon="30.0084701367"><ele>75.12</ele><time>2026-04-22T11:30:25Z</time></trkpt><trkpt lat="59.0959896427" lon="30.0084516965"><ele>75.12</ele><time>2026-04-22T11:30:55Z</time></trkpt><trkpt lat="59.0959934983" lon="30.0084033329"><ele>75.12</ele><time>2026-04-22T11:31:14Z</time></trkpt><trkpt lat="59.0959461406" lon="30.0083734095"><ele>75.12</ele><time>2026-04-22T11:31:25Z</time></trkpt><trkpt lat="59.0958924126" lon="30.0083218608"><ele>75.12</ele><time>2026-04-22T11:31:36Z</time></trkpt><trkpt lat="59.0958625730" lon="30.0082700606"><ele>75.12</ele><time>2026-04-22T11:31:56Z</time></trkpt><trkpt lat="59.0958108567" lon="30.0082746707"><ele>74.64</ele><time>2026-04-22T11:32:16Z</time></trkpt><trkpt lat="59.0957671031" lon="30.0082801189"><ele>74.64</ele><time>2026-04-22T11:32:28Z</time></trkpt><trkpt lat="59.0957483277" lon="30.0082636066"><ele>74.64</ele><time>2026-04-22T11:32:44Z</time></trkpt><trkpt lat="59.0957109444" lon="30.0081863254"><ele>74.64</ele><time>2026-04-22T11:32:55Z</time></trkpt><trkpt lat="59.0956531093" lon="30.0080531370"><ele>74.64</ele><time>2026-04-22T11:33:06Z</time></trkpt><trkpt lat="59.0956056677" lon="30.0079098903"><ele>74.16</ele><time>2026-04-22T11:33:16Z</time></trkpt><trkpt lat="59.0955646802" lon="30.0077470299"><ele>74.16</ele><time>2026-04-22T11:33:26Z</time></trkpt><trkpt lat="59.0954936016" lon="30.0075147673"><ele>74.16</ele><time>2026-04-22T11:33:38Z</time></trkpt><trkpt lat="59.0954577271" lon="30.0073947385"><ele>74.16</ele><time>2026-04-22T11:33:50Z</time></trkpt><trkpt lat="59.0953955334" lon="30.0072536711"><ele>74.16</ele><time>2026-04-22T11:34:01Z</time></trkpt><trkpt lat="59.0953865647" lon="30.0071931537"><ele>73.68</ele><time>2026-04-22T11:34:13Z</time></trkpt><trkpt lat="59.0953654423" lon="30.0070423633"><ele>73.68</ele><time>2026-04-22T11:34:22Z</time></trkpt><trkpt lat="59.0952978004" lon="30.0069038942"><ele>73.68</ele><time>2026-04-22T11:34:34Z</time></trkpt><trkpt lat="59.0952578187" lon="30.0066615734"><ele>74.16</ele><time>2026-04-22T11:34:45Z</time></trkpt><trkpt lat="59.0952508617" lon="30.0066184904"><ele>74.16</ele><time>2026-04-22T11:34:47Z</time></trkpt><trkpt lat="59.0952169150" lon="30.0064491760"><ele>74.16</ele><time>2026-04-22T11:34:59Z</time></trkpt><trkpt lat="59.0952049289" lon="30.0063977111"><ele>74.16</ele><time>2026-04-22T11:35:17Z</time></trkpt><trkpt lat="59.0951646958" lon="30.0061594136"><ele>74.16</ele><time>2026-04-22T11:35:30Z</time></trkpt><trkpt lat="59.0951349400" lon="30.0061274786"><ele>74.16</ele><time>2026-04-22T11:35:46Z</time></trkpt><trkpt lat="59.0951022506" lon="30.0060981419"><ele>74.16</ele><time>2026-04-22T11:35:57Z</time></trkpt><trkpt lat="59.0950880852" lon="30.0060729962"><ele>74.16</ele><time>2026-04-22T11:36:09Z</time></trkpt><trkpt lat="59.0950783622" lon="30.0060145743"><ele>74.16</ele><time>2026-04-22T11:36:24Z</time></trkpt><trkpt lat="59.0950748418" lon="30.0059480220"><ele>74.16</ele><time>2026-04-22T11:36:34Z</time></trkpt><trkpt lat="59.0950622689" lon="30.0058352016"><ele>74.16</ele><time>2026-04-22T11:36:44Z</time></trkpt><trkpt lat="59.0950206108" lon="30.0056781247"><ele>74.16</ele><time>2026-04-22T11:36:54Z</time></trkpt><trkpt lat="59.0950084571" lon="30.0055347104"><ele>74.16</ele><time>2026-04-22T11:37:06Z</time></trkpt><trkpt lat="59.0950128995" lon="30.0053835846"><ele>74.16</ele><time>2026-04-22T11:37:17Z</time></trkpt><trkpt lat="59.0950206108" lon="30.0053600315"><ele>74.16</ele><time>2026-04-22T11:37:19Z</time></trkpt><trkpt lat="59.0950602572" lon="30.0051994342"><ele>74.16</ele><time>2026-04-22T11:37:34Z</time></trkpt><trkpt lat="59.0950524621" lon="30.0051310379"><ele>74.16</ele><time>2026-04-22T11:37:43Z</time></trkpt><trkpt lat="59.0950283222" lon="30.0049568620"><ele>74.16</ele><time>2026-04-22T11:37:53Z</time></trkpt><trkpt lat="59.0950040147" lon="30.0049027987"><ele>74.16</ele><time>2026-04-22T11:37:57Z</time></trkpt><trkpt lat="59.0949808806" lon="30.0048340671"><ele>74.16</ele><time>2026-04-22T11:38:09Z</time></trkpt><trkpt lat="59.0949605126" lon="30.0047548581"><ele>74.16</ele><time>2026-04-22T11:38:19Z</time></trkpt><trkpt lat="59.0949323494" lon="30.0046690274"><ele>74.16</ele><time>2026-04-22T11:38:29Z</time></trkpt><trkpt lat="59.0949191898" lon="30.0046242680"><ele>73.68</ele><time>2026-04-22T11:38:40Z</time></trkpt><trkpt lat="59.0948840696" lon="30.0045610685"><ele>73.68</ele><time>2026-04-22T11:38:52Z</time></trkpt><trkpt lat="59.0948585887" lon="30.0044946000"><ele>73.68</ele><time>2026-04-22T11:39:08Z</time></trkpt><trkpt lat="59.0948538948" lon="30.0043770019"><ele>73.68</ele><time>2026-04-22T11:39:22Z</time></trkpt><trkpt lat="59.0948094707" lon="30.0041735731"><ele>73.68</ele><time>2026-04-22T11:39:34Z</time></trkpt><trkpt lat="59.0947971493" lon="30.0040760078"><ele>73.20</ele><time>2026-04-22T11:39:45Z</time></trkpt><trkpt lat="59.0947906114" lon="30.0040620938"><ele>73.20</ele><time>2026-04-22T11:39:47Z</time></trkpt><trkpt lat="59.0947647952" lon="30.0039366167"><ele>73.20</ele><time>2026-04-22T11:39:57Z</time></trkpt><trkpt lat="59.0947623644" lon="30.0039246306"><ele>73.20</ele><time>2026-04-22T11:40:13Z</time></trkpt><trkpt lat="59.0947362129" lon="30.0038567372"><ele>73.20</ele><time>2026-04-22T11:40:40Z</time></trkpt><trkpt lat="59.0947139170" lon="30.0038142409"><ele>73.20</ele><time>2026-04-22T11:41:10Z</time></trkpt><trkpt lat="59.0947149228" lon="30.0037922803"><ele>73.20</ele><time>2026-04-22T11:41:32Z</time></trkpt><trkpt lat="59.0947142523" lon="30.0037909392"><ele>73.20</ele><time>2026-04-22T11:41:36Z</time></trkpt><trkpt lat="59.0946870111" lon="30.0037565734"><ele>73.20</ele><time>2026-04-22T11:41:46Z</time></trkpt><trkpt lat="59.0946890227" lon="30.0036272407"><ele>73.68</ele><time>2026-04-22T11:41:57Z</time></trkpt><trkpt lat="59.0946814790" lon="30.0035622809"><ele>73.68</ele><time>2026-04-22T11:42:19Z</time></trkpt><trkpt lat="59.0946692415" lon="30.0035118219"><ele>73.68</ele><time>2026-04-22T11:42:30Z</time></trkpt><trkpt lat="59.0946717560" lon="30.0034454372"><ele>73.68</ele><time>2026-04-22T11:42:39Z</time></trkpt><trkpt lat="59.0946605243" lon="30.0033440161"><ele>74.16</ele><time>2026-04-22T11:42:51Z</time></trkpt><trkpt lat="59.0946543217" lon="30.0032660645"><ele>74.16</ele><time>2026-04-22T11:43:17Z</time></trkpt><trkpt lat="59.0946247336" lon="30.0031565968"><ele>74.64</ele><time>2026-04-22T11:43:27Z</time></trkpt><trkpt lat="59.0946212970" lon="30.0030546729"><ele>74.64</ele><time>2026-04-22T11:43:37Z</time></trkpt><trkpt lat="59.0946061257" lon="30.0029784814"><ele>74.64</ele><time>2026-04-22T11:43:47Z</time></trkpt><trkpt lat="59.0945958998" lon="30.0028991885"><ele>74.64</ele><time>2026-04-22T11:43:58Z</time></trkpt><trkpt lat="59.0945450217" lon="30.0028348994"><ele>74.16</ele><time>2026-04-22T11:44:11Z</time></trkpt><trkpt lat="59.0944491327" lon="30.0027894694"><ele>74.16</ele><time>2026-04-22T11:44:23Z</time></trkpt><trkpt lat="59.0944354702" lon="30.0026875455"><ele>74.16</ele><time>2026-04-22T11:44:32Z</time></trkpt><trkpt lat="59.0944356378" lon="30.0026616454"><ele>74.16</ele><time>2026-04-22T11:44:34Z</time></trkpt><trkpt lat="59.0944173653" lon="30.0025975239"><ele>74.16</ele><time>2026-04-22T11:44:46Z</time></trkpt><trkpt lat="59.0943903755" lon="30.0024911575"><ele>74.16</ele><time>2026-04-22T11:44:56Z</time></trkpt><trkpt lat="59.0943556745" lon="30.0023980346"><ele>74.64</ele><time>2026-04-22T11:45:15Z</time></trkpt><trkpt lat="59.0943175368" lon="30.0023175683"><ele>74.16</ele><time>2026-04-22T11:45:30Z</time></trkpt><trkpt lat="59.0942467097" lon="30.0022860523"><ele>74.16</ele><time>2026-04-22T11:45:43Z</time></trkpt><trkpt lat="59.0942122601" lon="30.0022871420"><ele>74.16</ele><time>2026-04-22T11:45:55Z</time></trkpt><trkpt lat="59.0941475518" lon="30.0022795144"><ele>74.16</ele><time>2026-04-22T11:46:06Z</time></trkpt><trkpt lat="59.0940851904" lon="30.0022733957"><ele>74.16</ele><time>2026-04-22T11:46:18Z</time></trkpt><trkpt lat="59.0940293670" lon="30.0022605713"><ele>73.68</ele><time>2026-04-22T11:46:37Z</time></trkpt><trkpt lat="59.0939632338" lon="30.0022583082"><ele>74.16</ele><time>2026-04-22T11:46:56Z</time></trkpt><trkpt lat="59.0939490683" lon="30.0022087712"><ele>74.16</ele><time>2026-04-22T11:47:04Z</time></trkpt><trkpt lat="59.0939501580" lon="30.0021427218"><ele>74.16</ele><time>2026-04-22T11:47:13Z</time></trkpt><trkpt lat="59.0939808358" lon="30.0020313263"><ele>73.68</ele><time>2026-04-22T11:47:25Z</time></trkpt><trkpt lat="59.0939640719" lon="30.0019922666"><ele>73.68</ele><time>2026-04-22T11:47:31Z</time></trkpt><trkpt lat="59.0939567797" lon="30.0018410571"><ele>74.16</ele><time>2026-04-22T11:47:42Z</time></trkpt><trkpt lat="59.0939797461" lon="30.0016930327"><ele>74.16</ele><time>2026-04-22T11:47:55Z</time></trkpt><trkpt lat="59.0939991921" lon="30.0016763527"><ele>74.64</ele><time>2026-04-22T11:48:06Z</time></trkpt><trkpt lat="59.0940077417" lon="30.0016354490"><ele>74.64</ele><time>2026-04-22T11:48:17Z</time></trkpt><trkpt lat="59.0940512437" lon="30.0015675556"><ele>73.68</ele><time>2026-04-22T11:48:29Z</time></trkpt><trkpt lat="59.0940584522" lon="30.0015732553"><ele>73.20</ele><time>2026-04-22T11:48:32Z</time></trkpt><trkpt lat="59.0941231605" lon="30.0015092175"><ele>73.20</ele><time>2026-04-22T11:48:43Z</time></trkpt><trkpt lat="59.0941581968" lon="30.0015071221"><ele>74.64</ele><time>2026-04-22T11:48:53Z</time></trkpt><trkpt lat="59.0942445304" lon="30.0014753547"><ele>74.64</ele><time>2026-04-22T11:49:06Z</time></trkpt><trkpt lat="59.0943369828" lon="30.0014014263"><ele>74.64</ele><time>2026-04-22T11:49:18Z</time></trkpt><trkpt lat="59.0944890305" lon="30.0013665576"><ele>74.16</ele><time>2026-04-22T11:49:30Z</time></trkpt><trkpt lat="59.0946150105" lon="30.0013291743"><ele>74.16</ele><time>2026-04-22T11:49:40Z</time></trkpt><trkpt lat="59.0946700796" lon="30.0013472792"><ele>74.16</ele><time>2026-04-22T11:49:49Z</time></trkpt><trkpt lat="59.0947316866" lon="30.0013015978"><ele>74.16</ele><time>2026-04-22T11:49:59Z</time></trkpt><trkpt lat="59.0948101413" lon="30.0011350494"><ele>74.16</ele><time>2026-04-22T11:50:11Z</time></trkpt><trkpt lat="59.0947786253" lon="30.0009034574"><ele>74.16</ele><time>2026-04-22T11:50:24Z</time></trkpt><trkpt lat="59.0947502106" lon="30.0006478094"><ele>74.16</ele><time>2026-04-22T11:50:35Z</time></trkpt><trkpt lat="59.0946803056" lon="30.0002836157"><ele>74.64</ele><time>2026-04-22T11:50:48Z</time></trkpt><trkpt lat="59.0946519747" lon="30.0000826176"><ele>74.64</ele><time>2026-04-22T11:51:01Z</time></trkpt><trkpt lat="59.0945783816" lon="29.9996802863"><ele>74.64</ele><time>2026-04-22T11:51:13Z</time></trkpt><trkpt lat="59.0945548285" lon="29.9994362891"><ele>74.64</ele><time>2026-04-22T11:51:25Z</time></trkpt><trkpt lat="59.0945093986" lon="29.9992419127"><ele>74.64</ele><time>2026-04-22T11:51:38Z</time></trkpt><trkpt lat="59.0944663994" lon="29.9989736918"><ele>75.12</ele><time>2026-04-22T11:51:52Z</time></trkpt><trkpt lat="59.0944266692" lon="29.9988106638"><ele>75.12</ele><time>2026-04-22T11:52:04Z</time></trkpt><trkpt lat="59.0944160242" lon="29.9987782259"><ele>75.12</ele><time>2026-04-22T11:52:06Z</time></trkpt><trkpt lat="59.0943897050" lon="29.9987467937"><ele>75.12</ele><time>2026-04-22T11:52:09Z</time></trkpt><trkpt lat="59.0943410899" lon="29.9985185545"><ele>75.12</ele><time>2026-04-22T11:52:24Z</time></trkpt><trkpt lat="59.0943197161" lon="29.9982892256"><ele>75.60</ele><time>2026-04-22T11:52:36Z</time></trkpt><trkpt lat="59.0942843445" lon="29.9981349986"><ele>76.08</ele><time>2026-04-22T11:52:57Z</time></trkpt><trkpt lat="59.0942837577" lon="29.9981215037"><ele>76.08</ele><time>2026-04-22T11:53:00Z</time></trkpt><trkpt lat="59.0942527447" lon="29.9980166461"><ele>76.08</ele><time>2026-04-22T11:53:12Z</time></trkpt><trkpt lat="59.0942514874" lon="29.9979724735"><ele>76.08</ele><time>2026-04-22T11:53:15Z</time></trkpt><trkpt lat="59.0942154452" lon="29.9975926895"><ele>74.64</ele><time>2026-04-22T11:53:27Z</time></trkpt><trkpt lat="59.0942148585" lon="29.9975625146"><ele>74.64</ele><time>2026-04-22T11:53:28Z</time></trkpt><trkpt lat="59.0942162834" lon="29.9974465929"><ele>74.64</ele><time>2026-04-22T11:53:33Z</time></trkpt><trkpt lat="59.0941945743" lon="29.9973149132"><ele>74.64</ele><time>2026-04-22T11:53:48Z</time></trkpt><trkpt lat="59.0941809956" lon="29.9973211158"><ele>74.64</ele><time>2026-04-22T11:54:05Z</time></trkpt><trkpt lat="59.0941772237" lon="29.9973161705"><ele>74.64</ele><time>2026-04-22T11:54:13Z</time></trkpt><trkpt lat="59.0941738710" lon="29.9970949721"><ele>74.64</ele><time>2026-04-22T11:54:25Z</time></trkpt><trkpt lat="59.0941690933" lon="29.9969125818"><ele>74.64</ele><time>2026-04-22T11:54:36Z</time></trkpt><trkpt lat="59.0941395890" lon="29.9966261722"><ele>74.64</ele><time>2026-04-22T11:54:49Z</time></trkpt><trkpt lat="59.0941033792" lon="29.9964546785"><ele>74.64</ele><time>2026-04-22T11:54:58Z</time></trkpt><trkpt lat="59.0940519981" lon="29.9962940812"><ele>74.64</ele><time>2026-04-22T11:55:02Z</time></trkpt><trkpt lat="59.0940250922" lon="29.9961672630"><ele>74.64</ele><time>2026-04-22T11:55:05Z</time></trkpt><trkpt lat="59.0939668380" lon="29.9959900696"><ele>74.64</ele><time>2026-04-22T11:55:17Z</time></trkpt><trkpt lat="59.0939149540" lon="29.9957809411"><ele>75.12</ele><time>2026-04-22T11:55:29Z</time></trkpt><trkpt lat="59.0938931610" lon="29.9954976328"><ele>75.12</ele><time>2026-04-22T11:55:40Z</time></trkpt><trkpt lat="59.0938458033" lon="29.9952802900"><ele>75.12</ele><time>2026-04-22T11:55:50Z</time></trkpt><trkpt lat="59.0937771555" lon="29.9950742628"><ele>75.12</ele><time>2026-04-22T11:55:59Z</time></trkpt><trkpt lat="59.0937560331" lon="29.9950280786"><ele>75.12</ele><time>2026-04-22T11:56:17Z</time></trkpt><trkpt lat="59.0937523451" lon="29.9950258993"><ele>75.12</ele><time>2026-04-22T11:56:32Z</time></trkpt><trkpt lat="59.0937639121" lon="29.9950743467"><ele>75.12</ele><time>2026-04-22T11:56:46Z</time></trkpt><trkpt lat="59.0937674325" lon="29.9950735923"><ele>75.12</ele><time>2026-04-22T11:57:13Z</time></trkpt><trkpt lat="59.0937582124" lon="29.9950900208"><ele>75.60</ele><time>2026-04-22T11:57:44Z</time></trkpt><trkpt lat="59.0937325638" lon="29.9950871710"><ele>75.60</ele><time>2026-04-22T11:58:10Z</time></trkpt><trkpt lat="59.0937238466" lon="29.9950816389"><ele>76.08</ele><time>2026-04-22T11:58:30Z</time></trkpt><trkpt lat="59.0937194042" lon="29.9950648751"><ele>76.08</ele><time>2026-04-22T11:58:31Z</time></trkpt><trkpt lat="59.0936885588" lon="29.9948884360"><ele>76.08</ele><time>2026-04-22T11:58:39Z</time></trkpt><trkpt lat="59.0936206654" lon="29.9946540780"><ele>76.08</ele><time>2026-04-22T11:58:48Z</time></trkpt><trkpt lat="59.0935995430" lon="29.9943439476"><ele>76.08</ele><time>2026-04-22T11:58:58Z</time></trkpt><trkpt lat="59.0935997106" lon="29.9943022896"><ele>76.08</ele><time>2026-04-22T11:58:59Z</time></trkpt><trkpt lat="59.0936005488" lon="29.9942714442"><ele>76.08</ele><time>2026-04-22T11:59:00Z</time></trkpt><trkpt lat="59.0935918316" lon="29.9941467214"><ele>76.08</ele><time>2026-04-22T11:59:05Z</time></trkpt><trkpt lat="59.0935857967" lon="29.9941219948"><ele>76.08</ele><time>2026-04-22T11:59:06Z</time></trkpt><trkpt lat="59.0935798455" lon="29.9940924905"><ele>76.08</ele><time>2026-04-22T11:59:07Z</time></trkpt><trkpt lat="59.0935766604" lon="29.9940618966"><ele>76.08</ele><time>2026-04-22T11:59:08Z</time></trkpt><trkpt lat="59.0935769118" lon="29.9940337334"><ele>76.08</ele><time>2026-04-22T11:59:09Z</time></trkpt><trkpt lat="59.0935800970" lon="29.9939996190"><ele>76.08</ele><time>2026-04-22T11:59:10Z</time></trkpt><trkpt lat="59.0935820248" lon="29.9939409457"><ele>75.60</ele><time>2026-04-22T11:59:13Z</time></trkpt><trkpt lat="59.0935774986" lon="29.9939133693"><ele>75.60</ele><time>2026-04-22T11:59:14Z</time></trkpt><trkpt lat="59.0934935119" lon="29.9936350901"><ele>75.60</ele><time>2026-04-22T11:59:25Z</time></trkpt><trkpt lat="59.0934366826" lon="29.9933761731"><ele>75.60</ele><time>2026-04-22T11:59:37Z</time></trkpt><trkpt lat="59.0934324916" lon="29.9933196791"><ele>75.60</ele><time>2026-04-22T11:59:39Z</time></trkpt><trkpt lat="59.0934347548" lon="29.9932832178"><ele>75.60</ele><time>2026-04-22T11:59:40Z</time></trkpt><trkpt lat="59.0934003890" lon="29.9930765200"><ele>75.60</ele><time>2026-04-22T11:59:51Z</time></trkpt><trkpt lat="59.0933625028" lon="29.9929247238"><ele>75.60</ele><time>2026-04-22T11:59:59Z</time></trkpt><trkpt lat="59.0933250356" lon="29.9928067066"><ele>75.60</ele><time>2026-04-22T12:00:09Z</time></trkpt><trkpt lat="59.0933170728" lon="29.9927344546"><ele>75.60</ele><time>2026-04-22T12:00:21Z</time></trkpt><trkpt lat="59.0933039971" lon="29.9926879350"><ele>75.60</ele><time>2026-04-22T12:00:29Z</time></trkpt><trkpt lat="59.0932961181" lon="29.9926674832"><ele>75.60</ele><time>2026-04-22T12:00:31Z</time></trkpt><trkpt lat="59.0932745766" lon="29.9924191274"><ele>75.60</ele><time>2026-04-22T12:00:43Z</time></trkpt><trkpt lat="59.0932370257" lon="29.9921842664"><ele>75.60</ele><time>2026-04-22T12:00:54Z</time></trkpt><trkpt lat="59.0932073537" lon="29.9919654988"><ele>75.60</ele><time>2026-04-22T12:01:06Z</time></trkpt><trkpt lat="59.0931808669" lon="29.9918098468"><ele>75.60</ele><time>2026-04-22T12:01:17Z</time></trkpt><trkpt lat="59.0931411367" lon="29.9915626645"><ele>75.12</ele><time>2026-04-22T12:01:29Z</time></trkpt><trkpt lat="59.0930891689" lon="29.9913948588"><ele>75.12</ele><time>2026-04-22T12:01:39Z</time></trkpt><trkpt lat="59.0930700582" lon="29.9913108721"><ele>75.12</ele><time>2026-04-22T12:01:48Z</time></trkpt><trkpt lat="59.0930342674" lon="29.9911377020"><ele>75.12</ele><time>2026-04-22T12:01:59Z</time></trkpt><trkpt lat="59.0930034220" lon="29.9909806252"><ele>75.60</ele><time>2026-04-22T12:02:09Z</time></trkpt><trkpt lat="59.0929419827" lon="29.9908105563"><ele>75.60</ele><time>2026-04-22T12:02:18Z</time></trkpt><trkpt lat="59.0929117240" lon="29.9906805530"><ele>75.60</ele><time>2026-04-22T12:02:26Z</time></trkpt><trkpt lat="59.0929017495" lon="29.9906477798"><ele>75.60</ele><time>2026-04-22T12:02:28Z</time></trkpt><trkpt lat="59.0928616002" lon="29.9905335344"><ele>75.60</ele><time>2026-04-22T12:02:39Z</time></trkpt><trkpt lat="59.0928611811" lon="29.9905660562"><ele>75.12</ele><time>2026-04-22T12:02:54Z</time></trkpt><trkpt lat="59.0928412322" lon="29.9906533957"><ele>75.12</ele><time>2026-04-22T12:03:04Z</time></trkpt><trkpt lat="59.0928354487" lon="29.9906606879"><ele>75.12</ele><time>2026-04-22T12:03:21Z</time></trkpt><trkpt lat="59.0928449202" lon="29.9906520545"><ele>75.12</ele><time>2026-04-22T12:03:34Z</time></trkpt><trkpt lat="59.0928543918" lon="29.9906098936"><ele>75.12</ele><time>2026-04-22T12:03:44Z</time></trkpt><trkpt lat="59.0928738378" lon="29.9905771203"><ele>75.12</ele><time>2026-04-22T12:04:00Z</time></trkpt><trkpt lat="59.0928916074" lon="29.9905438442"><ele>75.12</ele><time>2026-04-22T12:04:06Z</time></trkpt><trkpt lat="59.0929030068" lon="29.9903962389"><ele>75.12</ele><time>2026-04-22T12:04:17Z</time></trkpt><trkpt lat="59.0928951278" lon="29.9903459474"><ele>75.12</ele><time>2026-04-22T12:04:30Z</time></trkpt><trkpt lat="59.0928838961" lon="29.9902655650"><ele>75.60</ele><time>2026-04-22T12:04:42Z</time></trkpt><trkpt lat="59.0928561520" lon="29.9901270121"><ele>75.60</ele><time>2026-04-22T12:04:55Z</time></trkpt><trkpt lat="59.0928507876" lon="29.9899726175"><ele>75.12</ele><time>2026-04-22T12:05:17Z</time></trkpt><trkpt lat="59.0928599238" lon="29.9899638165"><ele>75.12</ele><time>2026-04-22T12:05:18Z</time></trkpt><trkpt lat="59.0929311700" lon="29.9899528362"><ele>75.12</ele><time>2026-04-22T12:05:25Z</time></trkpt><trkpt lat="59.0929413959" lon="29.9899384193"><ele>75.12</ele><time>2026-04-22T12:05:26Z</time></trkpt><trkpt lat="59.0929758456" lon="29.9899142794"><ele>75.12</ele><time>2026-04-22T12:05:30Z</time></trkpt><trkpt lat="59.0930301603" lon="29.9899352342"><ele>75.12</ele><time>2026-04-22T12:05:43Z</time></trkpt><trkpt lat="59.0930124745" lon="29.9899287801"><ele>75.60</ele><time>2026-04-22T12:05:54Z</time></trkpt><trkpt lat="59.0929531306" lon="29.9898778182"><ele>75.60</ele><time>2026-04-22T12:06:01Z</time></trkpt><trkpt lat="59.0928611811" lon="29.9898520019"><ele>75.60</ele><time>2026-04-22T12:06:10Z</time></trkpt><trkpt lat="59.0928170923" lon="29.9898058176"><ele>76.08</ele><time>2026-04-22T12:06:15Z</time></trkpt><trkpt lat="59.0927762724" lon="29.9897068273"><ele>76.08</ele><time>2026-04-22T12:06:20Z</time></trkpt><trkpt lat="59.0927542280" lon="29.9895405304"><ele>76.08</ele><time>2026-04-22T12:06:26Z</time></trkpt><trkpt lat="59.0927593410" lon="29.9894491676"><ele>76.08</ele><time>2026-04-22T12:06:31Z</time></trkpt><trkpt lat="59.0927206166" lon="29.9891703855"><ele>76.08</ele><time>2026-04-22T12:06:44Z</time></trkpt><trkpt lat="59.0926782042" lon="29.9889847264"><ele>76.08</ele><time>2026-04-22T12:06:52Z</time></trkpt><trkpt lat="59.0926374681" lon="29.9888866581"><ele>76.08</ele><time>2026-04-22T12:06:58Z</time></trkpt><trkpt lat="59.0925632883" lon="29.9884770345"><ele>74.64</ele><time>2026-04-22T12:07:13Z</time></trkpt><trkpt lat="59.0925707482" lon="29.9883846659"><ele>74.64</ele><time>2026-04-22T12:07:17Z</time></trkpt><trkpt lat="59.0925494581" lon="29.9882597756"><ele>74.64</ele><time>2026-04-22T12:07:23Z</time></trkpt><trkpt lat="59.0925368015" lon="29.9881959055"><ele>74.64</ele><time>2026-04-22T12:07:26Z</time></trkpt><trkpt lat="59.0925257374" lon="29.9881041236"><ele>74.64</ele><time>2026-04-22T12:07:30Z</time></trkpt><trkpt lat="59.0925091412" lon="29.9880135152"><ele>74.64</ele><time>2026-04-22T12:07:33Z</time></trkpt><trkpt lat="59.0924873482" lon="29.9878656585"><ele>74.64</ele><time>2026-04-22T12:07:38Z</time></trkpt><trkpt lat="59.0924852528" lon="29.9877732899"><ele>74.64</ele><time>2026-04-22T12:07:42Z</time></trkpt><trkpt lat="59.0924453549" lon="29.9876796640"><ele>74.64</ele><time>2026-04-22T12:07:47Z</time></trkpt><trkpt lat="59.0924316086" lon="29.9876500759"><ele>74.64</ele><time>2026-04-22T12:07:49Z</time></trkpt><trkpt lat="59.0923941415" lon="29.9874690268"><ele>74.64</ele><time>2026-04-22T12:08:01Z</time></trkpt><trkpt lat="59.0923340432" lon="29.9872242752"><ele>74.64</ele><time>2026-04-22T12:08:10Z</time></trkpt><trkpt lat="59.0923000965" lon="29.9870754126"><ele>74.64</ele><time>2026-04-22T12:08:17Z</time></trkpt><trkpt lat="59.0922832489" lon="29.9870001432"><ele>74.64</ele><time>2026-04-22T12:08:20Z</time></trkpt><trkpt lat="59.0922235698" lon="29.9867149908"><ele>74.64</ele><time>2026-04-22T12:08:31Z</time></trkpt><trkpt lat="59.0921644773" lon="29.9866480194"><ele>74.16</ele><time>2026-04-22T12:08:43Z</time></trkpt><trkpt lat="59.0921658184" lon="29.9866321776"><ele>74.16</ele><time>2026-04-22T12:09:02Z</time></trkpt><trkpt lat="59.0921797324" lon="29.9866074510"><ele>74.16</ele><time>2026-04-22T12:09:21Z</time></trkpt><trkpt lat="59.0921716858" lon="29.9866020028"><ele>75.60</ele><time>2026-04-22T12:09:30Z</time></trkpt><trkpt lat="59.0921700932" lon="29.9866086245"><ele>75.60</ele><time>2026-04-22T12:09:39Z</time></trkpt><trkpt lat="59.0921700094" lon="29.9866023380"><ele>75.60</ele><time>2026-04-22T12:09:43Z</time></trkpt><trkpt lat="59.0921686683" lon="29.9866023380"><ele>75.60</ele><time>2026-04-22T12:09:54Z</time></trkpt><trkpt lat="59.0921763796" lon="29.9866106361"><ele>75.60</ele><time>2026-04-22T12:10:07Z</time></trkpt><trkpt lat="59.0921837557" lon="29.9866020866"><ele>75.12</ele><time>2026-04-22T12:10:22Z</time></trkpt><trkpt lat="59.0921830852" lon="29.9865963031"><ele>75.12</ele><time>2026-04-22T12:10:30Z</time></trkpt><trkpt lat="59.0922006872" lon="29.9865334388"><ele>75.12</ele><time>2026-04-22T12:10:42Z</time></trkpt><trkpt lat="59.0921890363" lon="29.9864730053"><ele>75.12</ele><time>2026-04-22T12:10:45Z</time></trkpt><trkpt lat="59.0921838395" lon="29.9864155054"><ele>75.12</ele><time>2026-04-22T12:10:56Z</time></trkpt><trkpt lat="59.0921788942" lon="29.9864129908"><ele>75.12</ele><time>2026-04-22T12:11:15Z</time></trkpt><trkpt lat="59.0921757929" lon="29.9864448421"><ele>75.12</ele><time>2026-04-22T12:11:17Z</time></trkpt><trkpt lat="59.0921628010" lon="29.9864496198"><ele>75.12</ele><time>2026-04-22T12:11:20Z</time></trkpt><trkpt lat="59.0921585262" lon="29.9864191934"><ele>75.12</ele><time>2026-04-22T12:11:31Z</time></trkpt><trkpt lat="59.0921610408" lon="29.9864202831"><ele>75.12</ele><time>2026-04-22T12:11:44Z</time></trkpt><trkpt lat="59.0921811573" lon="29.9864266533"><ele>75.12</ele><time>2026-04-22T12:11:55Z</time></trkpt><trkpt lat="59.0921869408" lon="29.9864258152"><ele>75.12</ele><time>2026-04-22T12:12:13Z</time></trkpt><trkpt lat="59.0922090691" lon="29.9863253161"><ele>75.12</ele><time>2026-04-22T12:12:35Z</time></trkpt><trkpt lat="59.0922247432" lon="29.9862520583"><ele>75.12</ele><time>2026-04-22T12:12:45Z</time></trkpt><trkpt lat="59.0922387410" lon="29.9863699079"><ele>75.12</ele><time>2026-04-22T12:12:47Z</time></trkpt><trkpt lat="59.0923368931" lon="29.9872816913"><ele>75.12</ele><time>2026-04-22T12:13:04Z</time></trkpt><trkpt lat="59.0923392400" lon="29.9872953538"><ele>75.12</ele><time>2026-04-22T12:13:19Z</time></trkpt><trkpt lat="59.0923366416" lon="29.9872633349"><ele>75.12</ele><time>2026-04-22T12:13:20Z</time></trkpt><trkpt lat="59.0923411679" lon="29.9871421326"><ele>75.12</ele><time>2026-04-22T12:13:25Z</time></trkpt><trkpt lat="59.0923387371" lon="29.9871151429"><ele>75.12</ele><time>2026-04-22T12:13:26Z</time></trkpt><trkpt lat="59.0923365578" lon="29.9870843813"><ele>75.12</ele><time>2026-04-22T12:13:27Z</time></trkpt><trkpt lat="59.0923340432" lon="29.9870574754"><ele>75.12</ele><time>2026-04-22T12:13:28Z</time></trkpt><trkpt lat="59.0923280921" lon="29.9870318267"><ele>75.12</ele><time>2026-04-22T12:13:29Z</time></trkpt><trkpt lat="59.0923156869" lon="29.9870069325"><ele>75.12</ele><time>2026-04-22T12:13:30Z</time></trkpt><trkpt lat="59.0922978334" lon="29.9869619217"><ele>74.64</ele><time>2026-04-22T12:13:32Z</time></trkpt><trkpt lat="59.0922949836" lon="29.9869344290"><ele>74.64</ele><time>2026-04-22T12:13:33Z</time></trkpt><trkpt lat="59.0922173671" lon="29.9866430741"><ele>74.64</ele><time>2026-04-22T12:13:45Z</time></trkpt><trkpt lat="59.0922142658" lon="29.9866129830"><ele>74.64</ele><time>2026-04-22T12:14:01Z</time></trkpt><trkpt lat="59.0922223125" lon="29.9866175093"><ele>74.64</ele><time>2026-04-22T12:14:30Z</time></trkpt><trkpt lat="59.0922203846" lon="29.9866143242"><ele>74.64</ele><time>2026-04-22T12:14:51Z</time></trkpt><trkpt lat="59.0922255814" lon="29.9866182636"><ele>74.64</ele><time>2026-04-22T12:15:06Z</time></trkpt><trkpt lat="59.0922231507" lon="29.9866116419"><ele>74.64</ele><time>2026-04-22T12:15:30Z</time></trkpt><trkpt lat="59.0922188759" lon="29.9866185151"><ele>74.64</ele><time>2026-04-22T12:15:51Z</time></trkpt><trkpt lat="59.0922142658" lon="29.9865875021"><ele>75.12</ele><time>2026-04-22T12:16:13Z</time></trkpt><trkpt lat="59.0922161937" lon="29.9865885079"><ele>75.12</ele><time>2026-04-22T12:16:24Z</time></trkpt><trkpt lat="59.0922137629" lon="29.9865612667"><ele>75.12</ele><time>2026-04-22T12:16:48Z</time></trkpt><trkpt lat="59.0922053810" lon="29.9865857419"><ele>75.12</ele><time>2026-04-22T12:17:00Z</time></trkpt><trkpt lat="59.0922118351" lon="29.9865859933"><ele>75.12</ele><time>2026-04-22T12:17:14Z</time></trkpt><trkpt lat="59.0922067221" lon="29.9865735043"><ele>75.12</ele><time>2026-04-22T12:17:38Z</time></trkpt><trkpt lat="59.0922092367" lon="29.9865967222"><ele>75.12</ele><time>2026-04-22T12:17:47Z</time></trkpt><trkpt lat="59.0921997651" lon="29.9865225423"><ele>75.12</ele><time>2026-04-22T12:17:54Z</time></trkpt><trkpt lat="59.0921976697" lon="29.9864992406"><ele>75.12</ele><time>2026-04-22T12:17:55Z</time></trkpt><trkpt lat="59.0921899583" lon="29.9864333589"><ele>73.68</ele><time>2026-04-22T12:17:58Z</time></trkpt><trkpt lat="59.0921869408" lon="29.9864079617"><ele>73.68</ele><time>2026-04-22T12:17:59Z</time></trkpt><trkpt lat="59.0921810735" lon="29.9863185268"><ele>73.68</ele><time>2026-04-22T12:18:11Z</time></trkpt><trkpt lat="59.0921870247" lon="29.9863601010"><ele>73.68</ele><time>2026-04-22T12:18:20Z</time></trkpt><trkpt lat="59.0921855997" lon="29.9863824807"><ele>73.68</ele><time>2026-04-22T12:18:21Z</time></trkpt><trkpt lat="59.0921804868" lon="29.9864798784"><ele>73.68</ele><time>2026-04-22T12:18:27Z</time></trkpt><trkpt lat="59.0921811573" lon="29.9865855742"><ele>73.68</ele><time>2026-04-22T12:18:40Z</time></trkpt><trkpt lat="59.0921824146" lon="29.9865952972"><ele>73.68</ele><time>2026-04-22T12:18:52Z</time></trkpt><trkpt lat="59.0922288503" lon="29.9867054354"><ele>73.68</ele><time>2026-04-22T12:19:02Z</time></trkpt><trkpt lat="59.0922960732" lon="29.9870440643"><ele>73.68</ele><time>2026-04-22T12:19:13Z</time></trkpt><trkpt lat="59.0923171118" lon="29.9873006344"><ele>73.68</ele><time>2026-04-22T12:19:22Z</time></trkpt><trkpt lat="59.0923539083" lon="29.9873811845"><ele>73.68</ele><time>2026-04-22T12:19:26Z</time></trkpt><trkpt lat="59.0923574287" lon="29.9874051567"><ele>73.68</ele><time>2026-04-22T12:19:27Z</time></trkpt><trkpt lat="59.0923631284" lon="29.9874299672"><ele>73.68</ele><time>2026-04-22T12:19:28Z</time></trkpt><trkpt lat="59.0923806466" lon="29.9875126965"><ele>73.68</ele><time>2026-04-22T12:19:32Z</time></trkpt><trkpt lat="59.0923938900" lon="29.9876013771"><ele>74.16</ele><time>2026-04-22T12:19:46Z</time></trkpt><trkpt lat="59.0924130846" lon="29.9876239244"><ele>74.16</ele><time>2026-04-22T12:19:57Z</time></trkpt><trkpt lat="59.0924081393" lon="29.9876818433"><ele>74.16</ele><time>2026-04-22T12:20:07Z</time></trkpt><trkpt lat="59.0924060438" lon="29.9876906443"><ele>74.16</ele><time>2026-04-22T12:20:31Z</time></trkpt><trkpt lat="59.0924103186" lon="29.9876955058"><ele>74.16</ele><time>2026-04-22T12:20:53Z</time></trkpt><trkpt lat="59.0924098995" lon="29.9876918178"><ele>74.64</ele><time>2026-04-22T12:21:21Z</time></trkpt><trkpt lat="59.0924181137" lon="29.9876767304"><ele>74.64</ele><time>2026-04-22T12:21:49Z</time></trkpt><trkpt lat="59.0924175270" lon="29.9876723718"><ele>74.64</ele><time>2026-04-22T12:22:15Z</time></trkpt><trkpt lat="59.0924116597" lon="29.9876796640"><ele>74.64</ele><time>2026-04-22T12:22:31Z</time></trkpt><trkpt lat="59.0924126655" lon="29.9876813404"><ele>74.64</ele><time>2026-04-22T12:22:59Z</time></trkpt><trkpt lat="59.0924133360" lon="29.9876808375"><ele>74.64</ele><time>2026-04-22T12:23:30Z</time></trkpt><trkpt lat="59.0924196225" lon="29.9876957573"><ele>74.64</ele><time>2026-04-22T12:23:33Z</time></trkpt><trkpt lat="59.0924208798" lon="29.9877166282"><ele>74.64</ele><time>2026-04-22T12:23:34Z</time></trkpt><trkpt lat="59.0924342070" lon="29.9877418578"><ele>74.64</ele><time>2026-04-22T12:23:45Z</time></trkpt><trkpt lat="59.0924323630" lon="29.9877527542"><ele>74.64</ele><time>2026-04-22T12:24:01Z</time></trkpt><trkpt lat="59.0924242325" lon="29.9877629802"><ele>74.64</ele><time>2026-04-22T12:24:09Z</time></trkpt><trkpt lat="59.0924316924" lon="29.9877499044"><ele>75.12</ele><time>2026-04-22T12:24:27Z</time></trkpt><trkpt lat="59.0924399067" lon="29.9877460487"><ele>75.12</ele><time>2026-04-22T12:24:44Z</time></trkpt><trkpt lat="59.0924504679" lon="29.9877390917"><ele>75.12</ele><time>2026-04-22T12:25:08Z</time></trkpt><trkpt lat="59.0924518090" lon="29.9877335597"><ele>75.12</ele><time>2026-04-22T12:25:26Z</time></trkpt><trkpt lat="59.0924554132" lon="29.9877344817"><ele>75.12</ele><time>2026-04-22T12:25:43Z</time></trkpt><trkpt lat="59.0924495459" lon="29.9877162930"><ele>75.12</ele><time>2026-04-22T12:25:59Z</time></trkpt><trkpt lat="59.0924496297" lon="29.9876691867"><ele>75.12</ele><time>2026-04-22T12:26:07Z</time></trkpt><trkpt lat="59.0924188681" lon="29.9876662530"><ele>74.64</ele><time>2026-04-22T12:26:36Z</time></trkpt><trkpt lat="59.0924240649" lon="29.9876775686"><ele>74.64</ele><time>2026-04-22T12:26:50Z</time></trkpt><trkpt lat="59.0924097318" lon="29.9877002835"><ele>74.64</ele><time>2026-04-22T12:26:59Z</time></trkpt><trkpt lat="59.0924130846" lon="29.9877115153"><ele>74.64</ele><time>2026-04-22T12:27:10Z</time></trkpt><trkpt lat="59.0924005117" lon="29.9877018761"><ele>74.64</ele><time>2026-04-22T12:27:35Z</time></trkpt><trkpt lat="59.0923864301" lon="29.9877007864"><ele>74.64</ele><time>2026-04-22T12:27:50Z</time></trkpt><trkpt lat="59.0923833288" lon="29.9876893032"><ele>74.64</ele><time>2026-04-22T12:27:58Z</time></trkpt><trkpt lat="59.0923891123" lon="29.9876869563"><ele>74.64</ele><time>2026-04-22T12:28:16Z</time></trkpt><trkpt lat="59.0923919622" lon="29.9876960088"><ele>74.64</ele><time>2026-04-22T12:28:41Z</time></trkpt><trkpt lat="59.0924042836" lon="29.9876658339"><ele>74.64</ele><time>2026-04-22T12:28:54Z</time></trkpt><trkpt lat="59.0924042836" lon="29.9876728747"><ele>74.64</ele><time>2026-04-22T12:29:12Z</time></trkpt><trkpt lat="59.0924176108" lon="29.9876257684"><ele>74.64</ele><time>2026-04-22T12:29:26Z</time></trkpt><trkpt lat="59.0924212150" lon="29.9874377623"><ele>74.64</ele><time>2026-04-22T12:29:34Z</time></trkpt><trkpt lat="59.0924128331" lon="29.9874003790"><ele>74.64</ele><time>2026-04-22T12:29:35Z</time></trkpt><trkpt lat="59.0923944768" lon="29.9873230979"><ele>74.64</ele><time>2026-04-22T12:29:37Z</time></trkpt><trkpt lat="59.0923286788" lon="29.9870376103"><ele>74.64</ele><time>2026-04-22T12:29:45Z</time></trkpt><trkpt lat="59.0923172794" lon="29.9870169908"><ele>74.64</ele><time>2026-04-22T12:29:46Z</time></trkpt><trkpt lat="59.0922624618" lon="29.9868429825"><ele>73.68</ele><time>2026-04-22T12:29:53Z</time></trkpt><trkpt lat="59.0922608692" lon="29.9868159927"><ele>73.68</ele><time>2026-04-22T12:29:54Z</time></trkpt><trkpt lat="59.0922563430" lon="29.9867900088"><ele>73.68</ele><time>2026-04-22T12:29:55Z</time></trkpt><trkpt lat="59.0922485478" lon="29.9867636897"><ele>73.68</ele><time>2026-04-22T12:29:56Z</time></trkpt><trkpt lat="59.0922393277" lon="29.9867320899"><ele>73.68</ele><time>2026-04-22T12:29:57Z</time></trkpt><trkpt lat="59.0922013577" lon="29.9865660444"><ele>73.68</ele><time>2026-04-22T12:30:07Z</time></trkpt><trkpt lat="59.0921958257" lon="29.9865683913"><ele>73.68</ele><time>2026-04-22T12:30:19Z</time></trkpt><trkpt lat="59.0922007710" lon="29.9865844008"><ele>74.64</ele><time>2026-04-22T12:30:32Z</time></trkpt><trkpt lat="59.0922002681" lon="29.9865853228"><ele>74.64</ele><time>2026-04-22T12:30:33Z</time></trkpt></trkseg></trk></gpx>